SIA21 KEWR-WSSS
Flight info
| Callsign | SIA21 |
|---|---|
| Flight time | 18h 27m |
| Altitude | 33000 |
| Route | MERIT DCT HFD DCT PUT DCT TUSKY DCT YHZ/N0491F350 Q846 NOTOP DCT JOOPY/M085F350 DCT 49N050W 50N040W 51N030W 51N020W DCT DINIM DCT ELSOX DCT LESLU/N0486F350 DCT OXLOW/N0479F370 DCT KONAN UL607 KOK DCT REMBA DCT MATUG DCT AMASI DCT BOMBI DCT TENLO DCT DEXIT DCT PESAT/N0475F390 DCT TEGRI DCT UDROS UM859 KARDE UL851 TBN UR317 REBLO M11 LUSAL N199 BAKUV N701 LARGI B701 KRS A240 KESEK/N0482F410 A240 INRAK B449 DOLOS B475 RUBAD A846 RANAH L750 MERUN G452 LKN R460 CEA L507 BGO M626 IKOGA Y24 PASVA Y514 NUFFA DCT PIBAP DCT PASPU DCT NYLON |
| Aircraft | A359/H-SDE1E2E3GHIJ1J2J3J5M1P2RWXYZ/LB1D1 |
Departure
| Time | 2026-04-25 22:52 |
|---|---|
| Airport | Newark Liberty International Airport (KEWR) |
Arrival
| Time | 2026-04-26 17:19 |
|---|---|
| Airport | Singapore Changi Airport (WSSS) |
| Time | Latitude | Longitude | Altitude | Speed | Heading |
|---|---|---|---|---|---|
| 2026-04-25 22:20 | 40.68588 | -74.18065 | 26 ft | 0 kts | 77° |
| 2026-04-25 22:40 | 40.68586 | -74.18072 | 27 ft | 4 kts | 79° |
| 2026-04-25 22:40 | 40.68586 | -74.18105 | 26 ft | 4 kts | 117° |
| 2026-04-25 22:40 | 40.68603 | -74.18126 | 30 ft | 4 kts | 167° |
| 2026-04-25 22:40 | 40.68621 | -74.18129 | 30 ft | 0 kts | 178° |
| 2026-04-25 22:45 | 40.68609 | -74.18129 | 27 ft | 4 kts | 177° |
| 2026-04-25 22:45 | 40.68565 | -74.18126 | 29 ft | 9 kts | 176° |
| 2026-04-25 22:45 | 40.68499 | -74.18095 | 30 ft | 11 kts | 145° |
| 2026-04-25 22:46 | 40.68440 | -74.18069 | 30 ft | 6 kts | 169° |
| 2026-04-25 22:46 | 40.68405 | -74.18062 | 29 ft | 5 kts | 171° |
| 2026-04-25 22:46 | 40.68379 | -74.18047 | 27 ft | 4 kts | 143° |
| 2026-04-25 22:46 | 40.68360 | -74.17996 | 31 ft | 8 kts | 94° |
| 2026-04-25 22:47 | 40.68366 | -74.17906 | 27 ft | 12 kts | 92° |
| 2026-04-25 22:47 | 40.68352 | -74.17815 | 28 ft | 11 kts | 105° |
| 2026-04-25 22:47 | 40.68318 | -74.17745 | 27 ft | 7 kts | 139° |
| 2026-04-25 22:47 | 40.68285 | -74.17706 | 26 ft | 6 kts | 139° |
| 2026-04-25 22:48 | 40.68233 | -74.17680 | 29 ft | 7 kts | 176° |
| 2026-04-25 22:48 | 40.68190 | -74.17693 | 29 ft | 5 kts | 199° |
| 2026-04-25 22:48 | 40.68160 | -74.17710 | 26 ft | 6 kts | 204° |
| 2026-04-25 22:48 | 40.68107 | -74.17744 | 26 ft | 13 kts | 206° |
| 2026-04-25 22:49 | 40.67995 | -74.17815 | 26 ft | 16 kts | 207° |
| 2026-04-25 22:49 | 40.67896 | -74.17879 | 29 ft | 16 kts | 206° |
| 2026-04-25 22:49 | 40.67791 | -74.17945 | 27 ft | 18 kts | 204° |
| 2026-04-25 22:49 | 40.67682 | -74.18013 | 29 ft | 14 kts | 206° |
| 2026-04-25 22:50 | 40.67612 | -74.18037 | 28 ft | 10 kts | 166° |
| 2026-04-25 22:50 | 40.67573 | -74.17976 | 28 ft | 8 kts | 105° |
| 2026-04-25 22:50 | 40.67586 | -74.17932 | 29 ft | 5 kts | 56° |
| 2026-04-25 22:50 | 40.67611 | -74.17899 | 28 ft | 6 kts | 37° |
| 2026-04-25 22:51 | 40.67667 | -74.17860 | 26 ft | 18 kts | 26° |
| 2026-04-25 22:51 | 40.67968 | -74.17669 | 24 ft | 77 kts | 26° |
| 2026-04-25 22:51 | 40.68607 | -74.17263 | 31 ft | 126 kts | 25° |
| 2026-04-25 22:51 | 40.69532 | -74.16669 | 34 ft | 169 kts | 28° |
| 2026-04-25 22:52 | 40.70602 | -74.16018 | 566 ft | 167 kts | 26° |
| 2026-04-25 22:52 | 40.71655 | -74.15439 | 1124 ft | 167 kts | 38° |
| 2026-04-25 22:52 | 40.72561 | -74.14362 | 1405 ft | 186 kts | 46° |
| 2026-04-25 22:52 | 40.73209 | -74.13569 | 1579 ft | 198 kts | 45° |
| 2026-04-25 22:53 | 40.74588 | -74.11788 | 1934 ft | 219 kts | 49° |
| 2026-04-25 22:53 | 40.75674 | -74.10263 | 2189 ft | 236 kts | 51° |
| 2026-04-25 22:53 | 40.76795 | -74.08630 | 2657 ft | 243 kts | 51° |
| 2026-04-25 22:53 | 40.77924 | -74.06954 | 3132 ft | 251 kts | 51° |
| 2026-04-25 22:54 | 40.79092 | -74.05201 | 3626 ft | 258 kts | 51° |
| 2026-04-25 22:54 | 40.80292 | -74.03388 | 4004 ft | 267 kts | 51° |
| 2026-04-25 22:54 | 40.81539 | -74.01496 | 4387 ft | 277 kts | 51° |
| 2026-04-25 22:54 | 40.82821 | -73.99547 | 4798 ft | 284 kts | 50° |
| 2026-04-25 22:55 | 40.84118 | -73.97574 | 5402 ft | 285 kts | 49° |
| 2026-04-25 22:55 | 40.85422 | -73.95562 | 5851 ft | 291 kts | 51° |
| 2026-04-25 22:55 | 40.86743 | -73.93486 | 6303 ft | 296 kts | 49° |
| 2026-04-25 22:55 | 40.88082 | -73.91399 | 6794 ft | 300 kts | 48° |
| 2026-04-25 22:56 | 40.89447 | -73.89288 | 7247 ft | 303 kts | 48° |
| 2026-04-25 22:56 | 40.90827 | -73.87163 | 7767 ft | 305 kts | 47° |
| 2026-04-25 22:56 | 40.92211 | -73.85038 | 8321 ft | 305 kts | 47° |
| 2026-04-25 22:56 | 40.93585 | -73.82928 | 8838 ft | 308 kts | 47° |
| 2026-04-25 22:57 | 40.94985 | -73.80780 | 9381 ft | 309 kts | 47° |
| 2026-04-25 22:57 | 40.96395 | -73.78615 | 9924 ft | 312 kts | 46° |
| 2026-04-25 22:57 | 40.97823 | -73.76423 | 10278 ft | 320 kts | 46° |
| 2026-04-25 22:57 | 40.99307 | -73.74147 | 10467 ft | 333 kts | 46° |
| 2026-04-25 22:58 | 41.00851 | -73.71776 | 10664 ft | 347 kts | 47° |
| 2026-04-25 22:58 | 41.02452 | -73.69312 | 10841 ft | 359 kts | 47° |
| 2026-04-25 22:58 | 41.04109 | -73.66761 | 11061 ft | 371 kts | 47° |
| 2026-04-25 22:58 | 41.05814 | -73.64131 | 11235 ft | 382 kts | 46° |
| 2026-04-25 22:59 | 41.07574 | -73.61416 | 11385 ft | 394 kts | 46° |
| 2026-04-25 22:59 | 41.09381 | -73.58627 | 11585 ft | 403 kts | 46° |
| 2026-04-25 22:59 | 41.11221 | -73.55780 | 11888 ft | 408 kts | 46° |
| 2026-04-25 22:59 | 41.13075 | -73.52909 | 12290 ft | 411 kts | 47° |
| 2026-04-25 23:00 | 41.14942 | -73.50015 | 12690 ft | 414 kts | 46° |
| 2026-04-25 23:00 | 41.16821 | -73.47101 | 13103 ft | 417 kts | 46° |
| 2026-04-25 23:00 | 41.18693 | -73.44195 | 13504 ft | 419 kts | 46° |
| 2026-04-25 23:00 | 41.20597 | -73.41238 | 13906 ft | 421 kts | 47° |
| 2026-04-25 23:01 | 41.22500 | -73.38277 | 14340 ft | 421 kts | 46° |
| 2026-04-25 23:01 | 41.24403 | -73.35315 | 14722 ft | 422 kts | 47° |
| 2026-04-25 23:01 | 41.26314 | -73.32338 | 15071 ft | 424 kts | 47° |
| 2026-04-25 23:01 | 41.28229 | -73.29352 | 15422 ft | 426 kts | 46° |
| 2026-04-25 23:02 | 41.30169 | -73.26325 | 15706 ft | 431 kts | 46° |
| 2026-04-25 23:02 | 41.32114 | -73.23286 | 16061 ft | 433 kts | 46° |
| 2026-04-25 23:02 | 41.34064 | -73.20235 | 16435 ft | 434 kts | 46° |
| 2026-04-25 23:02 | 41.36024 | -73.17164 | 16789 ft | 435 kts | 46° |
| 2026-04-25 23:03 | 41.37947 | -73.14041 | 17174 ft | 437 kts | 51° |
| 2026-04-25 23:03 | 41.39673 | -73.10702 | 17609 ft | 439 kts | 54° |
| 2026-04-25 23:03 | 41.41256 | -73.07275 | 17927 ft | 442 kts | 57° |
| 2026-04-25 23:03 | 41.42824 | -73.03677 | 18262 ft | 444 kts | 57° |
| 2026-04-25 23:04 | 41.44337 | -73.00137 | 18549 ft | 446 kts | 57° |
| 2026-04-25 23:04 | 41.45359 | -72.97742 | 18733 ft | 448 kts | 57° |
| 2026-04-25 23:04 | 41.46916 | -72.94119 | 18972 ft | 450 kts | 57° |
| 2026-04-25 23:04 | 41.49036 | -72.89239 | 19137 ft | 458 kts | 57° |
| 2026-04-25 23:05 | 41.50102 | -72.86802 | 19307 ft | 459 kts | 57° |
| 2026-04-25 23:05 | 41.51712 | -72.83129 | 19637 ft | 459 kts | 57° |
| 2026-04-25 23:05 | 41.53329 | -72.79445 | 19910 ft | 461 kts | 56° |
| 2026-04-25 23:05 | 41.54951 | -72.75747 | 20188 ft | 463 kts | 56° |
| 2026-04-25 23:06 | 41.56580 | -72.72030 | 20465 ft | 464 kts | 56° |
| 2026-04-25 23:06 | 41.58742 | -72.67087 | 20821 ft | 467 kts | 56° |
| 2026-04-25 23:06 | 41.60383 | -72.63331 | 21084 ft | 469 kts | 56° |
| 2026-04-25 23:06 | 41.61492 | -72.60788 | 21272 ft | 470 kts | 56° |
| 2026-04-25 23:07 | 41.63145 | -72.56994 | 21507 ft | 473 kts | 56° |
| 2026-04-25 23:07 | 41.64783 | -72.53236 | 21740 ft | 475 kts | 56° |
| 2026-04-25 23:07 | 41.66475 | -72.49434 | 22033 ft | 476 kts | 55° |
| 2026-04-25 23:07 | 41.68193 | -72.45632 | 22305 ft | 478 kts | 54° |
| 2026-04-25 23:08 | 41.69924 | -72.41822 | 22570 ft | 480 kts | 54° |
| 2026-04-25 23:08 | 41.71657 | -72.38001 | 22846 ft | 481 kts | 54° |
| 2026-04-25 23:08 | 41.73391 | -72.34166 | 23109 ft | 483 kts | 54° |
| 2026-04-25 23:08 | 41.75127 | -72.30312 | 23366 ft | 484 kts | 54° |
| 2026-04-25 23:09 | 41.76866 | -72.26440 | 23626 ft | 486 kts | 54° |
| 2026-04-25 23:09 | 41.78611 | -72.22545 | 23825 ft | 488 kts | 54° |
| 2026-04-25 23:09 | 41.80361 | -72.18629 | 24029 ft | 490 kts | 54° |
| 2026-04-25 23:09 | 41.82110 | -72.14711 | 24220 ft | 492 kts | 54° |
| 2026-04-25 23:10 | 41.83873 | -72.10755 | 24506 ft | 492 kts | 55° |
| 2026-04-25 23:10 | 41.85630 | -72.06805 | 24735 ft | 494 kts | 55° |
| 2026-04-25 23:10 | 41.87375 | -72.02882 | 24916 ft | 496 kts | 55° |
| 2026-04-25 23:10 | 41.89143 | -71.98902 | 25119 ft | 498 kts | 55° |
| 2026-04-25 23:11 | 41.90920 | -71.94898 | 25342 ft | 500 kts | 55° |
| 2026-04-25 23:11 | 41.92699 | -71.90882 | 25528 ft | 502 kts | 55° |
| 2026-04-25 23:11 | 41.94486 | -71.86844 | 25764 ft | 503 kts | 54° |
| 2026-04-25 23:11 | 41.96272 | -71.82789 | 25981 ft | 506 kts | 55° |
| 2026-04-25 23:12 | 41.97937 | -71.78602 | 26223 ft | 509 kts | 59° |
| 2026-04-25 23:12 | 41.99474 | -71.74303 | 26488 ft | 511 kts | 61° |
| 2026-04-25 23:12 | 42.00968 | -71.69953 | 26702 ft | 514 kts | 62° |
| 2026-04-25 23:12 | 42.02465 | -71.65578 | 26913 ft | 516 kts | 61° |
| 2026-04-25 23:13 | 42.03980 | -71.61204 | 27134 ft | 517 kts | 61° |
| 2026-04-25 23:13 | 42.05517 | -71.56827 | 27353 ft | 519 kts | 60° |
| 2026-04-25 23:13 | 42.07077 | -71.52431 | 27571 ft | 521 kts | 60° |
| 2026-04-25 23:13 | 42.08648 | -71.48031 | 27798 ft | 523 kts | 60° |
| 2026-04-25 23:14 | 42.10227 | -71.43618 | 28007 ft | 525 kts | 60° |
| 2026-04-25 23:14 | 42.11815 | -71.39180 | 28252 ft | 526 kts | 60° |
| 2026-04-25 23:14 | 42.13383 | -71.34787 | 28488 ft | 527 kts | 60° |
| 2026-04-25 23:14 | 42.14972 | -71.30326 | 28681 ft | 529 kts | 60° |
| 2026-04-25 23:15 | 42.16566 | -71.25845 | 28869 ft | 531 kts | 60° |
| 2026-04-25 23:15 | 42.18162 | -71.21345 | 29056 ft | 533 kts | 60° |
| 2026-04-25 23:15 | 42.19766 | -71.16817 | 29231 ft | 535 kts | 60° |
| 2026-04-25 23:15 | 42.21368 | -71.12287 | 29427 ft | 536 kts | 60° |
| 2026-04-25 23:16 | 42.22974 | -71.07735 | 29600 ft | 538 kts | 60° |
| 2026-04-25 23:16 | 42.24580 | -71.03177 | 29835 ft | 538 kts | 60° |
| 2026-04-25 23:16 | 42.26160 | -70.98681 | 30163 ft | 537 kts | 60° |
| 2026-04-25 23:16 | 42.27761 | -70.94120 | 30390 ft | 536 kts | 60° |
| 2026-04-25 23:17 | 42.29358 | -70.89563 | 30567 ft | 537 kts | 60° |
| 2026-04-25 23:17 | 42.30957 | -70.84999 | 30754 ft | 538 kts | 60° |
| 2026-04-25 23:17 | 42.32554 | -70.80429 | 30940 ft | 538 kts | 60° |
| 2026-04-25 23:17 | 42.34149 | -70.75860 | 31138 ft | 538 kts | 60° |
| 2026-04-25 23:18 | 42.35744 | -70.71281 | 31327 ft | 538 kts | 60° |
| 2026-04-25 23:18 | 42.37340 | -70.66693 | 31533 ft | 539 kts | 60° |
| 2026-04-25 23:18 | 42.38935 | -70.62098 | 31701 ft | 539 kts | 60° |
| 2026-04-25 23:18 | 42.40528 | -70.57505 | 31893 ft | 539 kts | 60° |
| 2026-04-25 23:19 | 42.42116 | -70.52913 | 32078 ft | 539 kts | 59° |
| 2026-04-25 23:19 | 42.43705 | -70.48313 | 32320 ft | 538 kts | 59° |
| 2026-04-25 23:19 | 42.45288 | -70.43721 | 32514 ft | 538 kts | 59° |
| 2026-04-25 23:19 | 42.46871 | -70.39123 | 32688 ft | 538 kts | 59° |
| 2026-04-25 23:20 | 42.48452 | -70.34525 | 32850 ft | 539 kts | 59° |
| 2026-04-25 23:20 | 42.50012 | -70.29982 | 33026 ft | 538 kts | 59° |
| 2026-04-25 23:20 | 42.53201 | -70.20673 | 33126 ft | 544 kts | 59° |
| 2026-04-25 23:21 | 42.56352 | -70.11437 | 33132 ft | 542 kts | 59° |
| 2026-04-25 23:21 | 42.59502 | -70.02162 | 33133 ft | 541 kts | 59° |
| 2026-04-25 23:22 | 42.62646 | -69.92888 | 33131 ft | 541 kts | 59° |
| 2026-04-25 23:23 | 42.67340 | -69.78975 | 33130 ft | 539 kts | 59° |
| 2026-04-25 23:23 | 42.70454 | -69.69709 | 33132 ft | 539 kts | 59° |
| 2026-04-25 23:24 | 42.73560 | -69.60435 | 33133 ft | 539 kts | 59° |
| 2026-04-25 23:24 | 42.76657 | -69.51155 | 33141 ft | 538 kts | 59° |
| 2026-04-25 23:25 | 42.79739 | -69.41885 | 33128 ft | 537 kts | 59° |
| 2026-04-25 23:25 | 42.82791 | -69.32676 | 33129 ft | 536 kts | 59° |
| 2026-04-25 23:26 | 42.85855 | -69.23403 | 33124 ft | 537 kts | 59° |
| 2026-04-25 23:26 | 42.88911 | -69.14120 | 33125 ft | 536 kts | 59° |
| 2026-04-25 23:27 | 42.91952 | -69.04849 | 33122 ft | 535 kts | 59° |
| 2026-04-25 23:27 | 42.94987 | -68.95565 | 33121 ft | 535 kts | 59° |
| 2026-04-25 23:28 | 42.98013 | -68.86279 | 33122 ft | 535 kts | 59° |
| 2026-04-25 23:28 | 43.01029 | -68.76990 | 33123 ft | 534 kts | 58° |
| 2026-04-25 23:29 | 43.04007 | -68.67781 | 33117 ft | 533 kts | 58° |
| 2026-04-25 23:29 | 43.07000 | -68.58500 | 33117 ft | 533 kts | 58° |
| 2026-04-25 23:30 | 43.09990 | -68.49198 | 33113 ft | 533 kts | 59° |
| 2026-04-25 23:30 | 43.12966 | -68.39903 | 33108 ft | 533 kts | 58° |
| 2026-04-25 23:31 | 43.15939 | -68.30583 | 33111 ft | 533 kts | 58° |
| 2026-04-25 23:31 | 43.18901 | -68.21267 | 33108 ft | 533 kts | 58° |
| 2026-04-25 23:32 | 43.21831 | -68.12019 | 33108 ft | 533 kts | 58° |
| 2026-04-25 23:32 | 43.24776 | -68.02693 | 33109 ft | 533 kts | 58° |
| 2026-04-25 23:33 | 43.27708 | -67.93370 | 33101 ft | 532 kts | 58° |
| 2026-04-25 23:33 | 43.30632 | -67.84044 | 33122 ft | 532 kts | 58° |
| 2026-04-25 23:34 | 43.33547 | -67.74711 | 33096 ft | 531 kts | 58° |
| 2026-04-25 23:34 | 43.36451 | -67.65380 | 33102 ft | 531 kts | 58° |
| 2026-04-25 23:35 | 43.39342 | -67.56056 | 33096 ft | 530 kts | 58° |
| 2026-04-25 23:35 | 43.42226 | -67.46728 | 33094 ft | 530 kts | 58° |
| 2026-04-25 23:36 | 43.45105 | -67.37379 | 33077 ft | 530 kts | 58° |
| 2026-04-25 23:36 | 43.47974 | -67.28030 | 33089 ft | 530 kts | 58° |
| 2026-04-25 23:37 | 43.50816 | -67.18733 | 33084 ft | 530 kts | 58° |
| 2026-04-25 23:37 | 43.53667 | -67.09373 | 33081 ft | 530 kts | 58° |
| 2026-04-25 23:38 | 43.56591 | -67.00064 | 33077 ft | 524 kts | 53° |
| 2026-04-25 23:38 | 43.60010 | -66.91228 | 33095 ft | 521 kts | 52° |
| 2026-04-25 23:39 | 43.63508 | -66.82484 | 33075 ft | 520 kts | 52° |
| 2026-04-25 23:39 | 43.66990 | -66.73807 | 33073 ft | 520 kts | 52° |
| 2026-04-25 23:40 | 43.70478 | -66.65062 | 33070 ft | 519 kts | 52° |
| 2026-04-25 23:40 | 43.73951 | -66.56311 | 33067 ft | 518 kts | 52° |
| 2026-04-25 23:41 | 43.77398 | -66.47589 | 33055 ft | 516 kts | 52° |
| 2026-04-25 23:41 | 43.80839 | -66.38862 | 33051 ft | 516 kts | 53° |
| 2026-04-25 23:42 | 43.84272 | -66.30130 | 33047 ft | 516 kts | 53° |
| 2026-04-25 23:42 | 43.87701 | -66.21379 | 33036 ft | 516 kts | 53° |
| 2026-04-25 23:43 | 43.91114 | -66.12638 | 33047 ft | 515 kts | 54° |
| 2026-04-25 23:43 | 43.94516 | -66.03900 | 33046 ft | 515 kts | 54° |
| 2026-04-25 23:44 | 43.97889 | -65.95212 | 33071 ft | 515 kts | 54° |
| 2026-04-25 23:44 | 44.01271 | -65.86470 | 33051 ft | 512 kts | 54° |
| 2026-04-25 23:45 | 44.04633 | -65.77756 | 33049 ft | 512 kts | 54° |
| 2026-04-25 23:45 | 44.07993 | -65.69019 | 33048 ft | 512 kts | 55° |
| 2026-04-25 23:46 | 44.11345 | -65.60280 | 33045 ft | 512 kts | 55° |
| 2026-04-25 23:46 | 44.14692 | -65.51522 | 33058 ft | 512 kts | 55° |
| 2026-04-25 23:47 | 44.18019 | -65.42785 | 33043 ft | 510 kts | 55° |
| 2026-04-25 23:47 | 44.21340 | -65.34041 | 33034 ft | 510 kts | 55° |
| 2026-04-25 23:48 | 44.24628 | -65.25359 | 33037 ft | 509 kts | 55° |
| 2026-04-25 23:48 | 44.27926 | -65.16621 | 33037 ft | 508 kts | 55° |
| 2026-04-25 23:49 | 44.31213 | -65.07887 | 33053 ft | 508 kts | 55° |
| 2026-04-25 23:49 | 44.34500 | -64.99124 | 33035 ft | 508 kts | 55° |
| 2026-04-25 23:50 | 44.37773 | -64.90370 | 33053 ft | 508 kts | 56° |
| 2026-04-25 23:50 | 44.41029 | -64.81630 | 33025 ft | 506 kts | 56° |
| 2026-04-25 23:51 | 44.44253 | -64.72955 | 33010 ft | 506 kts | 56° |
| 2026-04-25 23:51 | 44.47496 | -64.64203 | 33014 ft | 506 kts | 56° |
| 2026-04-25 23:52 | 44.50729 | -64.55446 | 33013 ft | 505 kts | 57° |
| 2026-04-25 23:52 | 44.53950 | -64.46690 | 33004 ft | 505 kts | 57° |
| 2026-04-25 23:53 | 44.57162 | -64.37934 | 33003 ft | 505 kts | 57° |
| 2026-04-25 23:53 | 44.60372 | -64.29156 | 33007 ft | 505 kts | 57° |
| 2026-04-25 23:54 | 44.63574 | -64.20371 | 33002 ft | 505 kts | 57° |
| 2026-04-25 23:54 | 44.66742 | -64.11652 | 33005 ft | 504 kts | 58° |
| 2026-04-25 23:55 | 44.69926 | -64.02864 | 33006 ft | 505 kts | 58° |
| 2026-04-25 23:55 | 44.73102 | -63.94069 | 33001 ft | 505 kts | 58° |
| 2026-04-25 23:56 | 44.76267 | -63.85271 | 33007 ft | 502 kts | 58° |
| 2026-04-25 23:56 | 44.79408 | -63.76511 | 33008 ft | 501 kts | 58° |
| 2026-04-25 23:57 | 44.82548 | -63.67729 | 32983 ft | 502 kts | 58° |
| 2026-04-25 23:57 | 44.85678 | -63.58947 | 32989 ft | 502 kts | 58° |
| 2026-04-25 23:58 | 44.88805 | -63.50144 | 32977 ft | 501 kts | 58° |
| 2026-04-25 23:58 | 44.91898 | -63.41406 | 33157 ft | 499 kts | 58° |
| 2026-04-25 23:58 | 44.93438 | -63.37034 | 33505 ft | 496 kts | 58° |
| 2026-04-25 23:59 | 44.94939 | -63.32657 | 33737 ft | 496 kts | 59° |
| 2026-04-25 23:59 | 44.96421 | -63.28257 | 33902 ft | 497 kts | 59° |
| 2026-04-25 23:59 | 44.97899 | -63.23840 | 34075 ft | 497 kts | 59° |
| 2026-04-25 23:59 | 44.99375 | -63.19425 | 34276 ft | 496 kts | 59° |
| 2026-04-26 00:00 | 45.00843 | -63.15032 | 34538 ft | 493 kts | 59° |
| 2026-04-26 00:00 | 45.02309 | -63.10651 | 34695 ft | 493 kts | 59° |
| 2026-04-26 00:00 | 45.03781 | -63.06264 | 34800 ft | 494 kts | 59° |
| 2026-04-26 00:00 | 45.05255 | -63.01871 | 34935 ft | 494 kts | 59° |
| 2026-04-26 00:01 | 45.06730 | -62.97466 | 34989 ft | 497 kts | 59° |
| 2026-04-26 00:01 | 45.09825 | -62.88750 | 34987 ft | 500 kts | 55° |
| 2026-04-26 00:02 | 45.13357 | -62.80302 | 34984 ft | 496 kts | 54° |
| 2026-04-26 00:02 | 45.16896 | -62.71922 | 34989 ft | 495 kts | 54° |
| 2026-04-26 00:03 | 45.20364 | -62.63489 | 34982 ft | 495 kts | 55° |
| 2026-04-26 00:03 | 45.23790 | -62.55016 | 34976 ft | 495 kts | 55° |
| 2026-04-26 00:04 | 45.27171 | -62.46601 | 34976 ft | 492 kts | 55° |
| 2026-04-26 00:04 | 45.30557 | -62.38155 | 34977 ft | 491 kts | 55° |
| 2026-04-26 00:05 | 45.33368 | -62.31134 | 34970 ft | 491 kts | 55° |
| 2026-04-26 00:05 | 45.36739 | -62.22690 | 34983 ft | 491 kts | 55° |
| 2026-04-26 00:06 | 45.40112 | -62.14217 | 34960 ft | 492 kts | 56° |
| 2026-04-26 00:06 | 45.43475 | -62.05741 | 34957 ft | 492 kts | 56° |
| 2026-04-26 00:07 | 45.46816 | -61.97237 | 34957 ft | 492 kts | 57° |
| 2026-04-26 00:07 | 45.49984 | -61.88580 | 34965 ft | 493 kts | 58° |
| 2026-04-26 00:08 | 45.53108 | -61.79864 | 34949 ft | 493 kts | 58° |
| 2026-04-26 00:08 | 45.56247 | -61.71168 | 34924 ft | 493 kts | 58° |
| 2026-04-26 00:09 | 45.59377 | -61.62533 | 34913 ft | 493 kts | 58° |
| 2026-04-26 00:09 | 45.62526 | -61.53835 | 34902 ft | 493 kts | 58° |
| 2026-04-26 00:10 | 45.65669 | -61.45124 | 34903 ft | 493 kts | 58° |
| 2026-04-26 00:10 | 45.68810 | -61.36389 | 34898 ft | 495 kts | 58° |
| 2026-04-26 00:11 | 45.71949 | -61.27626 | 34895 ft | 495 kts | 58° |
| 2026-04-26 00:11 | 45.75081 | -61.18852 | 34891 ft | 495 kts | 58° |
| 2026-04-26 00:12 | 45.78208 | -61.10065 | 34883 ft | 495 kts | 58° |
| 2026-04-26 00:12 | 45.81330 | -61.01265 | 34870 ft | 495 kts | 58° |
| 2026-04-26 00:13 | 45.84447 | -60.92449 | 34873 ft | 496 kts | 58° |
| 2026-04-26 00:13 | 45.87535 | -60.83685 | 34857 ft | 496 kts | 58° |
| 2026-04-26 00:14 | 45.90637 | -60.74853 | 34860 ft | 495 kts | 59° |
| 2026-04-26 00:14 | 45.93726 | -60.66028 | 34860 ft | 494 kts | 59° |
| 2026-04-26 00:15 | 45.96808 | -60.57195 | 34853 ft | 494 kts | 59° |
| 2026-04-26 00:15 | 45.99883 | -60.48356 | 34849 ft | 494 kts | 59° |
| 2026-04-26 00:16 | 46.02952 | -60.39501 | 34845 ft | 494 kts | 59° |
| 2026-04-26 00:16 | 46.06014 | -60.30639 | 34836 ft | 494 kts | 59° |
| 2026-04-26 00:17 | 46.09066 | -60.21774 | 34848 ft | 494 kts | 59° |
| 2026-04-26 00:17 | 46.12095 | -60.12948 | 34838 ft | 494 kts | 59° |
| 2026-04-26 00:18 | 46.15131 | -60.04070 | 34843 ft | 493 kts | 60° |
| 2026-04-26 00:18 | 46.18148 | -59.95219 | 34830 ft | 491 kts | 60° |
| 2026-04-26 00:19 | 46.21161 | -59.86349 | 34816 ft | 492 kts | 60° |
| 2026-04-26 00:19 | 46.24168 | -59.77470 | 34818 ft | 492 kts | 60° |
| 2026-04-26 00:20 | 46.27167 | -59.68582 | 34806 ft | 491 kts | 60° |
| 2026-04-26 00:20 | 46.30148 | -59.59716 | 34807 ft | 490 kts | 60° |
| 2026-04-26 00:21 | 46.33102 | -59.50902 | 34801 ft | 490 kts | 60° |
| 2026-04-26 00:21 | 46.36067 | -59.42025 | 34793 ft | 490 kts | 60° |
| 2026-04-26 00:22 | 46.39029 | -59.33129 | 34787 ft | 490 kts | 60° |
| 2026-04-26 00:22 | 46.41973 | -59.24252 | 34792 ft | 488 kts | 60° |
| 2026-04-26 00:23 | 46.44914 | -59.15359 | 34779 ft | 490 kts | 61° |
| 2026-04-26 00:23 | 46.47858 | -59.06425 | 34765 ft | 491 kts | 61° |
| 2026-04-26 00:24 | 46.50779 | -58.97529 | 34769 ft | 491 kts | 61° |
| 2026-04-26 00:24 | 46.53712 | -58.88564 | 34760 ft | 491 kts | 61° |
| 2026-04-26 00:25 | 46.56631 | -58.79610 | 34755 ft | 491 kts | 61° |
| 2026-04-26 00:25 | 46.59551 | -58.70625 | 34750 ft | 491 kts | 61° |
| 2026-04-26 00:26 | 46.62459 | -58.61644 | 34742 ft | 491 kts | 62° |
| 2026-04-26 00:26 | 46.65360 | -58.52656 | 34738 ft | 491 kts | 62° |
| 2026-04-26 00:27 | 46.68256 | -58.43651 | 34737 ft | 491 kts | 62° |
| 2026-04-26 00:27 | 46.71134 | -58.34669 | 34728 ft | 493 kts | 62° |
| 2026-04-26 00:28 | 46.74029 | -58.25602 | 34728 ft | 493 kts | 62° |
| 2026-04-26 00:28 | 46.76915 | -58.16531 | 34725 ft | 492 kts | 62° |
| 2026-04-26 00:29 | 46.79790 | -58.07459 | 34712 ft | 492 kts | 62° |
| 2026-04-26 00:29 | 46.82655 | -57.98390 | 34713 ft | 492 kts | 62° |
| 2026-04-26 00:30 | 46.85516 | -57.89304 | 34708 ft | 492 kts | 62° |
| 2026-04-26 00:30 | 46.88369 | -57.80208 | 34697 ft | 491 kts | 62° |
| 2026-04-26 00:31 | 46.91204 | -57.71135 | 34701 ft | 490 kts | 62° |
| 2026-04-26 00:31 | 46.94012 | -57.62119 | 34691 ft | 490 kts | 63° |
| 2026-04-26 00:32 | 46.96835 | -57.53022 | 34689 ft | 490 kts | 63° |
| 2026-04-26 00:32 | 47.01047 | -57.39388 | 34681 ft | 489 kts | 63° |
| 2026-04-26 00:33 | 47.03843 | -57.30293 | 34675 ft | 489 kts | 63° |
| 2026-04-26 00:33 | 47.06633 | -57.21187 | 34675 ft | 489 kts | 63° |
| 2026-04-26 00:34 | 47.09416 | -57.12073 | 34662 ft | 489 kts | 63° |
| 2026-04-26 00:34 | 47.12169 | -57.03022 | 34662 ft | 488 kts | 63° |
| 2026-04-26 00:35 | 47.14930 | -56.93911 | 34653 ft | 488 kts | 63° |
| 2026-04-26 00:35 | 47.17681 | -56.84804 | 34631 ft | 488 kts | 63° |
| 2026-04-26 00:36 | 47.20424 | -56.75686 | 34619 ft | 488 kts | 63° |
| 2026-04-26 00:36 | 47.23162 | -56.66551 | 34605 ft | 488 kts | 63° |
| 2026-04-26 00:37 | 47.25891 | -56.57415 | 34603 ft | 487 kts | 64° |
| 2026-04-26 00:37 | 47.28610 | -56.48277 | 34573 ft | 487 kts | 64° |
| 2026-04-26 00:38 | 47.31305 | -56.39188 | 34572 ft | 487 kts | 64° |
| 2026-04-26 00:38 | 47.34015 | -56.30013 | 34562 ft | 487 kts | 64° |
| 2026-04-26 00:39 | 47.36716 | -56.20835 | 34520 ft | 487 kts | 64° |
| 2026-04-26 00:39 | 47.39409 | -56.11650 | 34520 ft | 487 kts | 64° |
| 2026-04-26 00:40 | 47.42093 | -56.02458 | 34512 ft | 488 kts | 64° |
| 2026-04-26 00:40 | 47.44770 | -55.93260 | 34503 ft | 488 kts | 64° |
| 2026-04-26 00:41 | 47.47423 | -55.84106 | 34484 ft | 487 kts | 64° |
| 2026-04-26 00:41 | 47.50080 | -55.74903 | 34484 ft | 486 kts | 64° |
| 2026-04-26 00:42 | 47.52728 | -55.65701 | 34486 ft | 486 kts | 64° |
| 2026-04-26 00:42 | 47.55370 | -55.56488 | 34489 ft | 486 kts | 64° |
| 2026-04-26 00:43 | 47.58003 | -55.47263 | 34507 ft | 486 kts | 64° |
| 2026-04-26 00:43 | 47.60625 | -55.38046 | 34507 ft | 485 kts | 64° |
| 2026-04-26 00:44 | 47.63234 | -55.28836 | 34507 ft | 484 kts | 64° |
| 2026-04-26 00:44 | 47.65819 | -55.19676 | 34532 ft | 485 kts | 64° |
| 2026-04-26 00:45 | 47.68418 | -55.10434 | 34529 ft | 486 kts | 64° |
| 2026-04-26 00:45 | 47.71015 | -55.01162 | 34525 ft | 487 kts | 64° |
| 2026-04-26 00:46 | 47.73607 | -54.91875 | 34527 ft | 486 kts | 65° |
| 2026-04-26 00:46 | 47.76191 | -54.82576 | 34523 ft | 486 kts | 65° |
| 2026-04-26 00:47 | 47.78764 | -54.73281 | 34517 ft | 486 kts | 65° |
| 2026-04-26 00:47 | 47.81316 | -54.64027 | 34519 ft | 486 kts | 65° |
| 2026-04-26 00:48 | 47.83876 | -54.54707 | 34509 ft | 486 kts | 65° |
| 2026-04-26 00:48 | 47.86429 | -54.45380 | 34499 ft | 486 kts | 65° |
| 2026-04-26 00:49 | 47.88974 | -54.36042 | 34517 ft | 486 kts | 65° |
| 2026-04-26 00:49 | 47.91515 | -54.26682 | 34502 ft | 488 kts | 65° |
| 2026-04-26 00:50 | 47.94056 | -54.17281 | 34481 ft | 488 kts | 65° |
| 2026-04-26 00:50 | 47.96585 | -54.07889 | 34472 ft | 487 kts | 65° |
| 2026-04-26 00:51 | 47.99105 | -53.98494 | 34474 ft | 488 kts | 65° |
| 2026-04-26 00:51 | 48.01601 | -53.89151 | 34471 ft | 488 kts | 65° |
| 2026-04-26 00:52 | 48.04104 | -53.79744 | 34465 ft | 486 kts | 65° |
| 2026-04-26 00:52 | 48.06593 | -53.70351 | 34460 ft | 486 kts | 65° |
| 2026-04-26 00:53 | 48.09073 | -53.60952 | 34457 ft | 486 kts | 65° |
| 2026-04-26 00:53 | 48.11545 | -53.51548 | 34456 ft | 486 kts | 65° |
| 2026-04-26 00:54 | 48.14014 | -53.42120 | 34451 ft | 487 kts | 65° |
| 2026-04-26 00:54 | 48.16474 | -53.32686 | 34445 ft | 486 kts | 65° |
| 2026-04-26 00:55 | 48.18925 | -53.23245 | 34443 ft | 486 kts | 66° |
| 2026-04-26 00:55 | 48.21352 | -53.13860 | 34443 ft | 486 kts | 66° |
| 2026-04-26 00:56 | 48.23789 | -53.04397 | 34440 ft | 486 kts | 66° |
| 2026-04-26 00:56 | 48.26215 | -52.94937 | 34441 ft | 486 kts | 66° |
| 2026-04-26 00:57 | 48.28632 | -52.85474 | 34435 ft | 485 kts | 66° |
| 2026-04-26 00:57 | 48.31040 | -52.76006 | 34424 ft | 485 kts | 66° |
| 2026-04-26 00:58 | 48.33441 | -52.66529 | 34424 ft | 485 kts | 66° |
| 2026-04-26 00:58 | 48.35832 | -52.57048 | 34423 ft | 485 kts | 66° |
| 2026-04-26 00:59 | 48.38208 | -52.47588 | 34421 ft | 486 kts | 66° |
| 2026-04-26 00:59 | 48.40589 | -52.38067 | 34413 ft | 486 kts | 66° |
| 2026-04-26 01:00 | 48.42962 | -52.28541 | 34411 ft | 486 kts | 66° |
| 2026-04-26 01:00 | 48.45327 | -52.19004 | 34404 ft | 486 kts | 66° |
| 2026-04-26 01:01 | 48.47687 | -52.09450 | 34398 ft | 487 kts | 67° |
| 2026-04-26 01:01 | 48.50044 | -51.99864 | 34392 ft | 488 kts | 67° |
| 2026-04-26 01:02 | 48.52472 | -51.90317 | 34387 ft | 487 kts | 66° |
| 2026-04-26 01:02 | 48.54955 | -51.80877 | 34387 ft | 487 kts | 66° |
| 2026-04-26 01:03 | 48.57443 | -51.71350 | 34404 ft | 487 kts | 66° |
| 2026-04-26 01:03 | 48.59916 | -51.61770 | 34385 ft | 491 kts | 66° |
| 2026-04-26 01:04 | 48.61970 | -51.53763 | 34383 ft | 492 kts | 66° |
| 2026-04-26 01:04 | 48.64434 | -51.44110 | 34370 ft | 492 kts | 66° |
| 2026-04-26 01:05 | 48.66895 | -51.34428 | 34375 ft | 492 kts | 66° |
| 2026-04-26 01:05 | 48.69329 | -51.24819 | 34361 ft | 492 kts | 67° |
| 2026-04-26 01:06 | 48.71784 | -51.15082 | 34362 ft | 492 kts | 67° |
| 2026-04-26 01:06 | 48.74201 | -51.05459 | 34361 ft | 492 kts | 67° |
| 2026-04-26 01:07 | 48.76623 | -50.95772 | 34356 ft | 492 kts | 67° |
| 2026-04-26 01:07 | 48.79040 | -50.86062 | 34357 ft | 492 kts | 67° |
| 2026-04-26 01:08 | 48.81446 | -50.76358 | 34366 ft | 491 kts | 67° |
| 2026-04-26 01:08 | 48.83845 | -50.66639 | 34351 ft | 492 kts | 68° |
| 2026-04-26 01:09 | 48.86221 | -50.56969 | 34345 ft | 493 kts | 68° |
| 2026-04-26 01:09 | 48.88609 | -50.47207 | 34343 ft | 493 kts | 68° |
| 2026-04-26 01:10 | 48.90991 | -50.37427 | 34342 ft | 493 kts | 68° |
| 2026-04-26 01:10 | 48.93361 | -50.27655 | 34343 ft | 493 kts | 68° |
| 2026-04-26 01:11 | 48.95724 | -50.17869 | 34339 ft | 493 kts | 68° |
| 2026-04-26 01:11 | 48.98078 | -50.08074 | 34340 ft | 493 kts | 68° |
| 2026-04-26 01:12 | 49.00213 | -49.98162 | 34345 ft | 494 kts | 74° |
| 2026-04-26 01:12 | 49.01787 | -49.87967 | 34342 ft | 495 kts | 75° |
| 2026-04-26 01:13 | 49.03250 | -49.77786 | 34338 ft | 496 kts | 76° |
| 2026-04-26 01:13 | 49.04707 | -49.67504 | 34328 ft | 497 kts | 76° |
| 2026-04-26 01:14 | 49.06165 | -49.57207 | 34335 ft | 497 kts | 76° |
| 2026-04-26 01:14 | 49.07620 | -49.46907 | 34332 ft | 496 kts | 76° |
| 2026-04-26 01:15 | 49.09065 | -49.36619 | 34328 ft | 496 kts | 76° |
| 2026-04-26 01:15 | 49.10502 | -49.26313 | 34333 ft | 496 kts | 76° |
| 2026-04-26 01:16 | 49.11929 | -49.16007 | 34333 ft | 496 kts | 76° |
| 2026-04-26 01:16 | 49.13348 | -49.05691 | 34336 ft | 497 kts | 77° |
| 2026-04-26 01:17 | 49.14751 | -48.95412 | 34330 ft | 498 kts | 77° |
| 2026-04-26 01:17 | 49.16155 | -48.85054 | 34326 ft | 498 kts | 77° |
| 2026-04-26 01:18 | 49.17549 | -48.74695 | 34330 ft | 498 kts | 77° |
| 2026-04-26 01:18 | 49.18934 | -48.64327 | 34331 ft | 498 kts | 77° |
| 2026-04-26 01:19 | 49.20310 | -48.53957 | 34327 ft | 498 kts | 77° |
| 2026-04-26 01:19 | 49.21665 | -48.43660 | 34323 ft | 497 kts | 78° |
| 2026-04-26 01:20 | 49.23018 | -48.33304 | 34331 ft | 496 kts | 78° |
| 2026-04-26 01:20 | 49.24364 | -48.22937 | 34322 ft | 498 kts | 78° |
| 2026-04-26 01:21 | 49.25704 | -48.12526 | 34346 ft | 499 kts | 78° |
| 2026-04-26 01:21 | 49.27036 | -48.02109 | 34327 ft | 499 kts | 78° |
| 2026-04-26 01:22 | 49.28361 | -47.91664 | 34345 ft | 498 kts | 79° |
| 2026-04-26 01:22 | 49.29673 | -47.81236 | 34347 ft | 498 kts | 79° |
| 2026-04-26 01:23 | 49.30967 | -47.70875 | 34340 ft | 498 kts | 79° |
| 2026-04-26 01:23 | 49.32261 | -47.60436 | 34350 ft | 498 kts | 79° |
| 2026-04-26 01:24 | 49.33546 | -47.49987 | 34354 ft | 499 kts | 80° |
| 2026-04-26 01:24 | 49.34824 | -47.39511 | 34348 ft | 501 kts | 80° |
| 2026-04-26 01:25 | 49.36098 | -47.28983 | 34363 ft | 501 kts | 80° |
| 2026-04-26 01:25 | 49.37360 | -47.18475 | 34364 ft | 501 kts | 81° |
| 2026-04-26 01:26 | 49.38605 | -47.08024 | 34370 ft | 501 kts | 81° |
| 2026-04-26 01:26 | 49.39849 | -46.97493 | 34357 ft | 501 kts | 81° |
| 2026-04-26 01:27 | 49.41082 | -46.86968 | 34376 ft | 501 kts | 81° |
| 2026-04-26 01:27 | 49.42305 | -46.76446 | 34376 ft | 501 kts | 81° |
| 2026-04-26 01:28 | 49.43520 | -46.65898 | 34366 ft | 503 kts | 82° |
| 2026-04-26 01:28 | 49.44732 | -46.55290 | 34371 ft | 504 kts | 82° |
| 2026-04-26 01:29 | 49.45927 | -46.44748 | 34373 ft | 504 kts | 82° |
| 2026-04-26 01:29 | 49.47120 | -46.34130 | 34389 ft | 504 kts | 82° |
| 2026-04-26 01:30 | 49.48303 | -46.23506 | 34388 ft | 504 kts | 82° |
| 2026-04-26 01:30 | 49.49475 | -46.12891 | 34406 ft | 503 kts | 82° |
| 2026-04-26 01:31 | 49.50637 | -46.02272 | 34408 ft | 503 kts | 82° |
| 2026-04-26 01:31 | 49.51790 | -45.91641 | 34401 ft | 504 kts | 83° |
| 2026-04-26 01:32 | 49.52929 | -45.81046 | 34415 ft | 505 kts | 83° |
| 2026-04-26 01:32 | 49.54066 | -45.70367 | 34423 ft | 505 kts | 83° |
| 2026-04-26 01:33 | 49.55193 | -45.59692 | 34413 ft | 505 kts | 83° |
| 2026-04-26 01:33 | 49.56311 | -45.49011 | 34422 ft | 505 kts | 83° |
| 2026-04-26 01:34 | 49.57419 | -45.38316 | 34417 ft | 505 kts | 83° |
| 2026-04-26 01:34 | 49.58517 | -45.27618 | 34433 ft | 505 kts | 83° |
| 2026-04-26 01:35 | 49.59604 | -45.16928 | 34429 ft | 505 kts | 83° |
| 2026-04-26 01:35 | 49.60684 | -45.06206 | 34429 ft | 506 kts | 84° |
| 2026-04-26 01:36 | 49.61749 | -44.95530 | 34427 ft | 507 kts | 84° |
| 2026-04-26 01:37 | 49.63339 | -44.79397 | 34431 ft | 507 kts | 84° |
| 2026-04-26 01:37 | 49.64385 | -44.68651 | 34433 ft | 506 kts | 84° |
| 2026-04-26 01:38 | 49.65421 | -44.57903 | 34442 ft | 506 kts | 84° |
| 2026-04-26 01:38 | 49.66446 | -44.47154 | 34441 ft | 506 kts | 85° |
| 2026-04-26 01:39 | 49.67456 | -44.36461 | 34448 ft | 506 kts | 85° |
| 2026-04-26 01:39 | 49.68462 | -44.25702 | 34446 ft | 506 kts | 85° |
| 2026-04-26 01:40 | 49.69457 | -44.14950 | 34452 ft | 506 kts | 85° |
| 2026-04-26 01:40 | 49.70443 | -44.04178 | 34458 ft | 506 kts | 85° |
| 2026-04-26 01:41 | 49.71412 | -43.93475 | 34455 ft | 506 kts | 85° |
| 2026-04-26 01:41 | 49.72378 | -43.82702 | 34460 ft | 506 kts | 85° |
| 2026-04-26 01:42 | 49.73332 | -43.71938 | 34468 ft | 505 kts | 86° |
| 2026-04-26 01:42 | 49.74276 | -43.61178 | 34466 ft | 505 kts | 86° |
| 2026-04-26 01:43 | 49.75210 | -43.50410 | 34469 ft | 506 kts | 86° |
| 2026-04-26 01:43 | 49.76136 | -43.39606 | 34470 ft | 507 kts | 86° |
| 2026-04-26 01:44 | 49.77048 | -43.28862 | 34475 ft | 507 kts | 86° |
| 2026-04-26 01:44 | 49.77955 | -43.18051 | 34478 ft | 507 kts | 87° |
| 2026-04-26 01:45 | 49.78852 | -43.07237 | 34484 ft | 506 kts | 87° |
| 2026-04-26 01:45 | 49.79737 | -42.96425 | 34482 ft | 506 kts | 87° |
| 2026-04-26 01:46 | 49.80613 | -42.85610 | 34487 ft | 506 kts | 87° |
| 2026-04-26 01:46 | 49.81479 | -42.74790 | 34455 ft | 506 kts | 88° |
| 2026-04-26 01:47 | 49.82336 | -42.63951 | 34490 ft | 508 kts | 88° |
| 2026-04-26 01:47 | 49.83183 | -42.53099 | 34494 ft | 508 kts | 88° |
| 2026-04-26 01:48 | 49.84017 | -42.42300 | 34497 ft | 508 kts | 88° |
| 2026-04-26 01:48 | 49.84845 | -42.31435 | 34497 ft | 508 kts | 88° |
| 2026-04-26 01:49 | 49.85662 | -42.20570 | 34471 ft | 508 kts | 88° |
| 2026-04-26 01:49 | 49.86470 | -42.09694 | 34505 ft | 508 kts | 89° |
| 2026-04-26 01:50 | 49.87267 | -41.98814 | 34500 ft | 508 kts | 89° |
| 2026-04-26 01:50 | 49.88054 | -41.87936 | 34501 ft | 509 kts | 89° |
| 2026-04-26 01:51 | 49.88832 | -41.77023 | 34507 ft | 509 kts | 89° |
| 2026-04-26 01:51 | 49.89602 | -41.66106 | 34480 ft | 509 kts | 90° |
| 2026-04-26 01:52 | 49.90357 | -41.55230 | 34510 ft | 509 kts | 90° |
| 2026-04-26 01:52 | 49.91110 | -41.44240 | 34512 ft | 509 kts | 90° |
| 2026-04-26 01:53 | 49.91847 | -41.33322 | 34512 ft | 509 kts | 90° |
| 2026-04-26 01:53 | 49.92574 | -41.22404 | 34517 ft | 509 kts | 90° |
| 2026-04-26 01:54 | 49.93286 | -41.11551 | 34482 ft | 509 kts | 90° |
| 2026-04-26 01:54 | 49.93994 | -41.00594 | 34525 ft | 510 kts | 91° |
| 2026-04-26 01:55 | 49.94693 | -40.89626 | 34515 ft | 511 kts | 91° |
| 2026-04-26 01:55 | 49.95384 | -40.78636 | 34517 ft | 510 kts | 91° |
| 2026-04-26 01:56 | 49.96062 | -40.67666 | 34528 ft | 510 kts | 91° |
| 2026-04-26 01:56 | 49.96725 | -40.56772 | 34514 ft | 510 kts | 91° |
| 2026-04-26 01:57 | 49.97382 | -40.45795 | 34522 ft | 510 kts | 91° |
| 2026-04-26 01:57 | 49.98028 | -40.34827 | 34522 ft | 510 kts | 91° |
| 2026-04-26 01:58 | 49.98664 | -40.23839 | 34526 ft | 511 kts | 92° |
| 2026-04-26 01:58 | 49.99291 | -40.12823 | 34526 ft | 512 kts | 92° |
| 2026-04-26 01:59 | 49.99945 | -40.01798 | 34523 ft | 515 kts | 89° |
| 2026-04-26 01:59 | 50.01315 | -39.90870 | 34531 ft | 520 kts | 84° |
| 2026-04-26 02:00 | 50.02888 | -39.79885 | 34535 ft | 520 kts | 84° |
| 2026-04-26 02:00 | 50.04485 | -39.68903 | 34537 ft | 520 kts | 84° |
| 2026-04-26 02:01 | 50.06060 | -39.57918 | 34522 ft | 520 kts | 84° |
| 2026-04-26 02:01 | 50.07610 | -39.46962 | 34537 ft | 521 kts | 85° |
| 2026-04-26 02:02 | 50.09154 | -39.35937 | 34508 ft | 521 kts | 85° |
| 2026-04-26 02:02 | 50.10692 | -39.24875 | 34534 ft | 525 kts | 85° |
| 2026-04-26 02:03 | 50.12231 | -39.13730 | 34537 ft | 526 kts | 85° |
| 2026-04-26 02:03 | 50.13502 | -39.04472 | 34532 ft | 526 kts | 86° |
| 2026-04-26 02:04 | 50.15022 | -38.93319 | 34531 ft | 527 kts | 86° |
| 2026-04-26 02:04 | 50.16533 | -38.82144 | 34535 ft | 527 kts | 86° |
| 2026-04-26 02:05 | 50.18033 | -38.70958 | 34528 ft | 527 kts | 86° |
| 2026-04-26 02:05 | 50.19522 | -38.59775 | 34493 ft | 526 kts | 86° |
| 2026-04-26 02:06 | 50.20992 | -38.48643 | 34539 ft | 526 kts | 86° |
| 2026-04-26 02:06 | 50.22459 | -38.37442 | 34535 ft | 526 kts | 86° |
| 2026-04-26 02:07 | 50.23915 | -38.26240 | 34534 ft | 526 kts | 86° |
| 2026-04-26 02:07 | 50.25358 | -38.15039 | 34543 ft | 526 kts | 86° |
| 2026-04-26 02:08 | 50.26792 | -38.03822 | 34545 ft | 525 kts | 86° |
| 2026-04-26 02:08 | 50.28212 | -37.92642 | 34545 ft | 524 kts | 86° |
| 2026-04-26 02:09 | 50.29618 | -37.81465 | 34543 ft | 524 kts | 87° |
| 2026-04-26 02:09 | 50.31003 | -37.70360 | 34551 ft | 524 kts | 87° |
| 2026-04-26 02:10 | 50.32387 | -37.59169 | 34549 ft | 524 kts | 87° |
| 2026-04-26 02:10 | 50.33760 | -37.47985 | 34555 ft | 523 kts | 87° |
| 2026-04-26 02:11 | 50.35122 | -37.36794 | 34557 ft | 523 kts | 87° |
| 2026-04-26 02:11 | 50.36471 | -37.25614 | 34558 ft | 523 kts | 87° |
| 2026-04-26 02:12 | 50.37809 | -37.14426 | 34523 ft | 522 kts | 87° |
| 2026-04-26 02:12 | 50.39128 | -37.03306 | 34569 ft | 522 kts | 86° |
| 2026-04-26 02:13 | 50.40443 | -36.92124 | 34569 ft | 522 kts | 87° |
| 2026-04-26 02:13 | 50.41748 | -36.80929 | 34586 ft | 522 kts | 87° |
| 2026-04-26 02:14 | 50.43040 | -36.69739 | 34586 ft | 522 kts | 87° |
| 2026-04-26 02:14 | 50.44323 | -36.58538 | 34577 ft | 521 kts | 86° |
| 2026-04-26 02:15 | 50.45594 | -36.47340 | 34580 ft | 521 kts | 87° |
| 2026-04-26 02:15 | 50.46853 | -36.36145 | 34592 ft | 521 kts | 87° |
| 2026-04-26 02:16 | 50.48102 | -36.24940 | 34599 ft | 521 kts | 87° |
| 2026-04-26 02:16 | 50.49332 | -36.13806 | 34585 ft | 521 kts | 87° |
| 2026-04-26 02:17 | 50.50559 | -36.02584 | 34610 ft | 522 kts | 87° |
| 2026-04-26 02:17 | 50.51779 | -35.91329 | 34608 ft | 523 kts | 87° |
| 2026-04-26 02:18 | 50.52991 | -35.80040 | 34619 ft | 524 kts | 87° |
| 2026-04-26 02:18 | 50.54193 | -35.68744 | 34620 ft | 524 kts | 87° |
| 2026-04-26 02:19 | 50.55385 | -35.57433 | 34626 ft | 525 kts | 87° |
| 2026-04-26 02:19 | 50.56570 | -35.46070 | 34636 ft | 526 kts | 87° |
| 2026-04-26 02:20 | 50.57743 | -35.34720 | 34633 ft | 526 kts | 87° |
| 2026-04-26 02:20 | 50.58897 | -35.23440 | 34642 ft | 526 kts | 87° |
| 2026-04-26 02:21 | 50.60049 | -35.12062 | 34644 ft | 526 kts | 88° |
| 2026-04-26 02:21 | 50.61188 | -35.00698 | 34661 ft | 526 kts | 88° |
| 2026-04-26 02:22 | 50.62317 | -34.89328 | 34658 ft | 525 kts | 88° |
| 2026-04-26 02:22 | 50.63434 | -34.77952 | 34658 ft | 525 kts | 88° |
| 2026-04-26 02:23 | 50.64539 | -34.66578 | 34651 ft | 525 kts | 88° |
| 2026-04-26 02:23 | 50.65634 | -34.55171 | 34677 ft | 528 kts | 88° |
| 2026-04-26 02:24 | 50.66725 | -34.43699 | 34689 ft | 529 kts | 88° |
| 2026-04-26 02:24 | 50.67799 | -34.32305 | 34689 ft | 529 kts | 88° |
| 2026-04-26 02:25 | 50.68869 | -34.20811 | 34702 ft | 528 kts | 88° |
| 2026-04-26 02:25 | 50.69926 | -34.09321 | 34708 ft | 530 kts | 88° |
| 2026-04-26 02:26 | 50.70972 | -33.97821 | 34720 ft | 530 kts | 88° |
| 2026-04-26 02:26 | 50.72010 | -33.86297 | 34732 ft | 530 kts | 88° |
| 2026-04-26 02:27 | 50.73036 | -33.74773 | 34730 ft | 530 kts | 88° |
| 2026-04-26 02:27 | 50.74050 | -33.63239 | 34752 ft | 532 kts | 88° |
| 2026-04-26 02:28 | 50.75053 | -33.51667 | 34741 ft | 537 kts | 88° |
| 2026-04-26 02:28 | 50.76060 | -33.39972 | 34757 ft | 537 kts | 88° |
| 2026-04-26 02:29 | 50.77054 | -33.28286 | 34755 ft | 537 kts | 88° |
| 2026-04-26 02:29 | 50.78035 | -33.16589 | 34761 ft | 536 kts | 88° |
| 2026-04-26 02:30 | 50.79005 | -33.04863 | 34788 ft | 539 kts | 88° |
| 2026-04-26 02:30 | 50.79959 | -32.93179 | 34795 ft | 540 kts | 88° |
| 2026-04-26 02:31 | 50.80913 | -32.81379 | 34799 ft | 540 kts | 88° |
| 2026-04-26 02:31 | 50.81852 | -32.69599 | 34806 ft | 540 kts | 88° |
| 2026-04-26 02:32 | 50.82780 | -32.57792 | 34819 ft | 542 kts | 88° |
| 2026-04-26 02:32 | 50.83699 | -32.45936 | 34832 ft | 545 kts | 88° |
| 2026-04-26 02:33 | 50.84612 | -32.34009 | 34830 ft | 546 kts | 88° |
| 2026-04-26 02:33 | 50.85514 | -32.22075 | 34851 ft | 546 kts | 88° |
| 2026-04-26 02:34 | 50.86398 | -32.10211 | 34848 ft | 547 kts | 87° |
| 2026-04-26 02:34 | 50.87279 | -31.98203 | 34867 ft | 549 kts | 87° |
| 2026-04-26 02:35 | 50.88148 | -31.86188 | 34889 ft | 549 kts | 87° |
| 2026-04-26 02:35 | 50.89007 | -31.74157 | 34889 ft | 549 kts | 87° |
| 2026-04-26 02:36 | 50.89853 | -31.62117 | 34894 ft | 549 kts | 86° |
| 2026-04-26 02:36 | 50.90680 | -31.50167 | 34895 ft | 549 kts | 87° |
| 2026-04-26 02:37 | 50.91499 | -31.38140 | 34898 ft | 549 kts | 86° |
| 2026-04-26 02:37 | 50.92306 | -31.26108 | 34916 ft | 549 kts | 86° |
| 2026-04-26 02:38 | 50.93100 | -31.14092 | 34916 ft | 548 kts | 86° |
| 2026-04-26 02:38 | 50.93881 | -31.02085 | 34944 ft | 546 kts | 86° |
| 2026-04-26 02:39 | 50.94647 | -30.90111 | 34949 ft | 546 kts | 86° |
| 2026-04-26 02:39 | 50.95400 | -30.78128 | 34958 ft | 545 kts | 86° |
| 2026-04-26 02:40 | 50.96137 | -30.66219 | 34954 ft | 545 kts | 86° |
| 2026-04-26 02:40 | 50.96865 | -30.54260 | 34965 ft | 542 kts | 86° |
| 2026-04-26 02:41 | 50.97575 | -30.42379 | 34983 ft | 541 kts | 86° |
| 2026-04-26 02:41 | 50.98269 | -30.30566 | 34982 ft | 541 kts | 86° |
| 2026-04-26 02:42 | 50.98956 | -30.18671 | 34984 ft | 540 kts | 86° |
| 2026-04-26 02:42 | 50.99628 | -30.06828 | 34994 ft | 538 kts | 86° |
| 2026-04-26 02:43 | 51.00538 | -29.89055 | 35002 ft | 538 kts | 88° |
| 2026-04-26 02:43 | 51.00996 | -29.77207 | 35004 ft | 538 kts | 88° |
| 2026-04-26 02:44 | 51.01445 | -29.65361 | 35004 ft | 538 kts | 88° |
| 2026-04-26 02:44 | 51.01902 | -29.53512 | 35023 ft | 537 kts | 88° |
| 2026-04-26 02:45 | 51.02355 | -29.41687 | 35021 ft | 536 kts | 88° |
| 2026-04-26 02:45 | 51.02797 | -29.29856 | 35029 ft | 536 kts | 88° |
| 2026-04-26 02:46 | 51.03224 | -29.18113 | 35034 ft | 536 kts | 88° |
| 2026-04-26 02:46 | 51.03641 | -29.06266 | 35034 ft | 536 kts | 88° |
| 2026-04-26 02:47 | 51.04044 | -28.94505 | 35044 ft | 531 kts | 88° |
| 2026-04-26 02:47 | 51.04433 | -28.82787 | 35045 ft | 530 kts | 88° |
| 2026-04-26 02:48 | 51.04810 | -28.71076 | 35053 ft | 531 kts | 88° |
| 2026-04-26 02:48 | 51.05173 | -28.59448 | 35062 ft | 531 kts | 88° |
| 2026-04-26 02:49 | 51.05527 | -28.47716 | 35064 ft | 531 kts | 88° |
| 2026-04-26 02:49 | 51.05870 | -28.35971 | 35071 ft | 532 kts | 88° |
| 2026-04-26 02:50 | 51.06201 | -28.24231 | 35068 ft | 532 kts | 88° |
| 2026-04-26 02:50 | 51.06520 | -28.12504 | 35080 ft | 532 kts | 88° |
| 2026-04-26 02:51 | 51.06829 | -28.00732 | 35079 ft | 531 kts | 89° |
| 2026-04-26 02:51 | 51.07123 | -27.89039 | 35081 ft | 528 kts | 88° |
| 2026-04-26 02:52 | 51.07405 | -27.77388 | 35088 ft | 527 kts | 89° |
| 2026-04-26 02:52 | 51.07673 | -27.65810 | 35095 ft | 527 kts | 89° |
| 2026-04-26 02:53 | 51.07931 | -27.54174 | 35098 ft | 527 kts | 89° |
| 2026-04-26 02:53 | 51.08178 | -27.42530 | 35100 ft | 526 kts | 89° |
| 2026-04-26 02:54 | 51.08414 | -27.30891 | 35113 ft | 526 kts | 89° |
| 2026-04-26 02:54 | 51.08637 | -27.19265 | 35109 ft | 526 kts | 89° |
| 2026-04-26 02:55 | 51.08849 | -27.07630 | 35115 ft | 526 kts | 89° |
| 2026-04-26 02:55 | 51.09048 | -26.96075 | 35115 ft | 526 kts | 89° |
| 2026-04-26 02:56 | 51.09237 | -26.84433 | 35124 ft | 526 kts | 89° |
| 2026-04-26 02:56 | 51.09414 | -26.72801 | 35130 ft | 525 kts | 89° |
| 2026-04-26 02:57 | 51.09579 | -26.61181 | 35136 ft | 525 kts | 89° |
| 2026-04-26 02:57 | 51.09733 | -26.49566 | 35137 ft | 525 kts | 89° |
| 2026-04-26 02:58 | 51.09876 | -26.37945 | 35144 ft | 525 kts | 89° |
| 2026-04-26 02:58 | 51.10006 | -26.26391 | 35152 ft | 525 kts | 89° |
| 2026-04-26 02:59 | 51.10126 | -26.14756 | 35152 ft | 525 kts | 89° |
| 2026-04-26 02:59 | 51.10234 | -26.03134 | 35155 ft | 525 kts | 89° |
| 2026-04-26 03:00 | 51.10330 | -25.91496 | 35156 ft | 525 kts | 89° |
| 2026-04-26 03:00 | 51.10415 | -25.79868 | 35170 ft | 525 kts | 90° |
| 2026-04-26 03:01 | 51.10488 | -25.68319 | 35156 ft | 524 kts | 90° |
| 2026-04-26 03:01 | 51.10550 | -25.56727 | 35162 ft | 523 kts | 90° |
| 2026-04-26 03:02 | 51.10600 | -25.45155 | 35163 ft | 523 kts | 90° |
| 2026-04-26 03:02 | 51.10639 | -25.33577 | 35166 ft | 523 kts | 90° |
| 2026-04-26 03:03 | 51.10663 | -25.23960 | 35167 ft | 523 kts | 90° |
| 2026-04-26 03:03 | 51.10682 | -25.10525 | 35169 ft | 523 kts | 90° |
| 2026-04-26 03:04 | 51.10687 | -24.98945 | 35171 ft | 523 kts | 90° |
| 2026-04-26 03:04 | 51.10682 | -24.89331 | 35171 ft | 523 kts | 90° |
| 2026-04-26 03:05 | 51.10666 | -24.77761 | 35172 ft | 523 kts | 90° |
| 2026-04-26 03:05 | 51.10638 | -24.66194 | 35170 ft | 523 kts | 90° |
| 2026-04-26 03:06 | 51.10599 | -24.54635 | 35170 ft | 522 kts | 90° |
| 2026-04-26 03:06 | 51.10549 | -24.43070 | 35173 ft | 522 kts | 90° |
| 2026-04-26 03:07 | 51.10487 | -24.31526 | 35175 ft | 521 kts | 90° |
| 2026-04-26 03:07 | 51.10414 | -24.19985 | 35175 ft | 521 kts | 90° |
| 2026-04-26 03:08 | 51.10330 | -24.08512 | 35179 ft | 521 kts | 91° |
| 2026-04-26 03:08 | 51.10234 | -23.96968 | 35177 ft | 521 kts | 91° |
| 2026-04-26 03:09 | 51.10127 | -23.85430 | 35178 ft | 521 kts | 91° |
| 2026-04-26 03:09 | 51.10009 | -23.73899 | 35176 ft | 521 kts | 91° |
| 2026-04-26 03:10 | 51.09879 | -23.62364 | 35177 ft | 521 kts | 91° |
| 2026-04-26 03:10 | 51.09737 | -23.50814 | 35177 ft | 522 kts | 91° |
| 2026-04-26 03:11 | 51.09586 | -23.39359 | 35178 ft | 521 kts | 91° |
| 2026-04-26 03:11 | 51.09422 | -23.27807 | 35176 ft | 522 kts | 91° |
| 2026-04-26 03:12 | 51.09246 | -23.16251 | 35183 ft | 522 kts | 91° |
| 2026-04-26 03:12 | 51.09059 | -23.04701 | 35186 ft | 522 kts | 91° |
| 2026-04-26 03:13 | 51.08861 | -22.93159 | 35185 ft | 522 kts | 91° |
| 2026-04-26 03:13 | 51.08652 | -22.81623 | 35177 ft | 522 kts | 91° |
| 2026-04-26 03:14 | 51.08431 | -22.70084 | 35192 ft | 522 kts | 91° |
| 2026-04-26 03:14 | 51.08200 | -22.58611 | 35182 ft | 522 kts | 91° |
| 2026-04-26 03:15 | 51.07957 | -22.47065 | 35191 ft | 522 kts | 91° |
| 2026-04-26 03:15 | 51.07701 | -22.35520 | 35189 ft | 522 kts | 91° |
| 2026-04-26 03:16 | 51.07435 | -22.23977 | 35193 ft | 522 kts | 91° |
| 2026-04-26 03:16 | 51.07158 | -22.12459 | 35191 ft | 521 kts | 91° |
| 2026-04-26 03:17 | 51.06870 | -22.00950 | 35191 ft | 521 kts | 91° |
| 2026-04-26 03:17 | 51.06570 | -21.89424 | 35191 ft | 521 kts | 92° |
| 2026-04-26 03:18 | 51.06260 | -21.77975 | 35202 ft | 522 kts | 92° |
| 2026-04-26 03:18 | 51.05938 | -21.66451 | 35195 ft | 522 kts | 92° |
| 2026-04-26 03:19 | 51.05604 | -21.54937 | 35186 ft | 521 kts | 92° |
| 2026-04-26 03:19 | 51.05259 | -21.43425 | 35195 ft | 521 kts | 92° |
| 2026-04-26 03:20 | 51.04902 | -21.31912 | 35202 ft | 521 kts | 92° |
| 2026-04-26 03:20 | 51.04535 | -21.20413 | 35195 ft | 520 kts | 92° |
| 2026-04-26 03:21 | 51.04158 | -21.08965 | 35196 ft | 518 kts | 92° |
| 2026-04-26 03:21 | 51.03770 | -20.97541 | 35195 ft | 518 kts | 92° |
| 2026-04-26 03:22 | 51.03372 | -20.86122 | 35196 ft | 518 kts | 92° |
| 2026-04-26 03:22 | 51.02965 | -20.74768 | 35198 ft | 518 kts | 92° |
| 2026-04-26 03:23 | 51.02545 | -20.63375 | 35196 ft | 516 kts | 92° |
| 2026-04-26 03:23 | 51.02115 | -20.52013 | 35195 ft | 515 kts | 92° |
| 2026-04-26 03:24 | 51.01674 | -20.40642 | 35195 ft | 515 kts | 92° |
| 2026-04-26 03:24 | 51.01222 | -20.29277 | 35195 ft | 515 kts | 92° |
| 2026-04-26 03:25 | 51.00759 | -20.17928 | 35201 ft | 514 kts | 93° |
| 2026-04-26 03:25 | 51.00290 | -20.06696 | 35195 ft | 512 kts | 93° |
| 2026-04-26 03:26 | 51.00121 | -19.95420 | 35195 ft | 510 kts | 88° |
| 2026-04-26 03:26 | 51.00307 | -19.84158 | 35195 ft | 510 kts | 87° |
| 2026-04-26 03:27 | 51.00539 | -19.72875 | 35196 ft | 510 kts | 87° |
| 2026-04-26 03:27 | 51.00760 | -19.61609 | 35195 ft | 510 kts | 87° |
| 2026-04-26 03:28 | 51.00963 | -19.50343 | 35194 ft | 510 kts | 87° |
| 2026-04-26 03:28 | 51.01149 | -19.39148 | 35196 ft | 510 kts | 87° |
| 2026-04-26 03:29 | 51.01325 | -19.27884 | 35195 ft | 510 kts | 87° |
| 2026-04-26 03:29 | 51.01490 | -19.16616 | 35199 ft | 509 kts | 88° |
| 2026-04-26 03:30 | 51.01644 | -19.05379 | 35195 ft | 509 kts | 88° |
| 2026-04-26 03:30 | 51.01788 | -18.94155 | 35201 ft | 508 kts | 88° |
| 2026-04-26 03:31 | 51.01921 | -18.82931 | 35202 ft | 508 kts | 88° |
| 2026-04-26 03:31 | 51.02043 | -18.71702 | 35192 ft | 508 kts | 88° |
| 2026-04-26 03:32 | 51.02153 | -18.60500 | 35190 ft | 506 kts | 88° |
| 2026-04-26 03:32 | 51.02252 | -18.49417 | 35193 ft | 505 kts | 88° |
| 2026-04-26 03:33 | 51.02342 | -18.38262 | 35199 ft | 505 kts | 88° |
| 2026-04-26 03:33 | 51.02421 | -18.27097 | 35201 ft | 505 kts | 88° |
| 2026-04-26 03:34 | 51.02489 | -18.15936 | 35200 ft | 504 kts | 88° |
| 2026-04-26 03:34 | 51.02546 | -18.04802 | 35202 ft | 504 kts | 88° |
| 2026-04-26 03:35 | 51.02593 | -17.93671 | 35203 ft | 504 kts | 88° |
| 2026-04-26 03:35 | 51.02629 | -17.82614 | 35206 ft | 504 kts | 89° |
| 2026-04-26 03:36 | 51.02655 | -17.71474 | 35210 ft | 504 kts | 89° |
| 2026-04-26 03:36 | 51.02670 | -17.60352 | 35214 ft | 503 kts | 89° |
| 2026-04-26 03:37 | 51.02674 | -17.49246 | 35208 ft | 503 kts | 89° |
| 2026-04-26 03:37 | 51.02668 | -17.38122 | 35213 ft | 503 kts | 89° |
| 2026-04-26 03:38 | 51.02652 | -17.27064 | 35210 ft | 503 kts | 89° |
| 2026-04-26 03:38 | 51.02625 | -17.15942 | 35216 ft | 503 kts | 90° |
| 2026-04-26 03:39 | 51.02588 | -17.04823 | 35216 ft | 503 kts | 90° |
| 2026-04-26 03:39 | 51.02539 | -16.93719 | 35217 ft | 503 kts | 90° |
| 2026-04-26 03:40 | 51.02481 | -16.82619 | 35215 ft | 503 kts | 90° |
| 2026-04-26 03:40 | 51.02412 | -16.71520 | 35212 ft | 503 kts | 91° |
| 2026-04-26 03:41 | 51.02332 | -16.60421 | 35221 ft | 502 kts | 91° |
| 2026-04-26 03:41 | 51.02243 | -16.49396 | 35219 ft | 502 kts | 91° |
| 2026-04-26 03:42 | 51.02142 | -16.38275 | 35222 ft | 502 kts | 91° |
| 2026-04-26 03:42 | 51.02031 | -16.27193 | 35226 ft | 502 kts | 91° |
| 2026-04-26 03:43 | 51.01910 | -16.16100 | 35218 ft | 502 kts | 91° |
| 2026-04-26 03:43 | 51.01778 | -16.05019 | 35222 ft | 501 kts | 91° |
| 2026-04-26 03:44 | 51.01635 | -15.93956 | 35228 ft | 501 kts | 91° |
| 2026-04-26 03:44 | 51.01484 | -15.82957 | 35223 ft | 501 kts | 91° |
| 2026-04-26 03:45 | 51.01321 | -15.71883 | 35228 ft | 501 kts | 92° |
| 2026-04-26 03:45 | 51.01147 | -15.60815 | 35225 ft | 501 kts | 92° |
| 2026-04-26 03:46 | 51.00963 | -15.49745 | 35224 ft | 501 kts | 92° |
| 2026-04-26 03:47 | 51.00668 | -15.33179 | 35236 ft | 500 kts | 92° |
| 2026-04-26 03:47 | 51.00459 | -15.22141 | 35226 ft | 499 kts | 93° |
| 2026-04-26 03:48 | 51.00240 | -15.11143 | 35244 ft | 498 kts | 93° |
| 2026-04-26 03:48 | 51.00010 | -15.00143 | 35244 ft | 498 kts | 93° |
| 2026-04-26 03:49 | 50.99931 | -14.89210 | 35236 ft | 499 kts | 91° |
| 2026-04-26 03:49 | 51.00023 | -14.78199 | 35245 ft | 499 kts | 90° |
| 2026-04-26 03:50 | 51.00092 | -14.67188 | 35242 ft | 499 kts | 91° |
| 2026-04-26 03:50 | 51.00117 | -14.56179 | 35237 ft | 499 kts | 91° |
| 2026-04-26 03:51 | 51.00116 | -14.45175 | 35233 ft | 499 kts | 91° |
| 2026-04-26 03:51 | 51.00104 | -14.34155 | 35235 ft | 499 kts | 91° |
| 2026-04-26 03:52 | 51.00083 | -14.23148 | 35244 ft | 498 kts | 92° |
| 2026-04-26 03:52 | 51.00052 | -14.12148 | 35230 ft | 498 kts | 92° |
| 2026-04-26 03:53 | 51.00012 | -14.01223 | 35247 ft | 498 kts | 92° |
| 2026-04-26 03:53 | 51.00119 | -13.90214 | 35247 ft | 499 kts | 89° |
| 2026-04-26 03:54 | 51.00450 | -13.79210 | 35239 ft | 499 kts | 89° |
| 2026-04-26 03:54 | 51.00766 | -13.68189 | 35247 ft | 501 kts | 89° |
| 2026-04-26 03:55 | 51.01032 | -13.57125 | 35247 ft | 501 kts | 90° |
| 2026-04-26 03:55 | 51.01270 | -13.46058 | 35250 ft | 501 kts | 90° |
| 2026-04-26 03:56 | 51.01493 | -13.35079 | 35249 ft | 501 kts | 90° |
| 2026-04-26 03:56 | 51.01708 | -13.24013 | 35252 ft | 501 kts | 91° |
| 2026-04-26 03:57 | 51.01914 | -13.12944 | 35252 ft | 501 kts | 91° |
| 2026-04-26 03:57 | 51.02110 | -13.01872 | 35252 ft | 501 kts | 91° |
| 2026-04-26 03:58 | 51.02296 | -12.90806 | 35254 ft | 501 kts | 91° |
| 2026-04-26 03:58 | 51.02470 | -12.79827 | 35252 ft | 501 kts | 91° |
| 2026-04-26 03:59 | 51.02635 | -12.68743 | 35257 ft | 502 kts | 92° |
| 2026-04-26 03:59 | 51.02789 | -12.57655 | 35260 ft | 502 kts | 92° |
| 2026-04-26 04:00 | 51.02933 | -12.46579 | 35262 ft | 502 kts | 92° |
| 2026-04-26 04:00 | 51.03067 | -12.35490 | 35264 ft | 502 kts | 92° |
| 2026-04-26 04:01 | 51.03190 | -12.24389 | 35265 ft | 503 kts | 92° |
| 2026-04-26 04:01 | 51.03303 | -12.13276 | 35262 ft | 503 kts | 92° |
| 2026-04-26 04:02 | 51.03405 | -12.02164 | 35262 ft | 503 kts | 92° |
| 2026-04-26 04:02 | 51.03482 | -11.92924 | 35263 ft | 503 kts | 92° |
| 2026-04-26 04:03 | 51.03577 | -11.80005 | 35263 ft | 504 kts | 93° |
| 2026-04-26 04:03 | 51.03647 | -11.68838 | 35265 ft | 505 kts | 93° |
| 2026-04-26 04:04 | 51.03699 | -11.59556 | 35262 ft | 505 kts | 93° |
| 2026-04-26 04:04 | 51.03750 | -11.48395 | 35263 ft | 505 kts | 93° |
| 2026-04-26 04:05 | 51.03791 | -11.37226 | 35259 ft | 506 kts | 93° |
| 2026-04-26 04:05 | 51.03820 | -11.26017 | 35265 ft | 508 kts | 94° |
| 2026-04-26 04:06 | 51.03840 | -11.14783 | 35262 ft | 509 kts | 94° |
| 2026-04-26 04:06 | 51.03849 | -11.03520 | 35269 ft | 510 kts | 94° |
| 2026-04-26 04:07 | 51.03847 | -10.92249 | 35249 ft | 510 kts | 94° |
| 2026-04-26 04:07 | 51.03834 | -10.81043 | 35262 ft | 511 kts | 94° |
| 2026-04-26 04:08 | 51.03811 | -10.69743 | 35266 ft | 511 kts | 94° |
| 2026-04-26 04:08 | 51.03776 | -10.58458 | 35262 ft | 511 kts | 94° |
| 2026-04-26 04:09 | 51.03731 | -10.47169 | 35266 ft | 511 kts | 94° |
| 2026-04-26 04:09 | 51.03674 | -10.35865 | 35266 ft | 513 kts | 94° |
| 2026-04-26 04:10 | 51.03606 | -10.24525 | 35263 ft | 514 kts | 94° |
| 2026-04-26 04:10 | 51.03528 | -10.13176 | 35263 ft | 514 kts | 94° |
| 2026-04-26 04:11 | 51.03439 | -10.01829 | 35258 ft | 514 kts | 94° |
| 2026-04-26 04:11 | 51.03339 | -9.90555 | 35258 ft | 514 kts | 94° |
| 2026-04-26 04:12 | 51.03228 | -9.79212 | 35260 ft | 513 kts | 94° |
| 2026-04-26 04:12 | 51.03105 | -9.67870 | 35261 ft | 513 kts | 95° |
| 2026-04-26 04:13 | 51.02972 | -9.56527 | 35259 ft | 513 kts | 95° |
| 2026-04-26 04:13 | 51.02827 | -9.45189 | 35248 ft | 513 kts | 95° |
| 2026-04-26 04:14 | 51.02671 | -9.33839 | 35258 ft | 514 kts | 95° |
| 2026-04-26 04:14 | 51.02505 | -9.22475 | 35256 ft | 514 kts | 95° |
| 2026-04-26 04:15 | 51.02327 | -9.11107 | 35259 ft | 514 kts | 95° |
| 2026-04-26 04:15 | 51.02140 | -8.99835 | 35234 ft | 514 kts | 95° |
| 2026-04-26 04:16 | 51.01940 | -8.88468 | 35251 ft | 515 kts | 95° |
| 2026-04-26 04:16 | 51.01729 | -8.77081 | 35249 ft | 516 kts | 95° |
| 2026-04-26 04:17 | 51.01506 | -8.65696 | 35246 ft | 516 kts | 94° |
| 2026-04-26 04:17 | 51.01274 | -8.54321 | 35249 ft | 515 kts | 95° |
| 2026-04-26 04:18 | 51.01029 | -8.42938 | 35251 ft | 515 kts | 94° |
| 2026-04-26 04:18 | 51.00776 | -8.31655 | 35247 ft | 514 kts | 94° |
| 2026-04-26 04:19 | 51.00510 | -8.20301 | 35247 ft | 514 kts | 95° |
| 2026-04-26 04:19 | 51.00233 | -8.08949 | 35247 ft | 514 kts | 95° |
| 2026-04-26 04:20 | 51.00120 | -7.97586 | 35245 ft | 515 kts | 90° |
| 2026-04-26 04:20 | 51.00404 | -7.86218 | 35248 ft | 515 kts | 89° |
| 2026-04-26 04:21 | 51.00743 | -7.74860 | 35247 ft | 515 kts | 89° |
| 2026-04-26 04:21 | 51.01077 | -7.63499 | 35250 ft | 515 kts | 89° |
| 2026-04-26 04:22 | 51.01391 | -7.52194 | 35244 ft | 515 kts | 89° |
| 2026-04-26 04:22 | 51.01691 | -7.40826 | 35246 ft | 515 kts | 89° |
| 2026-04-26 04:23 | 51.01980 | -7.29445 | 35243 ft | 515 kts | 89° |
| 2026-04-26 04:23 | 51.02257 | -7.18065 | 35242 ft | 515 kts | 90° |
| 2026-04-26 04:24 | 51.02524 | -7.06702 | 35238 ft | 515 kts | 90° |
| 2026-04-26 04:24 | 51.02778 | -6.95412 | 35245 ft | 515 kts | 90° |
| 2026-04-26 04:25 | 51.03022 | -6.84047 | 35245 ft | 514 kts | 90° |
| 2026-04-26 04:25 | 51.03256 | -6.72682 | 35246 ft | 514 kts | 90° |
| 2026-04-26 04:26 | 51.03478 | -6.61322 | 35241 ft | 514 kts | 90° |
| 2026-04-26 04:26 | 51.03689 | -6.49948 | 35241 ft | 515 kts | 90° |
| 2026-04-26 04:27 | 51.03890 | -6.38574 | 35250 ft | 515 kts | 90° |
| 2026-04-26 04:27 | 51.04079 | -6.27192 | 35248 ft | 515 kts | 90° |
| 2026-04-26 04:28 | 51.04257 | -6.15895 | 35243 ft | 515 kts | 90° |
| 2026-04-26 04:28 | 51.04424 | -6.04532 | 35251 ft | 515 kts | 90° |
| 2026-04-26 04:29 | 51.04580 | -5.93139 | 35247 ft | 515 kts | 90° |
| 2026-04-26 04:29 | 51.04726 | -5.81750 | 35249 ft | 515 kts | 90° |
| 2026-04-26 04:30 | 51.04860 | -5.70358 | 35252 ft | 515 kts | 90° |
| 2026-04-26 04:30 | 51.04983 | -5.59039 | 35250 ft | 516 kts | 90° |
| 2026-04-26 04:31 | 51.05095 | -5.47643 | 35252 ft | 516 kts | 90° |
| 2026-04-26 04:31 | 51.05197 | -5.36243 | 35250 ft | 516 kts | 90° |
| 2026-04-26 04:32 | 51.05287 | -5.24848 | 35252 ft | 516 kts | 90° |
| 2026-04-26 04:32 | 51.05366 | -5.13438 | 35249 ft | 516 kts | 90° |
| 2026-04-26 04:33 | 51.05434 | -5.02038 | 35244 ft | 516 kts | 90° |
| 2026-04-26 04:33 | 51.05491 | -4.90645 | 35239 ft | 516 kts | 91° |
| 2026-04-26 04:34 | 51.05537 | -4.79241 | 35247 ft | 516 kts | 91° |
| 2026-04-26 04:34 | 51.05571 | -4.67841 | 35249 ft | 515 kts | 90° |
| 2026-04-26 04:35 | 51.05595 | -4.56533 | 35238 ft | 515 kts | 91° |
| 2026-04-26 04:35 | 51.05607 | -4.45147 | 35246 ft | 515 kts | 91° |
| 2026-04-26 04:36 | 51.05609 | -4.33768 | 35249 ft | 515 kts | 91° |
| 2026-04-26 04:36 | 51.05599 | -4.22383 | 35249 ft | 515 kts | 90° |
| 2026-04-26 04:37 | 51.05579 | -4.10997 | 35244 ft | 515 kts | 91° |
| 2026-04-26 04:37 | 51.05547 | -3.99595 | 35248 ft | 515 kts | 91° |
| 2026-04-26 04:38 | 51.05505 | -3.88209 | 35241 ft | 515 kts | 91° |
| 2026-04-26 04:38 | 51.05451 | -3.76892 | 35239 ft | 515 kts | 91° |
| 2026-04-26 04:39 | 51.05386 | -3.65499 | 35251 ft | 515 kts | 91° |
| 2026-04-26 04:39 | 51.05310 | -3.54111 | 35256 ft | 515 kts | 91° |
| 2026-04-26 04:40 | 51.05223 | -3.42714 | 35253 ft | 515 kts | 91° |
| 2026-04-26 04:40 | 51.05125 | -3.31321 | 35251 ft | 515 kts | 91° |
| 2026-04-26 04:41 | 51.05017 | -3.19923 | 35248 ft | 515 kts | 91° |
| 2026-04-26 04:41 | 51.04897 | -3.08539 | 35254 ft | 515 kts | 91° |
| 2026-04-26 04:42 | 51.04766 | -2.97160 | 35251 ft | 515 kts | 91° |
| 2026-04-26 04:42 | 51.04623 | -2.85769 | 35254 ft | 515 kts | 91° |
| 2026-04-26 04:43 | 51.04470 | -2.74398 | 35264 ft | 515 kts | 91° |
| 2026-04-26 04:43 | 51.04307 | -2.63092 | 35267 ft | 514 kts | 91° |
| 2026-04-26 04:44 | 51.04132 | -2.51712 | 35270 ft | 514 kts | 91° |
| 2026-04-26 04:44 | 51.03946 | -2.40351 | 35266 ft | 514 kts | 91° |
| 2026-04-26 04:45 | 51.03749 | -2.28997 | 35265 ft | 514 kts | 91° |
| 2026-04-26 04:45 | 51.03541 | -2.17634 | 35267 ft | 514 kts | 91° |
| 2026-04-26 04:46 | 51.03323 | -2.06300 | 35278 ft | 514 kts | 91° |
| 2026-04-26 04:46 | 51.03267 | -2.00616 | 35497 ft | 512 kts | 87° |
| 2026-04-26 04:46 | 51.03428 | -1.94987 | 35848 ft | 508 kts | 86° |
| 2026-04-26 04:46 | 51.03626 | -1.89392 | 36127 ft | 506 kts | 85° |
| 2026-04-26 04:47 | 51.03840 | -1.83887 | 36372 ft | 505 kts | 85° |
| 2026-04-26 04:47 | 51.04065 | -1.78319 | 36622 ft | 504 kts | 85° |
| 2026-04-26 04:47 | 51.04292 | -1.72762 | 36810 ft | 504 kts | 85° |
| 2026-04-26 04:47 | 51.04516 | -1.67204 | 36994 ft | 504 kts | 85° |
| 2026-04-26 04:48 | 51.04952 | -1.56085 | 37278 ft | 505 kts | 85° |
| 2026-04-26 04:48 | 51.05376 | -1.44871 | 37259 ft | 509 kts | 85° |
| 2026-04-26 04:49 | 51.05785 | -1.33661 | 37265 ft | 508 kts | 85° |
| 2026-04-26 04:49 | 51.06182 | -1.22536 | 37266 ft | 508 kts | 85° |
| 2026-04-26 04:50 | 51.06571 | -1.11323 | 37268 ft | 508 kts | 85° |
| 2026-04-26 04:50 | 51.06950 | -1.00114 | 37284 ft | 508 kts | 85° |
| 2026-04-26 04:51 | 51.07317 | -0.88911 | 37285 ft | 507 kts | 85° |
| 2026-04-26 04:51 | 51.07675 | -0.77695 | 37286 ft | 507 kts | 85° |
| 2026-04-26 04:52 | 51.08021 | -0.66475 | 37287 ft | 507 kts | 85° |
| 2026-04-26 04:52 | 51.08354 | -0.55339 | 37286 ft | 507 kts | 85° |
| 2026-04-26 04:53 | 51.08679 | -0.44122 | 37289 ft | 507 kts | 86° |
| 2026-04-26 04:53 | 51.08993 | -0.32902 | 37291 ft | 507 kts | 86° |
| 2026-04-26 04:54 | 51.09296 | -0.21699 | 37293 ft | 507 kts | 86° |
| 2026-04-26 04:54 | 51.09589 | -0.10478 | 37293 ft | 507 kts | 86° |
| 2026-04-26 04:55 | 51.09870 | 0.00742 | 37280 ft | 507 kts | 86° |
| 2026-04-26 04:55 | 51.10141 | 0.11943 | 37262 ft | 506 kts | 86° |
| 2026-04-26 04:56 | 51.10400 | 0.23122 | 37249 ft | 505 kts | 86° |
| 2026-04-26 04:56 | 51.10647 | 0.34223 | 37238 ft | 505 kts | 86° |
| 2026-04-26 04:57 | 51.10885 | 0.45385 | 37239 ft | 505 kts | 86° |
| 2026-04-26 04:57 | 51.11112 | 0.56554 | 37243 ft | 504 kts | 86° |
| 2026-04-26 04:58 | 51.11329 | 0.67710 | 37256 ft | 504 kts | 86° |
| 2026-04-26 04:58 | 51.11534 | 0.78853 | 37270 ft | 504 kts | 87° |
| 2026-04-26 04:59 | 51.11729 | 0.90002 | 37285 ft | 504 kts | 87° |
| 2026-04-26 04:59 | 51.11912 | 1.01073 | 37293 ft | 503 kts | 87° |
| 2026-04-26 05:00 | 51.12086 | 1.12252 | 37296 ft | 501 kts | 87° |
| 2026-04-26 05:00 | 51.12247 | 1.23265 | 37297 ft | 501 kts | 87° |
| 2026-04-26 05:01 | 51.12399 | 1.34366 | 37294 ft | 501 kts | 88° |
| 2026-04-26 05:01 | 51.12541 | 1.45449 | 37297 ft | 501 kts | 88° |
| 2026-04-26 05:02 | 51.12671 | 1.56523 | 37294 ft | 499 kts | 88° |
| 2026-04-26 05:02 | 51.12772 | 1.65709 | 37295 ft | 499 kts | 88° |
| 2026-04-26 05:03 | 51.12883 | 1.76758 | 37297 ft | 499 kts | 88° |
| 2026-04-26 05:03 | 51.12984 | 1.87808 | 37293 ft | 499 kts | 88° |
| 2026-04-26 05:04 | 51.13042 | 1.98848 | 37287 ft | 499 kts | 91° |
| 2026-04-26 05:04 | 51.12575 | 2.09869 | 37293 ft | 499 kts | 94° |
| 2026-04-26 05:05 | 51.11988 | 2.20867 | 37294 ft | 499 kts | 94° |
| 2026-04-26 05:05 | 51.11377 | 2.31793 | 37297 ft | 499 kts | 94° |
| 2026-04-26 05:06 | 51.10757 | 2.42793 | 37294 ft | 499 kts | 95° |
| 2026-04-26 05:06 | 51.10132 | 2.53804 | 37295 ft | 498 kts | 95° |
| 2026-04-26 05:07 | 51.09365 | 2.64757 | 37298 ft | 499 kts | 101° |
| 2026-04-26 05:07 | 51.07658 | 2.75442 | 37292 ft | 499 kts | 105° |
| 2026-04-26 05:08 | 51.05740 | 2.86044 | 37319 ft | 499 kts | 106° |
| 2026-04-26 05:08 | 51.03786 | 2.96607 | 37310 ft | 498 kts | 106° |
| 2026-04-26 05:09 | 51.01841 | 3.07139 | 37303 ft | 497 kts | 106° |
| 2026-04-26 05:09 | 50.99908 | 3.17605 | 37296 ft | 497 kts | 106° |
| 2026-04-26 05:10 | 50.97954 | 3.28140 | 37289 ft | 497 kts | 106° |
| 2026-04-26 05:10 | 50.95994 | 3.38646 | 37290 ft | 496 kts | 107° |
| 2026-04-26 05:11 | 50.94022 | 3.49155 | 37282 ft | 496 kts | 107° |
| 2026-04-26 05:11 | 50.92058 | 3.59563 | 37281 ft | 496 kts | 107° |
| 2026-04-26 05:12 | 50.90072 | 3.70026 | 37281 ft | 496 kts | 107° |
| 2026-04-26 05:12 | 50.88076 | 3.80486 | 37286 ft | 496 kts | 107° |
| 2026-04-26 05:13 | 50.86070 | 3.90942 | 37284 ft | 496 kts | 107° |
| 2026-04-26 05:13 | 50.84055 | 4.01382 | 37288 ft | 496 kts | 107° |
| 2026-04-26 05:14 | 50.82031 | 4.11816 | 37290 ft | 496 kts | 107° |
| 2026-04-26 05:14 | 50.79998 | 4.22240 | 37278 ft | 496 kts | 107° |
| 2026-04-26 05:15 | 50.77956 | 4.32651 | 37292 ft | 496 kts | 107° |
| 2026-04-26 05:15 | 50.75904 | 4.43057 | 37291 ft | 496 kts | 107° |
| 2026-04-26 05:16 | 50.73840 | 4.53465 | 37291 ft | 496 kts | 107° |
| 2026-04-26 05:16 | 50.71768 | 4.63864 | 37290 ft | 496 kts | 108° |
| 2026-04-26 05:17 | 50.69703 | 4.74167 | 37287 ft | 496 kts | 108° |
| 2026-04-26 05:17 | 50.67615 | 4.84537 | 37278 ft | 496 kts | 108° |
| 2026-04-26 05:18 | 50.65535 | 4.94904 | 37278 ft | 496 kts | 106° |
| 2026-04-26 05:18 | 50.63792 | 5.05431 | 37281 ft | 496 kts | 103° |
| 2026-04-26 05:19 | 50.62166 | 5.16002 | 37278 ft | 496 kts | 104° |
| 2026-04-26 05:19 | 50.60488 | 5.26530 | 37271 ft | 495 kts | 104° |
| 2026-04-26 05:20 | 50.58773 | 5.36945 | 37271 ft | 495 kts | 105° |
| 2026-04-26 05:20 | 50.57024 | 5.47426 | 37265 ft | 495 kts | 105° |
| 2026-04-26 05:21 | 50.55267 | 5.57892 | 37262 ft | 495 kts | 105° |
| 2026-04-26 05:21 | 50.53502 | 5.68361 | 37259 ft | 494 kts | 105° |
| 2026-04-26 05:22 | 50.51742 | 5.78738 | 37257 ft | 494 kts | 105° |
| 2026-04-26 05:22 | 50.49962 | 5.89168 | 37257 ft | 494 kts | 105° |
| 2026-04-26 05:23 | 50.48172 | 5.99603 | 37251 ft | 495 kts | 105° |
| 2026-04-26 05:23 | 50.46367 | 6.10055 | 37251 ft | 495 kts | 105° |
| 2026-04-26 05:24 | 50.44557 | 6.20474 | 37246 ft | 495 kts | 105° |
| 2026-04-26 05:24 | 50.42737 | 6.30892 | 37241 ft | 495 kts | 105° |
| 2026-04-26 05:25 | 50.40942 | 6.41325 | 37238 ft | 495 kts | 104° |
| 2026-04-26 05:25 | 50.39483 | 6.51887 | 37236 ft | 495 kts | 102° |
| 2026-04-26 05:26 | 50.38111 | 6.62442 | 37235 ft | 494 kts | 102° |
| 2026-04-26 05:26 | 50.36694 | 6.72896 | 37238 ft | 494 kts | 103° |
| 2026-04-26 05:27 | 50.35220 | 6.83416 | 37237 ft | 494 kts | 103° |
| 2026-04-26 05:27 | 50.33728 | 6.93921 | 37239 ft | 494 kts | 103° |
| 2026-04-26 05:28 | 50.32232 | 7.04389 | 37240 ft | 492 kts | 103° |
| 2026-04-26 05:28 | 50.30729 | 7.14842 | 37239 ft | 492 kts | 103° |
| 2026-04-26 05:29 | 50.29220 | 7.25271 | 37241 ft | 492 kts | 103° |
| 2026-04-26 05:29 | 50.27700 | 7.35706 | 37238 ft | 492 kts | 103° |
| 2026-04-26 05:30 | 50.26174 | 7.46118 | 37242 ft | 491 kts | 103° |
| 2026-04-26 05:30 | 50.24648 | 7.56454 | 37244 ft | 491 kts | 104° |
| 2026-04-26 05:31 | 50.23107 | 7.66856 | 37244 ft | 491 kts | 104° |
| 2026-04-26 05:31 | 50.21559 | 7.77235 | 37249 ft | 491 kts | 104° |
| 2026-04-26 05:32 | 50.19999 | 7.87615 | 37248 ft | 491 kts | 104° |
| 2026-04-26 05:32 | 50.18430 | 7.97993 | 37252 ft | 492 kts | 104° |
| 2026-04-26 05:33 | 50.16848 | 8.08390 | 37255 ft | 492 kts | 104° |
| 2026-04-26 05:33 | 50.15269 | 8.18705 | 37257 ft | 492 kts | 104° |
| 2026-04-26 05:34 | 50.13669 | 8.29087 | 37256 ft | 492 kts | 104° |
| 2026-04-26 05:34 | 50.12060 | 8.39465 | 37257 ft | 493 kts | 104° |
| 2026-04-26 05:35 | 50.10440 | 8.49845 | 37265 ft | 494 kts | 104° |
| 2026-04-26 05:35 | 50.08807 | 8.60241 | 37265 ft | 494 kts | 104° |
| 2026-04-26 05:36 | 50.07166 | 8.70624 | 37265 ft | 494 kts | 104° |
| 2026-04-26 05:36 | 50.05405 | 8.80941 | 37265 ft | 493 kts | 109° |
| 2026-04-26 05:37 | 50.03212 | 8.91053 | 37256 ft | 493 kts | 110° |
| 2026-04-26 05:37 | 50.00935 | 9.01115 | 37252 ft | 493 kts | 110° |
| 2026-04-26 05:38 | 49.98638 | 9.11171 | 37249 ft | 493 kts | 110° |
| 2026-04-26 05:38 | 49.96357 | 9.21147 | 37233 ft | 494 kts | 110° |
| 2026-04-26 05:39 | 49.94051 | 9.31201 | 37232 ft | 494 kts | 110° |
| 2026-04-26 05:39 | 49.91738 | 9.41251 | 37232 ft | 494 kts | 110° |
| 2026-04-26 05:40 | 49.89416 | 9.51286 | 37228 ft | 494 kts | 110° |
| 2026-04-26 05:40 | 49.87085 | 9.61315 | 37228 ft | 495 kts | 110° |
| 2026-04-26 05:41 | 49.84740 | 9.71354 | 37227 ft | 496 kts | 110° |
| 2026-04-26 05:41 | 49.82383 | 9.81399 | 37230 ft | 496 kts | 110° |
| 2026-04-26 05:42 | 49.80019 | 9.91429 | 37225 ft | 496 kts | 110° |
| 2026-04-26 05:42 | 49.77661 | 10.01382 | 37236 ft | 496 kts | 110° |
| 2026-04-26 05:43 | 49.75277 | 10.11406 | 37232 ft | 497 kts | 110° |
| 2026-04-26 05:43 | 49.72880 | 10.21431 | 37240 ft | 497 kts | 111° |
| 2026-04-26 05:44 | 49.70472 | 10.31459 | 37238 ft | 497 kts | 111° |
| 2026-04-26 05:44 | 49.68057 | 10.41472 | 37241 ft | 497 kts | 111° |
| 2026-04-26 05:45 | 49.65631 | 10.51484 | 37230 ft | 498 kts | 111° |
| 2026-04-26 05:45 | 49.63193 | 10.61498 | 37231 ft | 499 kts | 111° |
| 2026-04-26 05:46 | 49.60743 | 10.71516 | 37235 ft | 499 kts | 111° |
| 2026-04-26 05:46 | 49.58304 | 10.81443 | 37234 ft | 499 kts | 111° |
| 2026-04-26 05:47 | 49.55838 | 10.91442 | 37236 ft | 500 kts | 111° |
| 2026-04-26 05:47 | 49.53357 | 11.01453 | 37238 ft | 500 kts | 111° |
| 2026-04-26 05:48 | 49.50811 | 11.11433 | 37238 ft | 500 kts | 112° |
| 2026-04-26 05:48 | 49.48099 | 11.21284 | 37238 ft | 500 kts | 113° |
| 2026-04-26 05:49 | 49.43999 | 11.36059 | 37208 ft | 502 kts | 113° |
| 2026-04-26 05:50 | 49.41274 | 11.45945 | 37205 ft | 502 kts | 113° |
| 2026-04-26 05:50 | 49.38570 | 11.55746 | 37203 ft | 502 kts | 113° |
| 2026-04-26 05:51 | 49.35840 | 11.65596 | 37204 ft | 501 kts | 113° |
| 2026-04-26 05:51 | 49.33100 | 11.75442 | 37203 ft | 502 kts | 113° |
| 2026-04-26 05:52 | 49.30349 | 11.85282 | 37201 ft | 503 kts | 113° |
| 2026-04-26 05:52 | 49.27585 | 11.95127 | 37200 ft | 503 kts | 113° |
| 2026-04-26 05:53 | 49.24809 | 12.04973 | 37202 ft | 503 kts | 113° |
| 2026-04-26 05:53 | 49.22053 | 12.14711 | 37203 ft | 502 kts | 113° |
| 2026-04-26 05:54 | 49.19268 | 12.24507 | 37203 ft | 502 kts | 113° |
| 2026-04-26 05:54 | 49.16476 | 12.34290 | 37194 ft | 502 kts | 113° |
| 2026-04-26 05:55 | 49.13678 | 12.44057 | 37194 ft | 502 kts | 113° |
| 2026-04-26 05:55 | 49.10865 | 12.53833 | 37193 ft | 503 kts | 113° |
| 2026-04-26 05:56 | 49.08036 | 12.63623 | 37185 ft | 504 kts | 113° |
| 2026-04-26 05:56 | 49.05199 | 12.73404 | 37187 ft | 504 kts | 113° |
| 2026-04-26 05:57 | 49.02350 | 12.83187 | 37181 ft | 504 kts | 113° |
| 2026-04-26 05:57 | 48.99516 | 12.92877 | 37184 ft | 504 kts | 113° |
| 2026-04-26 05:58 | 48.96654 | 13.02625 | 37182 ft | 504 kts | 113° |
| 2026-04-26 05:58 | 48.93783 | 13.12366 | 37181 ft | 504 kts | 113° |
| 2026-04-26 05:59 | 48.90904 | 13.22093 | 37181 ft | 504 kts | 114° |
| 2026-04-26 05:59 | 48.88018 | 13.31804 | 37182 ft | 505 kts | 113° |
| 2026-04-26 06:00 | 48.85610 | 13.39878 | 37183 ft | 505 kts | 114° |
| 2026-04-26 06:00 | 48.82701 | 13.49596 | 37189 ft | 505 kts | 114° |
| 2026-04-26 06:01 | 48.79784 | 13.59302 | 37190 ft | 505 kts | 114° |
| 2026-04-26 06:01 | 48.76860 | 13.68995 | 37188 ft | 505 kts | 114° |
| 2026-04-26 06:02 | 48.73964 | 13.78693 | 37185 ft | 505 kts | 113° |
| 2026-04-26 06:02 | 48.71117 | 13.88418 | 37189 ft | 505 kts | 113° |
| 2026-04-26 06:03 | 48.68262 | 13.98139 | 37191 ft | 505 kts | 113° |
| 2026-04-26 06:03 | 48.65392 | 14.07835 | 37189 ft | 505 kts | 113° |
| 2026-04-26 06:04 | 48.62527 | 14.17456 | 37188 ft | 505 kts | 113° |
| 2026-04-26 06:04 | 48.59634 | 14.27133 | 37186 ft | 505 kts | 113° |
| 2026-04-26 06:05 | 48.56731 | 14.36803 | 37188 ft | 505 kts | 113° |
| 2026-04-26 06:05 | 48.53819 | 14.46471 | 37190 ft | 506 kts | 113° |
| 2026-04-26 06:06 | 48.50894 | 14.56139 | 37186 ft | 507 kts | 113° |
| 2026-04-26 06:06 | 48.47961 | 14.65798 | 37183 ft | 507 kts | 113° |
| 2026-04-26 06:07 | 48.45032 | 14.75408 | 37183 ft | 507 kts | 114° |
| 2026-04-26 06:07 | 48.42080 | 14.85053 | 37181 ft | 507 kts | 114° |
| 2026-04-26 06:08 | 48.39112 | 14.94714 | 37181 ft | 508 kts | 114° |
| 2026-04-26 06:08 | 48.36136 | 15.04365 | 37176 ft | 508 kts | 114° |
| 2026-04-26 06:09 | 48.33152 | 15.13999 | 37174 ft | 509 kts | 114° |
| 2026-04-26 06:09 | 48.30156 | 15.23638 | 37174 ft | 508 kts | 114° |
| 2026-04-26 06:10 | 48.27177 | 15.33189 | 37162 ft | 508 kts | 114° |
| 2026-04-26 06:10 | 48.24176 | 15.42768 | 37164 ft | 506 kts | 114° |
| 2026-04-26 06:11 | 48.21175 | 15.52314 | 37164 ft | 506 kts | 114° |
| 2026-04-26 06:11 | 48.18165 | 15.61853 | 37160 ft | 506 kts | 113° |
| 2026-04-26 06:12 | 48.15140 | 15.71401 | 37159 ft | 507 kts | 113° |
| 2026-04-26 06:12 | 48.12120 | 15.80896 | 37155 ft | 508 kts | 114° |
| 2026-04-26 06:13 | 48.09077 | 15.90430 | 37144 ft | 508 kts | 114° |
| 2026-04-26 06:13 | 48.06022 | 15.99962 | 37146 ft | 509 kts | 113° |
| 2026-04-26 06:14 | 48.02949 | 16.09521 | 37128 ft | 511 kts | 113° |
| 2026-04-26 06:14 | 47.99861 | 16.19083 | 37126 ft | 511 kts | 114° |
| 2026-04-26 06:15 | 47.96763 | 16.28644 | 37125 ft | 512 kts | 114° |
| 2026-04-26 06:15 | 47.93655 | 16.38199 | 37130 ft | 512 kts | 113° |
| 2026-04-26 06:16 | 47.90531 | 16.47767 | 37126 ft | 513 kts | 113° |
| 2026-04-26 06:16 | 47.87419 | 16.57264 | 37110 ft | 513 kts | 114° |
| 2026-04-26 06:17 | 47.84282 | 16.66799 | 37120 ft | 512 kts | 114° |
| 2026-04-26 06:17 | 47.81146 | 16.76295 | 37114 ft | 511 kts | 114° |
| 2026-04-26 06:18 | 47.78004 | 16.85778 | 37117 ft | 511 kts | 114° |
| 2026-04-26 06:18 | 47.74855 | 16.95244 | 37116 ft | 511 kts | 114° |
| 2026-04-26 06:19 | 47.71698 | 17.04702 | 37268 ft | 511 kts | 114° |
| 2026-04-26 06:19 | 47.70124 | 17.09413 | 37555 ft | 508 kts | 115° |
| 2026-04-26 06:19 | 47.68564 | 17.14101 | 37806 ft | 507 kts | 115° |
| 2026-04-26 06:19 | 47.66998 | 17.18810 | 37996 ft | 507 kts | 115° |
| 2026-04-26 06:20 | 47.65437 | 17.23499 | 38143 ft | 507 kts | 115° |
| 2026-04-26 06:20 | 47.63877 | 17.28178 | 38317 ft | 506 kts | 115° |
| 2026-04-26 06:20 | 47.62312 | 17.32860 | 38483 ft | 506 kts | 115° |
| 2026-04-26 06:20 | 47.60745 | 17.37536 | 38639 ft | 506 kts | 115° |
| 2026-04-26 06:21 | 47.59179 | 17.42199 | 38786 ft | 506 kts | 115° |
| 2026-04-26 06:21 | 47.57635 | 17.46786 | 38971 ft | 504 kts | 115° |
| 2026-04-26 06:21 | 47.56071 | 17.51424 | 39109 ft | 504 kts | 115° |
| 2026-04-26 06:22 | 47.52921 | 17.60745 | 39106 ft | 507 kts | 115° |
| 2026-04-26 06:22 | 47.49756 | 17.70074 | 39101 ft | 507 kts | 116° |
| 2026-04-26 06:23 | 47.46586 | 17.79383 | 39106 ft | 507 kts | 116° |
| 2026-04-26 06:23 | 47.43408 | 17.88683 | 39090 ft | 507 kts | 116° |
| 2026-04-26 06:24 | 47.40219 | 17.97980 | 39079 ft | 507 kts | 116° |
| 2026-04-26 06:24 | 47.37024 | 18.07264 | 39063 ft | 507 kts | 116° |
| 2026-04-26 06:25 | 47.33823 | 18.16530 | 39079 ft | 508 kts | 116° |
| 2026-04-26 06:25 | 47.30600 | 18.25832 | 39068 ft | 511 kts | 116° |
| 2026-04-26 06:26 | 47.27352 | 18.35169 | 39061 ft | 512 kts | 116° |
| 2026-04-26 06:26 | 47.24116 | 18.44438 | 39062 ft | 512 kts | 116° |
| 2026-04-26 06:27 | 47.20849 | 18.53764 | 39055 ft | 512 kts | 116° |
| 2026-04-26 06:27 | 47.17572 | 18.63083 | 39048 ft | 513 kts | 116° |
| 2026-04-26 06:28 | 47.14286 | 18.72397 | 39047 ft | 513 kts | 116° |
| 2026-04-26 06:28 | 47.10993 | 18.81696 | 39045 ft | 513 kts | 116° |
| 2026-04-26 06:29 | 47.07710 | 18.90938 | 39043 ft | 514 kts | 116° |
| 2026-04-26 06:29 | 47.04399 | 19.00221 | 39041 ft | 513 kts | 116° |
| 2026-04-26 06:30 | 47.01087 | 19.09478 | 39039 ft | 512 kts | 116° |
| 2026-04-26 06:30 | 46.97767 | 19.18724 | 39054 ft | 512 kts | 116° |
| 2026-04-26 06:31 | 46.94437 | 19.27966 | 39035 ft | 515 kts | 116° |
| 2026-04-26 06:31 | 46.91107 | 19.37178 | 39028 ft | 516 kts | 116° |
| 2026-04-26 06:32 | 46.87723 | 19.46505 | 39029 ft | 516 kts | 116° |
| 2026-04-26 06:32 | 46.84379 | 19.55688 | 39033 ft | 516 kts | 116° |
| 2026-04-26 06:33 | 46.80997 | 19.64946 | 39026 ft | 518 kts | 116° |
| 2026-04-26 06:33 | 46.77593 | 19.74232 | 39020 ft | 518 kts | 116° |
| 2026-04-26 06:34 | 46.74187 | 19.83489 | 39020 ft | 518 kts | 116° |
| 2026-04-26 06:34 | 46.70790 | 19.92689 | 39018 ft | 518 kts | 117° |
| 2026-04-26 06:35 | 46.67364 | 20.01939 | 39008 ft | 519 kts | 117° |
| 2026-04-26 06:35 | 46.63927 | 20.11185 | 38990 ft | 519 kts | 117° |
| 2026-04-26 06:36 | 46.60492 | 20.20394 | 39006 ft | 516 kts | 117° |
| 2026-04-26 06:36 | 46.57065 | 20.29550 | 38996 ft | 515 kts | 117° |
| 2026-04-26 06:37 | 46.53633 | 20.38689 | 39004 ft | 515 kts | 117° |
| 2026-04-26 06:37 | 46.50194 | 20.47819 | 39004 ft | 515 kts | 117° |
| 2026-04-26 06:38 | 46.46766 | 20.56885 | 38997 ft | 515 kts | 117° |
| 2026-04-26 06:38 | 46.43312 | 20.65990 | 38996 ft | 515 kts | 117° |
| 2026-04-26 06:39 | 46.39848 | 20.75092 | 38990 ft | 516 kts | 117° |
| 2026-04-26 06:39 | 46.36378 | 20.84178 | 38997 ft | 515 kts | 118° |
| 2026-04-26 06:40 | 46.32903 | 20.93247 | 39004 ft | 515 kts | 118° |
| 2026-04-26 06:40 | 46.29419 | 21.02308 | 39009 ft | 515 kts | 118° |
| 2026-04-26 06:41 | 46.26033 | 21.11430 | 39019 ft | 514 kts | 114° |
| 2026-04-26 06:41 | 46.23040 | 21.20817 | 39020 ft | 514 kts | 112° |
| 2026-04-26 06:42 | 46.20136 | 21.30165 | 39009 ft | 514 kts | 112° |
| 2026-04-26 06:42 | 46.17210 | 21.39579 | 39020 ft | 514 kts | 112° |
| 2026-04-26 06:43 | 46.14268 | 21.48980 | 39014 ft | 514 kts | 112° |
| 2026-04-26 06:43 | 46.11317 | 21.58361 | 38997 ft | 514 kts | 113° |
| 2026-04-26 06:44 | 46.08354 | 21.67739 | 38996 ft | 514 kts | 113° |
| 2026-04-26 06:44 | 46.05384 | 21.77109 | 38994 ft | 514 kts | 113° |
| 2026-04-26 06:45 | 46.02402 | 21.86480 | 38993 ft | 514 kts | 113° |
| 2026-04-26 06:45 | 45.99415 | 21.95835 | 38990 ft | 514 kts | 114° |
| 2026-04-26 06:46 | 45.96423 | 22.05169 | 38994 ft | 514 kts | 114° |
| 2026-04-26 06:46 | 45.93426 | 22.14488 | 38993 ft | 514 kts | 114° |
| 2026-04-26 06:47 | 45.90441 | 22.23736 | 38994 ft | 514 kts | 114° |
| 2026-04-26 06:47 | 45.87425 | 22.33044 | 38988 ft | 515 kts | 114° |
| 2026-04-26 06:48 | 45.84395 | 22.42364 | 38988 ft | 516 kts | 114° |
| 2026-04-26 06:48 | 45.81357 | 22.51677 | 38977 ft | 516 kts | 114° |
| 2026-04-26 06:49 | 45.78307 | 22.60990 | 38974 ft | 516 kts | 114° |
| 2026-04-26 06:49 | 45.75242 | 22.70318 | 38974 ft | 518 kts | 114° |
| 2026-04-26 06:50 | 45.72163 | 22.79652 | 38975 ft | 519 kts | 114° |
| 2026-04-26 06:50 | 45.69096 | 22.88919 | 38971 ft | 519 kts | 114° |
| 2026-04-26 06:51 | 45.66000 | 22.98238 | 38966 ft | 519 kts | 115° |
| 2026-04-26 06:51 | 45.61337 | 23.12215 | 38963 ft | 520 kts | 115° |
| 2026-04-26 06:52 | 45.58207 | 23.21555 | 38968 ft | 521 kts | 115° |
| 2026-04-26 06:52 | 45.55073 | 23.30873 | 38969 ft | 520 kts | 115° |
| 2026-04-26 06:53 | 45.51937 | 23.40164 | 38972 ft | 520 kts | 115° |
| 2026-04-26 06:53 | 45.48794 | 23.49444 | 38972 ft | 520 kts | 115° |
| 2026-04-26 06:54 | 45.45645 | 23.58709 | 38966 ft | 520 kts | 115° |
| 2026-04-26 06:54 | 45.42484 | 23.67975 | 38961 ft | 520 kts | 115° |
| 2026-04-26 06:55 | 45.39322 | 23.77215 | 38957 ft | 520 kts | 116° |
| 2026-04-26 06:55 | 45.36169 | 23.86396 | 38959 ft | 520 kts | 116° |
| 2026-04-26 06:56 | 45.32989 | 23.95621 | 38947 ft | 518 kts | 116° |
| 2026-04-26 06:56 | 45.29811 | 24.04809 | 38944 ft | 518 kts | 116° |
| 2026-04-26 06:57 | 45.27166 | 24.12435 | 38947 ft | 517 kts | 116° |
| 2026-04-26 06:57 | 45.23976 | 24.21602 | 38944 ft | 519 kts | 116° |
| 2026-04-26 06:58 | 45.20781 | 24.30750 | 38940 ft | 516 kts | 116° |
| 2026-04-26 06:58 | 45.17593 | 24.39850 | 38941 ft | 515 kts | 116° |
| 2026-04-26 06:59 | 45.14391 | 24.48955 | 38935 ft | 515 kts | 116° |
| 2026-04-26 06:59 | 45.11186 | 24.58042 | 38935 ft | 517 kts | 116° |
| 2026-04-26 07:00 | 45.07975 | 24.67116 | 38926 ft | 522 kts | 116° |
| 2026-04-26 07:00 | 45.04713 | 24.76301 | 38927 ft | 522 kts | 117° |
| 2026-04-26 07:01 | 45.01447 | 24.85465 | 38945 ft | 521 kts | 117° |
| 2026-04-26 07:01 | 44.98175 | 24.94617 | 38919 ft | 522 kts | 117° |
| 2026-04-26 07:02 | 44.94888 | 25.03776 | 38918 ft | 523 kts | 117° |
| 2026-04-26 07:02 | 44.91591 | 25.12934 | 38914 ft | 523 kts | 117° |
| 2026-04-26 07:03 | 44.88307 | 25.22028 | 38905 ft | 523 kts | 117° |
| 2026-04-26 07:03 | 44.85003 | 25.31146 | 38912 ft | 522 kts | 117° |
| 2026-04-26 07:04 | 44.81691 | 25.40256 | 38917 ft | 522 kts | 117° |
| 2026-04-26 07:04 | 44.78375 | 25.49344 | 38908 ft | 522 kts | 117° |
| 2026-04-26 07:05 | 44.75051 | 25.58424 | 38907 ft | 522 kts | 117° |
| 2026-04-26 07:05 | 44.71718 | 25.67501 | 38904 ft | 522 kts | 118° |
| 2026-04-26 07:06 | 44.68398 | 25.76510 | 38906 ft | 522 kts | 118° |
| 2026-04-26 07:06 | 44.65053 | 25.85558 | 38906 ft | 522 kts | 118° |
| 2026-04-26 07:07 | 44.61699 | 25.94601 | 38906 ft | 521 kts | 118° |
| 2026-04-26 07:07 | 44.58342 | 26.03622 | 38912 ft | 521 kts | 118° |
| 2026-04-26 07:08 | 44.54980 | 26.12629 | 38909 ft | 521 kts | 118° |
| 2026-04-26 07:08 | 44.51632 | 26.21566 | 38910 ft | 522 kts | 118° |
| 2026-04-26 07:09 | 44.48250 | 26.30568 | 38907 ft | 522 kts | 118° |
| 2026-04-26 07:09 | 44.44862 | 26.39555 | 38908 ft | 522 kts | 118° |
| 2026-04-26 07:11 | 44.36364 | 26.61970 | 38912 ft | 521 kts | 118° |
| 2026-04-26 07:11 | 44.32959 | 26.70902 | 38914 ft | 521 kts | 118° |
| 2026-04-26 07:12 | 44.29545 | 26.79829 | 38916 ft | 521 kts | 118° |
| 2026-04-26 07:12 | 44.26150 | 26.88676 | 38918 ft | 521 kts | 119° |
| 2026-04-26 07:13 | 44.22722 | 26.97583 | 38916 ft | 521 kts | 119° |
| 2026-04-26 07:13 | 44.19292 | 27.06464 | 38919 ft | 520 kts | 119° |
| 2026-04-26 07:14 | 44.15863 | 27.15317 | 38914 ft | 519 kts | 119° |
| 2026-04-26 07:14 | 44.12428 | 27.24156 | 38917 ft | 519 kts | 119° |
| 2026-04-26 07:15 | 44.09013 | 27.32918 | 38917 ft | 518 kts | 119° |
| 2026-04-26 07:15 | 44.05569 | 27.41723 | 38922 ft | 518 kts | 119° |
| 2026-04-26 07:16 | 44.02121 | 27.50513 | 38923 ft | 518 kts | 119° |
| 2026-04-26 07:16 | 43.98666 | 27.59295 | 38924 ft | 518 kts | 119° |
| 2026-04-26 07:17 | 43.95203 | 27.68069 | 38928 ft | 518 kts | 119° |
| 2026-04-26 07:17 | 43.91733 | 27.76833 | 38928 ft | 518 kts | 119° |
| 2026-04-26 07:18 | 43.88279 | 27.85530 | 38922 ft | 518 kts | 119° |
| 2026-04-26 07:18 | 43.84797 | 27.94270 | 38923 ft | 518 kts | 119° |
| 2026-04-26 07:19 | 43.81310 | 28.02997 | 38925 ft | 517 kts | 119° |
| 2026-04-26 07:19 | 43.77821 | 28.11700 | 38936 ft | 517 kts | 119° |
| 2026-04-26 07:20 | 43.74330 | 28.20383 | 38935 ft | 516 kts | 119° |
| 2026-04-26 07:20 | 43.70836 | 28.29046 | 38941 ft | 515 kts | 119° |
| 2026-04-26 07:21 | 43.67366 | 28.37625 | 38944 ft | 514 kts | 120° |
| 2026-04-26 07:21 | 43.63864 | 28.46258 | 38950 ft | 514 kts | 120° |
| 2026-04-26 07:22 | 43.60361 | 28.54864 | 38951 ft | 513 kts | 120° |
| 2026-04-26 07:22 | 43.56862 | 28.63437 | 38954 ft | 513 kts | 120° |
| 2026-04-26 07:23 | 43.53359 | 28.71993 | 38956 ft | 512 kts | 120° |
| 2026-04-26 07:23 | 43.49849 | 28.80543 | 38962 ft | 512 kts | 120° |
| 2026-04-26 07:24 | 43.46366 | 28.89000 | 38962 ft | 511 kts | 120° |
| 2026-04-26 07:24 | 43.42850 | 28.97511 | 38965 ft | 511 kts | 120° |
| 2026-04-26 07:25 | 43.39333 | 29.06002 | 38956 ft | 510 kts | 120° |
| 2026-04-26 07:25 | 43.35816 | 29.14466 | 38966 ft | 509 kts | 120° |
| 2026-04-26 07:26 | 43.32323 | 29.22848 | 38973 ft | 508 kts | 120° |
| 2026-04-26 07:26 | 43.28808 | 29.31259 | 38971 ft | 508 kts | 120° |
| 2026-04-26 07:27 | 43.25283 | 29.39670 | 38973 ft | 507 kts | 120° |
| 2026-04-26 07:27 | 43.21759 | 29.48052 | 38970 ft | 507 kts | 120° |
| 2026-04-26 07:28 | 43.18231 | 29.56420 | 38971 ft | 507 kts | 120° |
| 2026-04-26 07:28 | 43.14728 | 29.64707 | 38974 ft | 506 kts | 120° |
| 2026-04-26 07:29 | 43.11199 | 29.73030 | 38976 ft | 506 kts | 120° |
| 2026-04-26 07:29 | 43.07659 | 29.81354 | 38977 ft | 506 kts | 120° |
| 2026-04-26 07:30 | 43.04118 | 29.89658 | 38984 ft | 505 kts | 120° |
| 2026-04-26 07:30 | 43.00572 | 29.97951 | 38986 ft | 505 kts | 120° |
| 2026-04-26 07:31 | 42.97024 | 30.06225 | 38987 ft | 505 kts | 120° |
| 2026-04-26 07:31 | 42.93468 | 30.14493 | 38988 ft | 505 kts | 120° |
| 2026-04-26 07:32 | 42.89931 | 30.22695 | 38990 ft | 504 kts | 121° |
| 2026-04-26 07:32 | 42.86374 | 30.30917 | 38991 ft | 503 kts | 121° |
| 2026-04-26 07:33 | 42.82809 | 30.39138 | 38989 ft | 503 kts | 121° |
| 2026-04-26 07:33 | 42.79245 | 30.47333 | 38993 ft | 503 kts | 121° |
| 2026-04-26 07:34 | 42.75724 | 30.55546 | 38992 ft | 502 kts | 117° |
| 2026-04-26 07:34 | 42.73465 | 30.64482 | 38997 ft | 500 kts | 99° |
| 2026-04-26 07:35 | 42.72367 | 30.73826 | 38995 ft | 501 kts | 97° |
| 2026-04-26 07:35 | 42.71452 | 30.83209 | 38993 ft | 500 kts | 96° |
| 2026-04-26 07:36 | 42.70538 | 30.92522 | 38993 ft | 500 kts | 97° |
| 2026-04-26 07:36 | 42.69583 | 31.01893 | 39000 ft | 500 kts | 97° |
| 2026-04-26 07:37 | 42.68607 | 31.11246 | 38992 ft | 500 kts | 97° |
| 2026-04-26 07:37 | 42.67622 | 31.20595 | 39000 ft | 500 kts | 97° |
| 2026-04-26 07:38 | 42.66630 | 31.29941 | 38997 ft | 500 kts | 97° |
| 2026-04-26 07:38 | 42.65631 | 31.39287 | 39004 ft | 500 kts | 97° |
| 2026-04-26 07:39 | 42.64624 | 31.48642 | 38999 ft | 500 kts | 97° |
| 2026-04-26 07:39 | 42.63615 | 31.57937 | 39000 ft | 501 kts | 97° |
| 2026-04-26 07:40 | 42.62591 | 31.67292 | 38999 ft | 501 kts | 97° |
| 2026-04-26 07:40 | 42.61560 | 31.76647 | 38999 ft | 501 kts | 98° |
| 2026-04-26 07:41 | 42.60521 | 31.85999 | 38998 ft | 501 kts | 98° |
| 2026-04-26 07:41 | 42.59474 | 31.95352 | 38999 ft | 501 kts | 98° |
| 2026-04-26 07:42 | 42.58425 | 32.04692 | 38997 ft | 501 kts | 98° |
| 2026-04-26 07:42 | 42.57391 | 32.13991 | 38996 ft | 501 kts | 98° |
| 2026-04-26 07:43 | 42.56318 | 32.23329 | 39000 ft | 501 kts | 98° |
| 2026-04-26 07:43 | 42.55235 | 32.32661 | 38997 ft | 501 kts | 98° |
| 2026-04-26 07:44 | 42.54147 | 32.42002 | 38999 ft | 501 kts | 98° |
| 2026-04-26 07:44 | 42.53054 | 32.51342 | 38995 ft | 502 kts | 98° |
| 2026-04-26 07:45 | 42.51952 | 32.60692 | 38993 ft | 502 kts | 99° |
| 2026-04-26 07:45 | 42.50843 | 32.70037 | 38993 ft | 502 kts | 99° |
| 2026-04-26 07:46 | 42.49725 | 32.79383 | 38994 ft | 502 kts | 99° |
| 2026-04-26 07:46 | 42.48608 | 32.88656 | 38991 ft | 502 kts | 99° |
| 2026-04-26 07:47 | 42.47473 | 32.98009 | 38991 ft | 502 kts | 99° |
| 2026-04-26 07:47 | 42.46333 | 33.07339 | 38992 ft | 502 kts | 99° |
| 2026-04-26 07:48 | 42.45189 | 33.16660 | 38994 ft | 502 kts | 99° |
| 2026-04-26 07:48 | 42.44033 | 33.25988 | 38993 ft | 502 kts | 99° |
| 2026-04-26 07:49 | 42.42875 | 33.35239 | 38991 ft | 501 kts | 99° |
| 2026-04-26 07:49 | 42.41706 | 33.44524 | 38999 ft | 501 kts | 99° |
| 2026-04-26 07:50 | 42.39937 | 33.58482 | 38990 ft | 502 kts | 99° |
| 2026-04-26 07:50 | 42.38746 | 33.67801 | 38986 ft | 502 kts | 100° |
| 2026-04-26 07:51 | 42.37550 | 33.77099 | 38983 ft | 501 kts | 100° |
| 2026-04-26 07:51 | 42.36348 | 33.86384 | 38985 ft | 501 kts | 100° |
| 2026-04-26 07:52 | 42.35152 | 33.95605 | 38986 ft | 501 kts | 100° |
| 2026-04-26 07:52 | 42.33939 | 34.04880 | 38980 ft | 501 kts | 100° |
| 2026-04-26 07:53 | 42.32716 | 34.14160 | 38978 ft | 501 kts | 100° |
| 2026-04-26 07:53 | 42.31488 | 34.23432 | 38978 ft | 501 kts | 100° |
| 2026-04-26 07:54 | 42.30253 | 34.32692 | 38984 ft | 501 kts | 100° |
| 2026-04-26 07:54 | 42.29010 | 34.41957 | 38983 ft | 501 kts | 101° |
| 2026-04-26 07:55 | 42.27765 | 34.51158 | 38982 ft | 502 kts | 101° |
| 2026-04-26 07:55 | 42.26505 | 34.60427 | 38977 ft | 502 kts | 101° |
| 2026-04-26 07:56 | 42.25235 | 34.69706 | 38979 ft | 502 kts | 101° |
| 2026-04-26 07:56 | 42.23958 | 34.78982 | 38980 ft | 503 kts | 101° |
| 2026-04-26 07:57 | 42.22668 | 34.88246 | 38980 ft | 503 kts | 101° |
| 2026-04-26 07:57 | 42.21371 | 34.97523 | 38979 ft | 503 kts | 101° |
| 2026-04-26 07:58 | 42.20290 | 35.05219 | 38979 ft | 503 kts | 101° |
| 2026-04-26 07:58 | 42.18980 | 35.14483 | 38976 ft | 502 kts | 101° |
| 2026-04-26 07:59 | 42.17663 | 35.23735 | 38977 ft | 502 kts | 102° |
| 2026-04-26 07:59 | 42.16341 | 35.32973 | 38979 ft | 502 kts | 102° |
| 2026-04-26 08:00 | 42.15010 | 35.42217 | 38977 ft | 502 kts | 102° |
| 2026-04-26 08:00 | 42.13672 | 35.51457 | 38983 ft | 502 kts | 102° |
| 2026-04-26 08:01 | 42.12331 | 35.60688 | 38980 ft | 502 kts | 102° |
| 2026-04-26 08:01 | 42.10991 | 35.69865 | 38976 ft | 502 kts | 102° |
| 2026-04-26 08:02 | 42.09632 | 35.79107 | 38976 ft | 503 kts | 102° |
| 2026-04-26 08:02 | 42.08266 | 35.88336 | 38977 ft | 503 kts | 102° |
| 2026-04-26 08:03 | 42.06892 | 35.97568 | 38977 ft | 503 kts | 102° |
| 2026-04-26 08:03 | 42.05511 | 36.06795 | 38976 ft | 503 kts | 102° |
| 2026-04-26 08:04 | 42.04123 | 36.16017 | 38974 ft | 503 kts | 102° |
| 2026-04-26 08:04 | 42.02734 | 36.25187 | 38976 ft | 504 kts | 103° |
| 2026-04-26 08:05 | 42.01330 | 36.34413 | 38979 ft | 504 kts | 103° |
| 2026-04-26 08:05 | 41.99916 | 36.43642 | 38973 ft | 503 kts | 103° |
| 2026-04-26 08:06 | 41.98496 | 36.52863 | 38980 ft | 504 kts | 103° |
| 2026-04-26 08:06 | 41.97067 | 36.62089 | 38975 ft | 504 kts | 103° |
| 2026-04-26 08:07 | 41.95630 | 36.71316 | 38977 ft | 504 kts | 103° |
| 2026-04-26 08:07 | 41.94186 | 36.80535 | 38964 ft | 504 kts | 103° |
| 2026-04-26 08:08 | 41.92732 | 36.89770 | 38977 ft | 505 kts | 103° |
| 2026-04-26 08:08 | 41.91271 | 36.98997 | 38975 ft | 505 kts | 103° |
| 2026-04-26 08:09 | 41.89279 | 37.07943 | 38980 ft | 503 kts | 113° |
| 2026-04-26 08:09 | 41.86644 | 37.16629 | 38976 ft | 503 kts | 115° |
| 2026-04-26 08:10 | 41.83906 | 37.25253 | 38984 ft | 503 kts | 115° |
| 2026-04-26 08:10 | 41.81158 | 37.33874 | 38984 ft | 503 kts | 115° |
| 2026-04-26 08:11 | 41.78412 | 37.42509 | 38978 ft | 503 kts | 115° |
| 2026-04-26 08:11 | 41.75687 | 37.51080 | 38985 ft | 503 kts | 115° |
| 2026-04-26 08:12 | 41.72932 | 37.59719 | 38986 ft | 503 kts | 115° |
| 2026-04-26 08:12 | 41.70177 | 37.68334 | 38985 ft | 503 kts | 115° |
| 2026-04-26 08:13 | 41.67438 | 37.76883 | 38992 ft | 504 kts | 116° |
| 2026-04-26 08:13 | 41.64664 | 37.85492 | 38990 ft | 504 kts | 116° |
| 2026-04-26 08:14 | 41.61883 | 37.94101 | 38991 ft | 504 kts | 116° |
| 2026-04-26 08:14 | 41.59100 | 38.02695 | 38981 ft | 504 kts | 116° |
| 2026-04-26 08:15 | 41.56311 | 38.11278 | 38986 ft | 503 kts | 116° |
| 2026-04-26 08:15 | 41.53513 | 38.19864 | 38983 ft | 503 kts | 116° |
| 2026-04-26 08:16 | 41.50714 | 38.28424 | 38974 ft | 503 kts | 116° |
| 2026-04-26 08:16 | 41.47923 | 38.36934 | 38985 ft | 503 kts | 116° |
| 2026-04-26 08:17 | 41.45113 | 38.45477 | 38992 ft | 503 kts | 116° |
| 2026-04-26 08:17 | 41.42292 | 38.54024 | 38981 ft | 504 kts | 116° |
| 2026-04-26 08:18 | 41.39458 | 38.62583 | 38981 ft | 505 kts | 116° |
| 2026-04-26 08:18 | 41.36614 | 38.71149 | 38977 ft | 506 kts | 116° |
| 2026-04-26 08:19 | 41.33763 | 38.79709 | 38981 ft | 506 kts | 116° |
| 2026-04-26 08:19 | 41.30959 | 38.88238 | 38975 ft | 506 kts | 116° |
| 2026-04-26 08:20 | 41.28152 | 38.96845 | 38979 ft | 507 kts | 116° |
| 2026-04-26 08:20 | 41.25335 | 39.05446 | 38979 ft | 508 kts | 116° |
| 2026-04-26 08:21 | 41.22504 | 39.14035 | 38972 ft | 507 kts | 116° |
| 2026-04-26 08:21 | 41.19639 | 39.22610 | 38976 ft | 508 kts | 117° |
| 2026-04-26 08:22 | 41.16657 | 39.31100 | 38977 ft | 507 kts | 118° |
| 2026-04-26 08:22 | 41.13657 | 39.39571 | 38975 ft | 508 kts | 118° |
| 2026-04-26 08:23 | 41.10665 | 39.48053 | 38972 ft | 508 kts | 118° |
| 2026-04-26 08:23 | 41.07697 | 39.56478 | 38970 ft | 508 kts | 118° |
| 2026-04-26 08:24 | 41.04704 | 39.64961 | 38967 ft | 508 kts | 118° |
| 2026-04-26 08:24 | 41.01707 | 39.73433 | 38966 ft | 508 kts | 118° |
| 2026-04-26 08:25 | 40.99650 | 39.82408 | 38967 ft | 515 kts | 99° |
| 2026-04-26 08:25 | 40.99151 | 39.91880 | 38966 ft | 517 kts | 94° |
| 2026-04-26 08:26 | 40.98947 | 40.01401 | 38970 ft | 518 kts | 93° |
| 2026-04-26 08:26 | 40.98762 | 40.10865 | 38975 ft | 518 kts | 94° |
| 2026-04-26 08:27 | 40.98536 | 40.20407 | 38978 ft | 519 kts | 94° |
| 2026-04-26 08:27 | 40.98286 | 40.29957 | 38987 ft | 519 kts | 94° |
| 2026-04-26 08:28 | 40.98015 | 40.39503 | 38985 ft | 519 kts | 94° |
| 2026-04-26 08:28 | 40.97737 | 40.49041 | 38991 ft | 519 kts | 94° |
| 2026-04-26 08:29 | 40.97456 | 40.58531 | 38991 ft | 520 kts | 94° |
| 2026-04-26 08:29 | 40.97166 | 40.68074 | 39006 ft | 520 kts | 94° |
| 2026-04-26 08:30 | 40.96868 | 40.77641 | 39020 ft | 520 kts | 94° |
| 2026-04-26 08:30 | 40.96563 | 40.87204 | 39009 ft | 520 kts | 94° |
| 2026-04-26 08:31 | 40.96253 | 40.96782 | 39047 ft | 521 kts | 94° |
| 2026-04-26 08:31 | 40.95929 | 41.06346 | 39036 ft | 520 kts | 94° |
| 2026-04-26 08:32 | 40.95597 | 41.15918 | 39067 ft | 521 kts | 95° |
| 2026-04-26 08:32 | 40.95257 | 41.25491 | 39066 ft | 521 kts | 95° |
| 2026-04-26 08:33 | 40.94914 | 41.34999 | 39087 ft | 522 kts | 95° |
| 2026-04-26 08:33 | 40.94560 | 41.44589 | 39101 ft | 522 kts | 95° |
| 2026-04-26 08:34 | 40.94197 | 41.54190 | 39102 ft | 522 kts | 95° |
| 2026-04-26 08:34 | 40.93826 | 41.63770 | 39111 ft | 521 kts | 95° |
| 2026-04-26 08:35 | 40.93449 | 41.73344 | 39107 ft | 521 kts | 95° |
| 2026-04-26 08:35 | 40.93063 | 41.82907 | 39114 ft | 520 kts | 95° |
| 2026-04-26 08:36 | 40.92670 | 41.92467 | 39111 ft | 521 kts | 95° |
| 2026-04-26 08:36 | 40.92268 | 42.02024 | 39127 ft | 521 kts | 95° |
| 2026-04-26 08:37 | 40.91862 | 42.11523 | 39119 ft | 521 kts | 95° |
| 2026-04-26 08:37 | 40.91445 | 42.21087 | 39138 ft | 521 kts | 95° |
| 2026-04-26 08:38 | 40.91020 | 42.30641 | 39137 ft | 521 kts | 95° |
| 2026-04-26 08:38 | 40.90587 | 42.40207 | 39145 ft | 521 kts | 95° |
| 2026-04-26 08:39 | 40.90147 | 42.49720 | 39149 ft | 521 kts | 95° |
| 2026-04-26 08:39 | 40.89697 | 42.59288 | 39154 ft | 522 kts | 95° |
| 2026-04-26 08:40 | 40.89239 | 42.68879 | 39165 ft | 523 kts | 95° |
| 2026-04-26 08:40 | 40.88773 | 42.78470 | 39166 ft | 523 kts | 95° |
| 2026-04-26 08:41 | 40.88299 | 42.88055 | 39169 ft | 523 kts | 95° |
| 2026-04-26 08:41 | 40.87816 | 42.97646 | 39163 ft | 523 kts | 95° |
| 2026-04-26 08:42 | 40.87326 | 43.07231 | 39165 ft | 523 kts | 95° |
| 2026-04-26 08:42 | 40.86827 | 43.16831 | 39170 ft | 523 kts | 95° |
| 2026-04-26 08:43 | 40.86324 | 43.26350 | 39173 ft | 523 kts | 95° |
| 2026-04-26 08:43 | 40.85811 | 43.35930 | 39174 ft | 523 kts | 96° |
| 2026-04-26 08:44 | 40.85289 | 43.45506 | 39168 ft | 523 kts | 96° |
| 2026-04-26 08:44 | 40.84760 | 43.55079 | 39179 ft | 523 kts | 96° |
| 2026-04-26 08:45 | 40.84222 | 43.64663 | 39169 ft | 523 kts | 96° |
| 2026-04-26 08:45 | 40.83726 | 43.74251 | 39157 ft | 523 kts | 94° |
| 2026-04-26 08:46 | 40.83440 | 43.83785 | 39184 ft | 522 kts | 93° |
| 2026-04-26 08:46 | 40.83179 | 43.93371 | 39186 ft | 522 kts | 94° |
| 2026-04-26 08:47 | 40.82874 | 44.02928 | 39184 ft | 521 kts | 94° |
| 2026-04-26 08:47 | 40.82542 | 44.12480 | 39186 ft | 521 kts | 94° |
| 2026-04-26 08:48 | 40.82199 | 44.22028 | 39178 ft | 521 kts | 94° |
| 2026-04-26 08:48 | 40.81849 | 44.31583 | 39174 ft | 521 kts | 94° |
| 2026-04-26 08:49 | 40.81496 | 44.41057 | 39171 ft | 521 kts | 94° |
| 2026-04-26 08:49 | 40.81131 | 44.50619 | 39164 ft | 521 kts | 94° |
| 2026-04-26 08:50 | 40.80760 | 44.60178 | 39162 ft | 521 kts | 94° |
| 2026-04-26 08:50 | 40.80381 | 44.69731 | 39161 ft | 521 kts | 94° |
| 2026-04-26 08:51 | 40.79797 | 44.84042 | 39158 ft | 520 kts | 95° |
| 2026-04-26 08:52 | 40.79398 | 44.93569 | 39170 ft | 521 kts | 94° |
| 2026-04-26 08:52 | 40.78994 | 45.03046 | 39168 ft | 521 kts | 95° |
| 2026-04-26 08:53 | 40.78579 | 45.12594 | 39178 ft | 520 kts | 95° |
| 2026-04-26 08:53 | 40.78157 | 45.22112 | 39178 ft | 519 kts | 95° |
| 2026-04-26 08:54 | 40.77727 | 45.31645 | 39191 ft | 519 kts | 95° |
| 2026-04-26 08:54 | 40.77291 | 45.41106 | 39193 ft | 519 kts | 95° |
| 2026-04-26 08:55 | 40.76846 | 45.50631 | 39197 ft | 519 kts | 95° |
| 2026-04-26 08:55 | 40.76154 | 45.60086 | 39200 ft | 517 kts | 99° |
| 2026-04-26 08:56 | 40.75214 | 45.69479 | 39213 ft | 517 kts | 99° |
| 2026-04-26 08:56 | 40.74290 | 45.78887 | 39213 ft | 517 kts | 99° |
| 2026-04-26 08:57 | 40.73415 | 45.88230 | 39199 ft | 516 kts | 99° |
| 2026-04-26 08:57 | 40.72548 | 45.97620 | 39228 ft | 515 kts | 99° |
| 2026-04-26 08:58 | 40.71676 | 46.06995 | 39233 ft | 515 kts | 99° |
| 2026-04-26 08:58 | 40.70791 | 46.16390 | 39237 ft | 515 kts | 99° |
| 2026-04-26 08:59 | 40.69901 | 46.25751 | 39238 ft | 515 kts | 99° |
| 2026-04-26 08:59 | 40.69008 | 46.35045 | 39237 ft | 514 kts | 99° |
| 2026-04-26 09:00 | 40.68105 | 46.44376 | 39235 ft | 514 kts | 100° |
| 2026-04-26 09:00 | 40.67193 | 46.53709 | 39233 ft | 514 kts | 100° |
| 2026-04-26 09:01 | 40.66430 | 46.61468 | 39239 ft | 514 kts | 100° |
| 2026-04-26 09:01 | 40.65502 | 46.70820 | 39244 ft | 515 kts | 100° |
| 2026-04-26 09:02 | 40.64568 | 46.80166 | 39233 ft | 515 kts | 100° |
| 2026-04-26 09:02 | 40.63625 | 46.89519 | 39242 ft | 515 kts | 100° |
| 2026-04-26 09:03 | 40.62675 | 46.98862 | 39238 ft | 515 kts | 101° |
| 2026-04-26 09:03 | 40.61717 | 47.08203 | 39232 ft | 515 kts | 101° |
| 2026-04-26 09:04 | 40.60794 | 47.17559 | 39241 ft | 517 kts | 97° |
| 2026-04-26 09:04 | 40.60414 | 47.26970 | 39240 ft | 519 kts | 95° |
| 2026-04-26 09:05 | 40.60142 | 47.36461 | 39242 ft | 519 kts | 95° |
| 2026-04-26 09:05 | 40.59882 | 47.45951 | 39236 ft | 519 kts | 95° |
| 2026-04-26 09:06 | 40.59605 | 47.55447 | 39233 ft | 519 kts | 95° |
| 2026-04-26 09:06 | 40.59315 | 47.64937 | 39229 ft | 519 kts | 95° |
| 2026-04-26 09:07 | 40.59016 | 47.74376 | 39229 ft | 520 kts | 95° |
| 2026-04-26 09:07 | 40.58707 | 47.83895 | 39228 ft | 521 kts | 95° |
| 2026-04-26 09:08 | 40.58391 | 47.93416 | 39217 ft | 521 kts | 95° |
| 2026-04-26 09:08 | 40.58315 | 48.02952 | 39221 ft | 523 kts | 90° |
| 2026-04-26 09:09 | 40.58691 | 48.12532 | 39222 ft | 524 kts | 89° |
| 2026-04-26 09:09 | 40.59064 | 48.22130 | 39215 ft | 525 kts | 90° |
| 2026-04-26 09:10 | 40.59350 | 48.31729 | 39213 ft | 525 kts | 90° |
| 2026-04-26 09:10 | 40.59592 | 48.41331 | 39200 ft | 525 kts | 90° |
| 2026-04-26 09:11 | 40.59818 | 48.50867 | 39194 ft | 526 kts | 91° |
| 2026-04-26 09:11 | 40.60042 | 48.60522 | 39195 ft | 530 kts | 91° |
| 2026-04-26 09:12 | 40.60263 | 48.70233 | 39175 ft | 531 kts | 91° |
| 2026-04-26 09:12 | 40.60477 | 48.79948 | 39165 ft | 531 kts | 91° |
| 2026-04-26 09:13 | 40.60681 | 48.89667 | 39152 ft | 531 kts | 91° |
| 2026-04-26 09:13 | 40.60877 | 48.99399 | 39123 ft | 534 kts | 91° |
| 2026-04-26 09:14 | 40.61066 | 49.09198 | 39140 ft | 536 kts | 91° |
| 2026-04-26 09:14 | 40.61074 | 49.18930 | 39139 ft | 533 kts | 99° |
| 2026-04-26 09:15 | 40.59880 | 49.28484 | 39133 ft | 529 kts | 105° |
| 2026-04-26 09:15 | 40.58400 | 49.37954 | 39134 ft | 528 kts | 106° |
| 2026-04-26 09:16 | 40.56876 | 49.47389 | 39136 ft | 525 kts | 105° |
| 2026-04-26 09:16 | 40.55339 | 49.56760 | 39151 ft | 523 kts | 106° |
| 2026-04-26 09:17 | 40.53782 | 49.66097 | 39165 ft | 523 kts | 106° |
| 2026-04-26 09:17 | 40.52223 | 49.75449 | 39171 ft | 523 kts | 106° |
| 2026-04-26 09:18 | 40.50674 | 49.84732 | 39181 ft | 523 kts | 106° |
| 2026-04-26 09:18 | 40.49110 | 49.94062 | 39183 ft | 523 kts | 106° |
| 2026-04-26 09:19 | 40.47539 | 50.03392 | 39187 ft | 523 kts | 106° |
| 2026-04-26 09:19 | 40.46091 | 50.12770 | 39184 ft | 525 kts | 103° |
| 2026-04-26 09:20 | 40.44889 | 50.22223 | 39184 ft | 525 kts | 102° |
| 2026-04-26 09:20 | 40.43685 | 50.31662 | 39186 ft | 524 kts | 103° |
| 2026-04-26 09:21 | 40.42432 | 50.41079 | 39188 ft | 524 kts | 103° |
| 2026-04-26 09:21 | 40.41149 | 50.50502 | 39189 ft | 524 kts | 103° |
| 2026-04-26 09:22 | 40.39857 | 50.59907 | 39194 ft | 524 kts | 103° |
| 2026-04-26 09:22 | 40.38558 | 50.69313 | 39195 ft | 524 kts | 103° |
| 2026-04-26 09:23 | 40.37262 | 50.78650 | 39200 ft | 524 kts | 103° |
| 2026-04-26 09:23 | 40.35949 | 50.88061 | 39200 ft | 524 kts | 103° |
| 2026-04-26 09:24 | 40.34630 | 50.97454 | 39202 ft | 524 kts | 103° |
| 2026-04-26 09:24 | 40.33304 | 51.06837 | 39204 ft | 523 kts | 103° |
| 2026-04-26 09:25 | 40.31970 | 51.16212 | 39207 ft | 523 kts | 103° |
| 2026-04-26 09:25 | 40.30628 | 51.25594 | 39210 ft | 523 kts | 103° |
| 2026-04-26 09:26 | 40.29281 | 51.34953 | 39202 ft | 522 kts | 103° |
| 2026-04-26 09:26 | 40.27930 | 51.44288 | 39204 ft | 521 kts | 103° |
| 2026-04-26 09:27 | 40.26584 | 51.53550 | 39202 ft | 521 kts | 103° |
| 2026-04-26 09:27 | 40.25221 | 51.62869 | 39208 ft | 521 kts | 104° |
| 2026-04-26 09:28 | 40.23845 | 51.72188 | 39205 ft | 522 kts | 104° |
| 2026-04-26 09:28 | 40.22460 | 51.81529 | 39204 ft | 522 kts | 104° |
| 2026-04-26 09:29 | 40.21071 | 51.90849 | 39200 ft | 522 kts | 104° |
| 2026-04-26 09:29 | 40.19673 | 52.00175 | 39202 ft | 522 kts | 104° |
| 2026-04-26 09:30 | 40.18270 | 52.09486 | 39199 ft | 522 kts | 104° |
| 2026-04-26 09:30 | 40.16859 | 52.18793 | 39204 ft | 522 kts | 104° |
| 2026-04-26 09:31 | 40.15440 | 52.28096 | 39205 ft | 522 kts | 104° |
| 2026-04-26 09:31 | 40.14015 | 52.37391 | 39207 ft | 522 kts | 104° |
| 2026-04-26 09:32 | 40.12590 | 52.46635 | 39204 ft | 522 kts | 104° |
| 2026-04-26 09:32 | 40.11149 | 52.55929 | 39208 ft | 522 kts | 104° |
| 2026-04-26 09:33 | 40.09700 | 52.65224 | 39201 ft | 521 kts | 104° |
| 2026-04-26 09:33 | 40.08244 | 52.74510 | 39209 ft | 522 kts | 104° |
| 2026-04-26 09:34 | 40.06782 | 52.83780 | 39193 ft | 522 kts | 104° |
| 2026-04-26 09:34 | 40.05321 | 52.93000 | 39181 ft | 522 kts | 104° |
| 2026-04-26 09:35 | 40.03633 | 53.02195 | 39190 ft | 519 kts | 112° |
| 2026-04-26 09:35 | 40.01247 | 53.11078 | 39174 ft | 518 kts | 113° |
| 2026-04-26 09:36 | 39.98740 | 53.19890 | 39190 ft | 518 kts | 114° |
| 2026-04-26 09:36 | 39.96217 | 53.28673 | 39195 ft | 517 kts | 114° |
| 2026-04-26 09:37 | 39.93696 | 53.37462 | 39201 ft | 518 kts | 114° |
| 2026-04-26 09:37 | 39.91178 | 53.46243 | 39187 ft | 518 kts | 114° |
| 2026-04-26 09:38 | 39.88652 | 53.55029 | 39196 ft | 517 kts | 114° |
| 2026-04-26 09:38 | 39.86139 | 53.63739 | 39190 ft | 517 kts | 114° |
| 2026-04-26 09:39 | 39.83606 | 53.72487 | 39183 ft | 517 kts | 114° |
| 2026-04-26 09:39 | 39.81066 | 53.81233 | 39180 ft | 517 kts | 114° |
| 2026-04-26 09:40 | 39.78518 | 53.89975 | 39177 ft | 516 kts | 114° |
| 2026-04-26 09:40 | 39.75963 | 53.98708 | 39178 ft | 516 kts | 114° |
| 2026-04-26 09:41 | 39.73404 | 54.07432 | 39169 ft | 517 kts | 115° |
| 2026-04-26 09:41 | 39.70854 | 54.16092 | 39171 ft | 517 kts | 115° |
| 2026-04-26 09:42 | 39.68280 | 54.24809 | 39169 ft | 517 kts | 115° |
| 2026-04-26 09:42 | 39.65698 | 54.33523 | 39170 ft | 517 kts | 115° |
| 2026-04-26 09:43 | 39.63106 | 54.42240 | 39178 ft | 517 kts | 115° |
| 2026-04-26 09:43 | 39.60515 | 54.50931 | 39182 ft | 517 kts | 115° |
| 2026-04-26 09:44 | 39.57914 | 54.59624 | 39174 ft | 517 kts | 115° |
| 2026-04-26 09:44 | 39.55306 | 54.68310 | 39183 ft | 517 kts | 115° |
| 2026-04-26 09:45 | 39.52704 | 54.76948 | 39181 ft | 517 kts | 115° |
| 2026-04-26 09:45 | 39.50082 | 54.85628 | 39185 ft | 517 kts | 115° |
| 2026-04-26 09:46 | 39.47452 | 54.94303 | 39181 ft | 517 kts | 115° |
| 2026-04-26 09:46 | 39.44819 | 55.02963 | 39162 ft | 517 kts | 115° |
| 2026-04-26 09:47 | 39.42177 | 55.11625 | 39178 ft | 517 kts | 115° |
| 2026-04-26 09:47 | 39.39529 | 55.20278 | 39179 ft | 517 kts | 115° |
| 2026-04-26 09:48 | 39.36875 | 55.28924 | 39175 ft | 517 kts | 115° |
| 2026-04-26 09:48 | 39.34233 | 55.37502 | 39176 ft | 518 kts | 115° |
| 2026-04-26 09:49 | 39.31565 | 55.46140 | 39172 ft | 518 kts | 115° |
| 2026-04-26 09:49 | 39.28890 | 55.54772 | 39209 ft | 518 kts | 115° |
| 2026-04-26 09:49 | 39.27537 | 55.59077 | 39379 ft | 517 kts | 116° |
| 2026-04-26 09:50 | 39.26035 | 55.63280 | 39571 ft | 515 kts | 120° |
| 2026-04-26 09:50 | 39.24425 | 55.67404 | 39701 ft | 514 kts | 121° |
| 2026-04-26 09:50 | 39.22779 | 55.71497 | 39843 ft | 514 kts | 121° |
| 2026-04-26 09:50 | 39.21134 | 55.75592 | 39981 ft | 515 kts | 121° |
| 2026-04-26 09:51 | 39.19502 | 55.79701 | 40080 ft | 515 kts | 120° |
| 2026-04-26 09:51 | 39.17908 | 55.83764 | 40234 ft | 515 kts | 120° |
| 2026-04-26 09:51 | 39.16303 | 55.87895 | 40360 ft | 515 kts | 120° |
| 2026-04-26 09:51 | 39.14704 | 55.92031 | 40479 ft | 515 kts | 120° |
| 2026-04-26 09:52 | 39.13107 | 55.96168 | 40591 ft | 516 kts | 120° |
| 2026-04-26 09:52 | 39.09909 | 56.04442 | 40797 ft | 516 kts | 120° |
| 2026-04-26 09:52 | 39.08310 | 56.08569 | 40916 ft | 516 kts | 120° |
| 2026-04-26 09:53 | 39.06706 | 56.12700 | 41026 ft | 516 kts | 120° |
| 2026-04-26 09:53 | 39.05099 | 56.16830 | 41127 ft | 516 kts | 120° |
| 2026-04-26 09:53 | 39.01876 | 56.25096 | 41168 ft | 517 kts | 120° |
| 2026-04-26 09:54 | 38.99009 | 56.33601 | 41163 ft | 520 kts | 114° |
| 2026-04-26 09:54 | 38.96571 | 56.42291 | 41173 ft | 521 kts | 113° |
| 2026-04-26 09:55 | 38.94174 | 56.51082 | 41170 ft | 521 kts | 112° |
| 2026-04-26 09:55 | 38.91772 | 56.59860 | 41172 ft | 521 kts | 113° |
| 2026-04-26 09:56 | 38.89353 | 56.68626 | 41182 ft | 521 kts | 113° |
| 2026-04-26 09:56 | 38.86937 | 56.77333 | 41188 ft | 521 kts | 113° |
| 2026-04-26 09:57 | 38.84501 | 56.86078 | 41188 ft | 521 kts | 113° |
| 2026-04-26 09:57 | 38.82060 | 56.94816 | 41158 ft | 520 kts | 113° |
| 2026-04-26 09:58 | 38.79610 | 57.03552 | 41185 ft | 521 kts | 113° |
| 2026-04-26 09:58 | 38.77151 | 57.12297 | 41198 ft | 521 kts | 113° |
| 2026-04-26 09:59 | 38.75104 | 57.19553 | 41195 ft | 521 kts | 113° |
| 2026-04-26 09:59 | 38.72218 | 57.29752 | 41190 ft | 521 kts | 113° |
| 2026-04-26 10:00 | 38.69748 | 57.38445 | 41208 ft | 522 kts | 114° |
| 2026-04-26 10:00 | 38.67256 | 57.47186 | 41207 ft | 522 kts | 114° |
| 2026-04-26 10:01 | 38.65184 | 57.54436 | 41201 ft | 522 kts | 114° |
| 2026-04-26 10:01 | 38.62685 | 57.63152 | 41198 ft | 522 kts | 114° |
| 2026-04-26 10:02 | 38.60078 | 57.71832 | 41209 ft | 522 kts | 117° |
| 2026-04-26 10:02 | 38.57068 | 57.80280 | 41208 ft | 521 kts | 119° |
| 2026-04-26 10:03 | 38.54009 | 57.88679 | 41211 ft | 521 kts | 118° |
| 2026-04-26 10:03 | 38.51018 | 57.97062 | 41214 ft | 521 kts | 118° |
| 2026-04-26 10:04 | 38.48043 | 58.05500 | 41214 ft | 521 kts | 118° |
| 2026-04-26 10:04 | 38.45067 | 58.13940 | 41215 ft | 521 kts | 118° |
| 2026-04-26 10:05 | 38.42087 | 58.22362 | 41202 ft | 521 kts | 118° |
| 2026-04-26 10:05 | 38.39503 | 58.31020 | 41220 ft | 526 kts | 109° |
| 2026-04-26 10:06 | 38.37603 | 58.40047 | 41218 ft | 528 kts | 107° |
| 2026-04-26 10:06 | 38.35824 | 58.49073 | 41223 ft | 528 kts | 107° |
| 2026-04-26 10:07 | 38.34032 | 58.58156 | 41225 ft | 528 kts | 107° |
| 2026-04-26 10:07 | 38.32215 | 58.67234 | 41228 ft | 529 kts | 107° |
| 2026-04-26 10:08 | 38.30381 | 58.76308 | 41222 ft | 530 kts | 107° |
| 2026-04-26 10:08 | 38.28538 | 58.85389 | 41221 ft | 530 kts | 107° |
| 2026-04-26 10:09 | 38.26687 | 58.94468 | 41230 ft | 530 kts | 107° |
| 2026-04-26 10:09 | 38.24844 | 59.03472 | 41228 ft | 530 kts | 107° |
| 2026-04-26 10:10 | 38.22977 | 59.12556 | 41220 ft | 531 kts | 108° |
| 2026-04-26 10:10 | 38.21104 | 59.21632 | 41226 ft | 531 kts | 108° |
| 2026-04-26 10:11 | 38.19224 | 59.30702 | 41227 ft | 531 kts | 108° |
| 2026-04-26 10:11 | 38.17335 | 59.39777 | 41231 ft | 530 kts | 108° |
| 2026-04-26 10:12 | 38.15440 | 59.48840 | 41227 ft | 531 kts | 108° |
| 2026-04-26 10:12 | 38.13536 | 59.57909 | 41227 ft | 531 kts | 108° |
| 2026-04-26 10:13 | 38.11627 | 59.66970 | 41227 ft | 531 kts | 108° |
| 2026-04-26 10:13 | 38.09723 | 59.75962 | 41228 ft | 531 kts | 108° |
| 2026-04-26 10:14 | 38.07801 | 59.85007 | 41218 ft | 531 kts | 108° |
| 2026-04-26 10:14 | 38.05868 | 59.94063 | 41225 ft | 532 kts | 108° |
| 2026-04-26 10:15 | 38.03929 | 60.03111 | 41227 ft | 531 kts | 108° |
| 2026-04-26 10:15 | 38.01948 | 60.12136 | 41224 ft | 530 kts | 111° |
| 2026-04-26 10:16 | 37.98683 | 60.20362 | 41209 ft | 517 kts | 131° |
| 2026-04-26 10:16 | 37.94083 | 60.27240 | 41222 ft | 513 kts | 137° |
| 2026-04-26 10:17 | 37.89229 | 60.33870 | 41224 ft | 513 kts | 138° |
| 2026-04-26 10:17 | 37.84349 | 60.40474 | 41220 ft | 514 kts | 138° |
| 2026-04-26 10:18 | 37.79485 | 60.47102 | 41218 ft | 514 kts | 138° |
| 2026-04-26 10:18 | 37.74631 | 60.53740 | 41234 ft | 514 kts | 138° |
| 2026-04-26 10:19 | 37.69683 | 60.60237 | 41212 ft | 512 kts | 140° |
| 2026-04-26 10:19 | 37.64639 | 60.66602 | 41219 ft | 513 kts | 141° |
| 2026-04-26 10:20 | 37.60440 | 60.71907 | 41220 ft | 513 kts | 140° |
| 2026-04-26 10:20 | 37.54596 | 60.79337 | 41218 ft | 513 kts | 140° |
| 2026-04-26 10:21 | 37.49579 | 60.85726 | 41217 ft | 513 kts | 140° |
| 2026-04-26 10:21 | 37.44543 | 60.92124 | 41216 ft | 515 kts | 140° |
| 2026-04-26 10:22 | 37.39497 | 60.98522 | 41219 ft | 515 kts | 140° |
| 2026-04-26 10:22 | 37.34479 | 61.04871 | 41226 ft | 515 kts | 140° |
| 2026-04-26 10:23 | 37.29438 | 61.11237 | 41220 ft | 513 kts | 140° |
| 2026-04-26 10:23 | 37.24397 | 61.17588 | 41220 ft | 513 kts | 140° |
| 2026-04-26 10:24 | 37.19355 | 61.23929 | 41215 ft | 513 kts | 140° |
| 2026-04-26 10:24 | 37.14311 | 61.30253 | 41217 ft | 512 kts | 141° |
| 2026-04-26 10:25 | 37.09298 | 61.36518 | 41220 ft | 512 kts | 141° |
| 2026-04-26 10:25 | 37.04257 | 61.42808 | 41211 ft | 512 kts | 141° |
| 2026-04-26 10:26 | 36.99206 | 61.49098 | 41213 ft | 513 kts | 141° |
| 2026-04-26 10:26 | 36.94133 | 61.55404 | 41213 ft | 513 kts | 141° |
| 2026-04-26 10:27 | 36.89067 | 61.61692 | 41185 ft | 513 kts | 141° |
| 2026-04-26 10:27 | 36.83997 | 61.67982 | 41211 ft | 514 kts | 141° |
| 2026-04-26 10:28 | 36.78944 | 61.74230 | 41209 ft | 515 kts | 141° |
| 2026-04-26 10:28 | 36.73852 | 61.80513 | 41209 ft | 515 kts | 141° |
| 2026-04-26 10:29 | 36.68756 | 61.86792 | 41205 ft | 515 kts | 141° |
| 2026-04-26 10:29 | 36.63661 | 61.93058 | 41206 ft | 515 kts | 141° |
| 2026-04-26 10:30 | 36.58561 | 61.99318 | 41206 ft | 515 kts | 141° |
| 2026-04-26 10:30 | 36.53454 | 62.05574 | 41205 ft | 515 kts | 141° |
| 2026-04-26 10:31 | 36.48343 | 62.11823 | 41203 ft | 515 kts | 141° |
| 2026-04-26 10:31 | 36.43228 | 62.18064 | 41202 ft | 515 kts | 141° |
| 2026-04-26 10:32 | 36.38110 | 62.24296 | 41200 ft | 515 kts | 141° |
| 2026-04-26 10:32 | 36.33011 | 62.30492 | 41199 ft | 516 kts | 141° |
| 2026-04-26 10:33 | 36.27883 | 62.36713 | 41199 ft | 516 kts | 141° |
| 2026-04-26 10:33 | 36.22749 | 62.42929 | 41170 ft | 516 kts | 141° |
| 2026-04-26 10:34 | 36.17605 | 62.49144 | 41201 ft | 518 kts | 141° |
| 2026-04-26 10:34 | 36.12435 | 62.55378 | 41200 ft | 519 kts | 141° |
| 2026-04-26 10:35 | 36.07259 | 62.61610 | 41195 ft | 519 kts | 141° |
| 2026-04-26 10:35 | 36.02110 | 62.67796 | 41185 ft | 520 kts | 142° |
| 2026-04-26 10:36 | 35.96918 | 62.74020 | 41189 ft | 521 kts | 142° |
| 2026-04-26 10:36 | 35.91717 | 62.80245 | 41194 ft | 521 kts | 142° |
| 2026-04-26 10:37 | 35.86511 | 62.86464 | 41183 ft | 521 kts | 141° |
| 2026-04-26 10:37 | 35.81300 | 62.92676 | 41188 ft | 521 kts | 142° |
| 2026-04-26 10:38 | 35.76093 | 62.98872 | 41187 ft | 521 kts | 142° |
| 2026-04-26 10:38 | 35.70880 | 63.05062 | 41193 ft | 521 kts | 142° |
| 2026-04-26 10:39 | 35.65664 | 63.11246 | 41185 ft | 521 kts | 142° |
| 2026-04-26 10:39 | 35.60438 | 63.17429 | 41186 ft | 520 kts | 142° |
| 2026-04-26 10:40 | 35.55654 | 63.24186 | 41186 ft | 526 kts | 133° |
| 2026-04-26 10:40 | 35.51159 | 63.31290 | 41184 ft | 527 kts | 132° |
| 2026-04-26 10:41 | 35.46706 | 63.38442 | 41188 ft | 527 kts | 132° |
| 2026-04-26 10:41 | 35.42243 | 63.45581 | 41187 ft | 527 kts | 133° |
| 2026-04-26 10:42 | 35.37800 | 63.52646 | 41154 ft | 526 kts | 133° |
| 2026-04-26 10:42 | 35.33328 | 63.59732 | 41186 ft | 525 kts | 133° |
| 2026-04-26 10:43 | 35.28853 | 63.66811 | 41184 ft | 526 kts | 133° |
| 2026-04-26 10:43 | 35.24387 | 63.73902 | 41181 ft | 526 kts | 133° |
| 2026-04-26 10:44 | 35.19927 | 63.80978 | 41164 ft | 525 kts | 133° |
| 2026-04-26 10:44 | 35.15468 | 63.88035 | 41176 ft | 523 kts | 133° |
| 2026-04-26 10:45 | 35.11042 | 63.95022 | 41167 ft | 523 kts | 133° |
| 2026-04-26 10:45 | 35.06580 | 64.02049 | 41156 ft | 523 kts | 133° |
| 2026-04-26 10:46 | 35.02120 | 64.09061 | 41156 ft | 522 kts | 133° |
| 2026-04-26 10:46 | 34.97670 | 64.16046 | 41150 ft | 521 kts | 133° |
| 2026-04-26 10:47 | 34.93220 | 64.23014 | 41152 ft | 521 kts | 133° |
| 2026-04-26 10:47 | 34.88766 | 64.29974 | 41151 ft | 521 kts | 133° |
| 2026-04-26 10:48 | 34.84307 | 64.36929 | 41158 ft | 520 kts | 133° |
| 2026-04-26 10:48 | 34.79848 | 64.43873 | 41152 ft | 521 kts | 133° |
| 2026-04-26 10:49 | 34.75382 | 64.50812 | 41153 ft | 521 kts | 133° |
| 2026-04-26 10:49 | 34.70906 | 64.57752 | 41151 ft | 520 kts | 133° |
| 2026-04-26 10:50 | 34.67191 | 64.63503 | 41148 ft | 520 kts | 133° |
| 2026-04-26 10:50 | 34.62009 | 64.71510 | 41147 ft | 518 kts | 133° |
| 2026-04-26 10:51 | 34.55318 | 64.81819 | 41145 ft | 518 kts | 133° |
| 2026-04-26 10:52 | 34.50854 | 64.88681 | 41133 ft | 518 kts | 133° |
| 2026-04-26 10:52 | 34.46390 | 64.95526 | 41142 ft | 517 kts | 133° |
| 2026-04-26 10:53 | 34.41915 | 65.02357 | 41151 ft | 517 kts | 134° |
| 2026-04-26 10:53 | 34.37429 | 65.09192 | 41137 ft | 518 kts | 134° |
| 2026-04-26 10:54 | 34.30713 | 65.19410 | 41137 ft | 517 kts | 134° |
| 2026-04-26 10:54 | 34.26958 | 65.25108 | 41141 ft | 516 kts | 134° |
| 2026-04-26 10:55 | 34.22476 | 65.31895 | 41146 ft | 517 kts | 134° |
| 2026-04-26 10:55 | 34.17988 | 65.38683 | 41148 ft | 517 kts | 134° |
| 2026-04-26 10:56 | 34.13499 | 65.45459 | 41140 ft | 516 kts | 134° |
| 2026-04-26 10:56 | 34.09013 | 65.52217 | 41144 ft | 515 kts | 134° |
| 2026-04-26 10:57 | 34.04558 | 65.58928 | 41137 ft | 515 kts | 134° |
| 2026-04-26 10:57 | 34.00081 | 65.65665 | 41125 ft | 515 kts | 134° |
| 2026-04-26 10:58 | 33.95602 | 65.72390 | 41125 ft | 514 kts | 134° |
| 2026-04-26 10:58 | 33.91124 | 65.79106 | 41106 ft | 514 kts | 134° |
| 2026-04-26 10:59 | 33.86643 | 65.85811 | 41110 ft | 514 kts | 134° |
| 2026-04-26 10:59 | 33.82164 | 65.92500 | 41109 ft | 514 kts | 134° |
| 2026-04-26 11:00 | 33.77677 | 65.99191 | 41077 ft | 513 kts | 134° |
| 2026-04-26 11:00 | 33.73189 | 66.05873 | 41072 ft | 513 kts | 134° |
| 2026-04-26 11:01 | 33.68705 | 66.12525 | 41071 ft | 512 kts | 134° |
| 2026-04-26 11:01 | 33.64220 | 66.19172 | 41056 ft | 512 kts | 134° |
| 2026-04-26 11:02 | 33.59758 | 66.25782 | 41046 ft | 514 kts | 133° |
| 2026-04-26 11:02 | 33.55244 | 66.32451 | 41036 ft | 516 kts | 134° |
| 2026-04-26 11:03 | 33.50710 | 66.39137 | 41032 ft | 517 kts | 134° |
| 2026-04-26 11:03 | 33.46167 | 66.45826 | 41030 ft | 517 kts | 134° |
| 2026-04-26 11:04 | 33.41619 | 66.52501 | 41038 ft | 518 kts | 134° |
| 2026-04-26 11:04 | 33.37053 | 66.59155 | 41049 ft | 517 kts | 134° |
| 2026-04-26 11:05 | 33.32479 | 66.65806 | 41080 ft | 518 kts | 134° |
| 2026-04-26 11:05 | 33.27896 | 66.72471 | 41091 ft | 518 kts | 134° |
| 2026-04-26 11:06 | 33.23317 | 66.79124 | 41085 ft | 518 kts | 134° |
| 2026-04-26 11:06 | 33.18732 | 66.85770 | 41098 ft | 518 kts | 134° |
| 2026-04-26 11:07 | 33.14137 | 66.92416 | 41099 ft | 518 kts | 134° |
| 2026-04-26 11:07 | 33.09555 | 66.99033 | 41095 ft | 518 kts | 134° |
| 2026-04-26 11:08 | 33.04963 | 67.05652 | 41053 ft | 518 kts | 134° |
| 2026-04-26 11:08 | 33.00368 | 67.12264 | 41069 ft | 518 kts | 134° |
| 2026-04-26 11:09 | 32.95766 | 67.18873 | 41025 ft | 518 kts | 134° |
| 2026-04-26 11:09 | 32.91170 | 67.25463 | 41027 ft | 517 kts | 134° |
| 2026-04-26 11:10 | 32.86562 | 67.32056 | 40981 ft | 518 kts | 134° |
| 2026-04-26 11:10 | 32.81948 | 67.38644 | 40959 ft | 519 kts | 134° |
| 2026-04-26 11:11 | 32.77359 | 67.45192 | 40947 ft | 520 kts | 134° |
| 2026-04-26 11:11 | 32.72643 | 67.51689 | 40932 ft | 518 kts | 136° |
| 2026-04-26 11:12 | 32.67839 | 67.58057 | 40927 ft | 518 kts | 136° |
| 2026-04-26 11:12 | 32.63034 | 67.64439 | 40909 ft | 518 kts | 136° |
| 2026-04-26 11:13 | 32.58254 | 67.70822 | 40907 ft | 518 kts | 136° |
| 2026-04-26 11:13 | 32.53466 | 67.77222 | 40906 ft | 518 kts | 136° |
| 2026-04-26 11:14 | 32.48691 | 67.83622 | 40903 ft | 519 kts | 135° |
| 2026-04-26 11:14 | 32.44083 | 67.90210 | 40900 ft | 519 kts | 133° |
| 2026-04-26 11:15 | 32.39539 | 67.96850 | 40908 ft | 518 kts | 133° |
| 2026-04-26 11:15 | 32.34981 | 68.03441 | 40912 ft | 517 kts | 134° |
| 2026-04-26 11:16 | 32.30403 | 68.09999 | 40914 ft | 517 kts | 134° |
| 2026-04-26 11:16 | 32.25814 | 68.16547 | 40907 ft | 517 kts | 134° |
| 2026-04-26 11:17 | 32.21229 | 68.23080 | 40911 ft | 516 kts | 134° |
| 2026-04-26 11:17 | 32.16640 | 68.29608 | 40913 ft | 516 kts | 134° |
| 2026-04-26 11:18 | 32.12051 | 68.36126 | 40912 ft | 516 kts | 134° |
| 2026-04-26 11:18 | 32.07481 | 68.42607 | 40909 ft | 516 kts | 134° |
| 2026-04-26 11:19 | 32.02886 | 68.49112 | 40902 ft | 516 kts | 134° |
| 2026-04-26 11:19 | 31.98285 | 68.55613 | 40897 ft | 516 kts | 134° |
| 2026-04-26 11:20 | 31.94456 | 68.61014 | 40895 ft | 517 kts | 134° |
| 2026-04-26 11:20 | 31.89062 | 68.68611 | 40889 ft | 517 kts | 134° |
| 2026-04-26 11:21 | 31.84445 | 68.75102 | 40863 ft | 517 kts | 134° |
| 2026-04-26 11:21 | 31.79832 | 68.81577 | 40873 ft | 516 kts | 134° |
| 2026-04-26 11:22 | 31.75225 | 68.88031 | 40860 ft | 515 kts | 134° |
| 2026-04-26 11:22 | 31.70620 | 68.94472 | 40860 ft | 515 kts | 134° |
| 2026-04-26 11:23 | 31.66012 | 69.00909 | 40840 ft | 515 kts | 134° |
| 2026-04-26 11:23 | 31.61520 | 69.07485 | 40843 ft | 517 kts | 131° |
| 2026-04-26 11:24 | 31.57128 | 69.14100 | 40825 ft | 517 kts | 131° |
| 2026-04-26 11:24 | 31.52687 | 69.20744 | 40822 ft | 517 kts | 132° |
| 2026-04-26 11:25 | 31.48219 | 69.27368 | 40815 ft | 519 kts | 132° |
| 2026-04-26 11:25 | 31.43732 | 69.33992 | 40799 ft | 519 kts | 132° |
| 2026-04-26 11:26 | 31.39233 | 69.40623 | 40808 ft | 519 kts | 132° |
| 2026-04-26 11:26 | 31.34461 | 69.46902 | 40813 ft | 512 kts | 143° |
| 2026-04-26 11:27 | 31.29040 | 69.52288 | 40809 ft | 511 kts | 145° |
| 2026-04-26 11:27 | 31.23514 | 69.57511 | 40814 ft | 511 kts | 146° |
| 2026-04-26 11:28 | 31.18003 | 69.62685 | 40816 ft | 511 kts | 146° |
| 2026-04-26 11:28 | 31.12485 | 69.67885 | 40821 ft | 509 kts | 145° |
| 2026-04-26 11:29 | 31.06974 | 69.73084 | 40817 ft | 509 kts | 145° |
| 2026-04-26 11:29 | 31.01465 | 69.78278 | 40812 ft | 510 kts | 145° |
| 2026-04-26 11:30 | 30.96875 | 69.82597 | 40810 ft | 511 kts | 145° |
| 2026-04-26 11:30 | 30.90405 | 69.88678 | 40810 ft | 511 kts | 145° |
| 2026-04-26 11:31 | 30.84864 | 69.93879 | 40798 ft | 510 kts | 145° |
| 2026-04-26 11:31 | 30.79335 | 69.99058 | 40797 ft | 510 kts | 145° |
| 2026-04-26 11:32 | 30.73807 | 70.04230 | 40790 ft | 510 kts | 145° |
| 2026-04-26 11:32 | 30.68258 | 70.09411 | 40785 ft | 511 kts | 145° |
| 2026-04-26 11:33 | 30.62712 | 70.14582 | 40781 ft | 511 kts | 145° |
| 2026-04-26 11:33 | 30.57203 | 70.19712 | 40781 ft | 511 kts | 145° |
| 2026-04-26 11:34 | 30.51644 | 70.24879 | 40752 ft | 513 kts | 145° |
| 2026-04-26 11:34 | 30.46061 | 70.30060 | 40767 ft | 515 kts | 145° |
| 2026-04-26 11:35 | 30.40456 | 70.35256 | 40749 ft | 516 kts | 145° |
| 2026-04-26 11:35 | 30.35803 | 70.39564 | 40744 ft | 516 kts | 145° |
| 2026-04-26 11:36 | 30.29238 | 70.45632 | 40730 ft | 516 kts | 145° |
| 2026-04-26 11:36 | 30.23632 | 70.50806 | 40716 ft | 516 kts | 146° |
| 2026-04-26 11:37 | 30.18067 | 70.55981 | 40718 ft | 516 kts | 145° |
| 2026-04-26 11:37 | 30.12529 | 70.61243 | 40704 ft | 515 kts | 144° |
| 2026-04-26 11:38 | 30.07002 | 70.66495 | 40714 ft | 514 kts | 144° |
| 2026-04-26 11:38 | 30.01481 | 70.71714 | 40700 ft | 511 kts | 145° |
| 2026-04-26 11:39 | 29.95987 | 70.76892 | 40691 ft | 509 kts | 145° |
| 2026-04-26 11:39 | 29.90506 | 70.82044 | 40689 ft | 508 kts | 145° |
| 2026-04-26 11:40 | 29.85056 | 70.87160 | 40691 ft | 508 kts | 145° |
| 2026-04-26 11:40 | 29.79571 | 70.92303 | 40687 ft | 508 kts | 145° |
| 2026-04-26 11:42 | 29.58783 | 71.12428 | 40683 ft | 511 kts | 142° |
| 2026-04-26 11:43 | 29.53518 | 71.17894 | 40685 ft | 510 kts | 142° |
| 2026-04-26 11:43 | 29.48264 | 71.23282 | 40686 ft | 510 kts | 142° |
| 2026-04-26 11:44 | 29.42956 | 71.28682 | 40686 ft | 510 kts | 142° |
| 2026-04-26 11:44 | 29.37642 | 71.34075 | 40686 ft | 510 kts | 142° |
| 2026-04-26 11:45 | 29.32332 | 71.39458 | 40681 ft | 510 kts | 142° |
| 2026-04-26 11:45 | 29.27024 | 71.44847 | 40686 ft | 510 kts | 142° |
| 2026-04-26 11:46 | 29.21727 | 71.50267 | 40687 ft | 510 kts | 142° |
| 2026-04-26 11:46 | 29.16431 | 71.55684 | 40689 ft | 510 kts | 142° |
| 2026-04-26 11:47 | 29.11130 | 71.61092 | 40689 ft | 512 kts | 142° |
| 2026-04-26 11:47 | 29.05812 | 71.66507 | 40687 ft | 512 kts | 141° |
| 2026-04-26 11:48 | 29.00528 | 71.71881 | 40680 ft | 512 kts | 141° |
| 2026-04-26 11:48 | 28.95206 | 71.77284 | 40682 ft | 511 kts | 142° |
| 2026-04-26 11:49 | 28.89873 | 71.82691 | 40676 ft | 511 kts | 142° |
| 2026-04-26 11:49 | 28.84551 | 71.88080 | 40662 ft | 511 kts | 141° |
| 2026-04-26 11:50 | 28.79255 | 71.93434 | 40677 ft | 512 kts | 141° |
| 2026-04-26 11:50 | 28.73918 | 71.98822 | 40665 ft | 512 kts | 141° |
| 2026-04-26 11:51 | 28.68584 | 72.04199 | 40661 ft | 512 kts | 141° |
| 2026-04-26 11:51 | 28.63242 | 72.09577 | 40662 ft | 512 kts | 141° |
| 2026-04-26 11:52 | 28.57897 | 72.14951 | 40652 ft | 513 kts | 141° |
| 2026-04-26 11:52 | 28.52611 | 72.20405 | 40664 ft | 515 kts | 136° |
| 2026-04-26 11:53 | 28.48490 | 72.27099 | 40658 ft | 520 kts | 116° |
| 2026-04-26 11:53 | 28.47248 | 72.30900 | 40650 ft | 522 kts | 105° |
| 2026-04-26 11:54 | 28.45796 | 72.38981 | 40644 ft | 523 kts | 100° |
| 2026-04-26 11:54 | 28.44627 | 72.47142 | 40648 ft | 523 kts | 99° |
| 2026-04-26 11:55 | 28.43456 | 72.55300 | 40637 ft | 523 kts | 100° |
| 2026-04-26 11:55 | 28.42237 | 72.63462 | 40642 ft | 523 kts | 100° |
| 2026-04-26 11:56 | 28.40994 | 72.71609 | 40627 ft | 524 kts | 100° |
| 2026-04-26 11:56 | 28.39741 | 72.79764 | 40635 ft | 523 kts | 100° |
| 2026-04-26 11:57 | 28.38489 | 72.87895 | 40627 ft | 523 kts | 100° |
| 2026-04-26 11:57 | 28.37240 | 72.95973 | 40644 ft | 523 kts | 100° |
| 2026-04-26 11:58 | 28.35978 | 73.04114 | 40626 ft | 524 kts | 100° |
| 2026-04-26 11:58 | 28.34708 | 73.12266 | 40619 ft | 524 kts | 101° |
| 2026-04-26 11:59 | 28.33433 | 73.20425 | 40618 ft | 524 kts | 101° |
| 2026-04-26 11:59 | 28.32154 | 73.28569 | 40620 ft | 524 kts | 101° |
| 2026-04-26 12:00 | 28.30869 | 73.36720 | 40630 ft | 525 kts | 101° |
| 2026-04-26 12:00 | 28.29578 | 73.44877 | 40635 ft | 526 kts | 101° |
| 2026-04-26 12:01 | 28.28289 | 73.52988 | 40636 ft | 526 kts | 101° |
| 2026-04-26 12:01 | 28.26986 | 73.61155 | 40638 ft | 526 kts | 101° |
| 2026-04-26 12:02 | 28.25679 | 73.69317 | 40650 ft | 526 kts | 101° |
| 2026-04-26 12:02 | 28.24366 | 73.77480 | 40647 ft | 526 kts | 101° |
| 2026-04-26 12:03 | 28.23047 | 73.85653 | 40659 ft | 526 kts | 101° |
| 2026-04-26 12:03 | 28.21725 | 73.93812 | 40657 ft | 526 kts | 101° |
| 2026-04-26 12:04 | 28.20397 | 74.01974 | 40667 ft | 526 kts | 101° |
| 2026-04-26 12:04 | 28.19224 | 74.10151 | 40671 ft | 526 kts | 94° |
| 2026-04-26 12:05 | 28.19380 | 74.18364 | 40671 ft | 524 kts | 85° |
| 2026-04-26 12:05 | 28.19938 | 74.26614 | 40681 ft | 525 kts | 84° |
| 2026-04-26 12:06 | 28.20555 | 74.34862 | 40681 ft | 525 kts | 84° |
| 2026-04-26 12:06 | 28.21149 | 74.43098 | 40681 ft | 523 kts | 85° |
| 2026-04-26 12:07 | 28.21718 | 74.51299 | 40687 ft | 521 kts | 85° |
| 2026-04-26 12:07 | 28.22272 | 74.59435 | 40690 ft | 521 kts | 85° |
| 2026-04-26 12:08 | 28.22824 | 74.67635 | 40691 ft | 521 kts | 85° |
| 2026-04-26 12:08 | 28.23373 | 74.75823 | 40694 ft | 521 kts | 85° |
| 2026-04-26 12:09 | 28.23916 | 74.84018 | 40701 ft | 521 kts | 85° |
| 2026-04-26 12:09 | 28.24456 | 74.92217 | 40698 ft | 521 kts | 85° |
| 2026-04-26 12:10 | 28.24990 | 75.00412 | 40690 ft | 521 kts | 85° |
| 2026-04-26 12:10 | 28.25520 | 75.08622 | 40696 ft | 521 kts | 85° |
| 2026-04-26 12:11 | 28.26042 | 75.16788 | 40702 ft | 523 kts | 85° |
| 2026-04-26 12:11 | 28.26563 | 75.25008 | 40694 ft | 523 kts | 85° |
| 2026-04-26 12:12 | 28.27080 | 75.33241 | 40696 ft | 523 kts | 85° |
| 2026-04-26 12:12 | 28.27592 | 75.41475 | 40699 ft | 523 kts | 85° |
| 2026-04-26 12:13 | 28.28099 | 75.49713 | 40699 ft | 525 kts | 85° |
| 2026-04-26 12:13 | 28.28603 | 75.57990 | 40692 ft | 527 kts | 85° |
| 2026-04-26 12:14 | 28.29103 | 75.66282 | 40692 ft | 527 kts | 85° |
| 2026-04-26 12:14 | 28.29599 | 75.74574 | 40686 ft | 527 kts | 85° |
| 2026-04-26 12:15 | 28.30085 | 75.82810 | 40689 ft | 527 kts | 85° |
| 2026-04-26 12:15 | 28.30572 | 75.91133 | 40690 ft | 529 kts | 85° |
| 2026-04-26 12:16 | 28.31055 | 75.99464 | 40689 ft | 529 kts | 85° |
| 2026-04-26 12:16 | 28.31532 | 76.07798 | 40686 ft | 529 kts | 86° |
| 2026-04-26 12:17 | 28.32004 | 76.16131 | 40687 ft | 529 kts | 85° |
| 2026-04-26 12:17 | 28.32471 | 76.24460 | 40690 ft | 529 kts | 85° |
| 2026-04-26 12:18 | 28.32930 | 76.32732 | 40690 ft | 529 kts | 86° |
| 2026-04-26 12:18 | 28.33386 | 76.41058 | 40697 ft | 529 kts | 86° |
| 2026-04-26 12:19 | 28.33838 | 76.49386 | 40697 ft | 529 kts | 86° |
| 2026-04-26 12:19 | 28.34285 | 76.57717 | 40704 ft | 529 kts | 86° |
| 2026-04-26 12:20 | 28.34251 | 76.66070 | 40702 ft | 530 kts | 99° |
| 2026-04-26 12:20 | 28.32301 | 76.74098 | 40702 ft | 527 kts | 111° |
| 2026-04-26 12:21 | 28.29735 | 76.81846 | 40700 ft | 528 kts | 113° |
| 2026-04-26 12:21 | 28.27058 | 76.89596 | 40705 ft | 527 kts | 113° |
| 2026-04-26 12:22 | 28.24396 | 76.97361 | 40704 ft | 529 kts | 112° |
| 2026-04-26 12:22 | 28.21752 | 77.05138 | 40702 ft | 529 kts | 112° |
| 2026-04-26 12:23 | 28.19110 | 77.12923 | 40691 ft | 529 kts | 112° |
| 2026-04-26 12:23 | 28.16465 | 77.20702 | 40694 ft | 529 kts | 112° |
| 2026-04-26 12:24 | 28.13812 | 77.28479 | 40685 ft | 529 kts | 112° |
| 2026-04-26 12:24 | 28.11156 | 77.36251 | 40683 ft | 530 kts | 112° |
| 2026-04-26 12:25 | 28.07154 | 77.47928 | 40670 ft | 529 kts | 113° |
| 2026-04-26 12:25 | 28.04487 | 77.55689 | 40672 ft | 529 kts | 113° |
| 2026-04-26 12:26 | 28.01833 | 77.63393 | 40669 ft | 529 kts | 113° |
| 2026-04-26 12:26 | 27.99151 | 77.71164 | 40668 ft | 530 kts | 113° |
| 2026-04-26 12:27 | 27.96464 | 77.78935 | 40669 ft | 530 kts | 113° |
| 2026-04-26 12:27 | 27.93773 | 77.86699 | 40665 ft | 530 kts | 113° |
| 2026-04-26 12:28 | 27.91078 | 77.94459 | 40659 ft | 530 kts | 113° |
| 2026-04-26 12:28 | 27.88377 | 78.02218 | 40656 ft | 530 kts | 113° |
| 2026-04-26 12:29 | 27.85670 | 78.09979 | 40653 ft | 531 kts | 113° |
| 2026-04-26 12:30 | 27.81603 | 78.21556 | 40644 ft | 531 kts | 114° |
| 2026-04-26 12:30 | 27.78723 | 78.29230 | 40639 ft | 530 kts | 115° |
| 2026-04-26 12:31 | 27.74353 | 78.40709 | 40631 ft | 530 kts | 115° |
| 2026-04-26 12:31 | 27.71460 | 78.48364 | 40630 ft | 530 kts | 115° |
| 2026-04-26 12:32 | 27.68573 | 78.56016 | 40631 ft | 530 kts | 115° |
| 2026-04-26 12:33 | 27.64251 | 78.67450 | 40628 ft | 530 kts | 115° |
| 2026-04-26 12:33 | 27.61346 | 78.75112 | 40607 ft | 531 kts | 115° |
| 2026-04-26 12:34 | 27.58436 | 78.82773 | 40619 ft | 531 kts | 115° |
| 2026-04-26 12:34 | 27.55524 | 78.90422 | 40612 ft | 531 kts | 115° |
| 2026-04-26 12:35 | 27.52612 | 78.98059 | 40616 ft | 531 kts | 115° |
| 2026-04-26 12:35 | 27.49691 | 79.05700 | 40615 ft | 531 kts | 115° |
| 2026-04-26 12:36 | 27.46787 | 79.13285 | 40614 ft | 532 kts | 115° |
| 2026-04-26 12:36 | 27.43855 | 79.20929 | 40611 ft | 532 kts | 115° |
| 2026-04-26 12:37 | 27.40917 | 79.28571 | 40615 ft | 532 kts | 115° |
| 2026-04-26 12:37 | 27.37974 | 79.36214 | 40615 ft | 532 kts | 115° |
| 2026-04-26 12:38 | 27.35526 | 79.42558 | 40609 ft | 532 kts | 115° |
| 2026-04-26 12:38 | 27.32576 | 79.50188 | 40608 ft | 532 kts | 115° |
| 2026-04-26 12:39 | 27.29051 | 79.59021 | 40607 ft | 532 kts | 116° |
| 2026-04-26 12:39 | 27.26497 | 79.65329 | 40609 ft | 532 kts | 116° |
| 2026-04-26 12:40 | 27.23434 | 79.72908 | 40612 ft | 532 kts | 116° |
| 2026-04-26 12:40 | 27.20377 | 79.80490 | 40614 ft | 533 kts | 116° |
| 2026-04-26 12:41 | 27.17312 | 79.88085 | 40609 ft | 535 kts | 116° |
| 2026-04-26 12:41 | 27.14238 | 79.95691 | 40608 ft | 535 kts | 116° |
| 2026-04-26 12:42 | 27.11153 | 80.03308 | 40593 ft | 535 kts | 116° |
| 2026-04-26 12:42 | 27.08091 | 80.10855 | 40613 ft | 534 kts | 116° |
| 2026-04-26 12:43 | 27.05011 | 80.18431 | 40616 ft | 534 kts | 116° |
| 2026-04-26 12:43 | 27.01919 | 80.26019 | 40614 ft | 535 kts | 116° |
| 2026-04-26 12:44 | 26.98821 | 80.33611 | 40618 ft | 535 kts | 117° |
| 2026-04-26 12:44 | 26.95723 | 80.41188 | 40618 ft | 535 kts | 117° |
| 2026-04-26 12:45 | 26.92615 | 80.48776 | 40613 ft | 535 kts | 117° |
| 2026-04-26 12:45 | 26.89507 | 80.56350 | 40620 ft | 535 kts | 117° |
| 2026-04-26 12:46 | 26.86384 | 80.63945 | 40613 ft | 537 kts | 117° |
| 2026-04-26 12:46 | 26.83261 | 80.71527 | 40607 ft | 535 kts | 117° |
| 2026-04-26 12:47 | 26.80141 | 80.79088 | 40606 ft | 534 kts | 117° |
| 2026-04-26 12:47 | 26.77038 | 80.86582 | 40604 ft | 534 kts | 117° |
| 2026-04-26 12:48 | 26.73150 | 80.93612 | 40611 ft | 530 kts | 128° |
| 2026-04-26 12:48 | 26.68856 | 81.00311 | 40626 ft | 530 kts | 129° |
| 2026-04-26 12:49 | 26.64489 | 81.06956 | 40618 ft | 530 kts | 130° |
| 2026-04-26 12:49 | 26.60124 | 81.13603 | 40611 ft | 530 kts | 129° |
| 2026-04-26 12:50 | 26.55772 | 81.20251 | 40618 ft | 530 kts | 129° |
| 2026-04-26 12:50 | 26.51427 | 81.26890 | 40607 ft | 529 kts | 129° |
| 2026-04-26 12:51 | 26.47084 | 81.33518 | 40624 ft | 529 kts | 129° |
| 2026-04-26 12:51 | 26.42760 | 81.40104 | 40614 ft | 530 kts | 129° |
| 2026-04-26 12:52 | 26.38402 | 81.46734 | 40621 ft | 530 kts | 129° |
| 2026-04-26 12:52 | 26.34041 | 81.53358 | 40602 ft | 529 kts | 129° |
| 2026-04-26 12:53 | 26.29673 | 81.59983 | 40609 ft | 530 kts | 129° |
| 2026-04-26 12:53 | 26.25305 | 81.66599 | 40602 ft | 530 kts | 129° |
| 2026-04-26 12:54 | 26.20962 | 81.73167 | 40604 ft | 529 kts | 129° |
| 2026-04-26 12:54 | 26.16593 | 81.79766 | 40606 ft | 529 kts | 129° |
| 2026-04-26 12:55 | 26.12224 | 81.86353 | 40605 ft | 529 kts | 129° |
| 2026-04-26 12:55 | 26.07853 | 81.92935 | 40603 ft | 529 kts | 129° |
| 2026-04-26 12:56 | 26.03476 | 81.99518 | 40592 ft | 529 kts | 129° |
| 2026-04-26 12:56 | 25.99102 | 82.06086 | 40606 ft | 528 kts | 129° |
| 2026-04-26 12:57 | 25.94727 | 82.12647 | 40604 ft | 528 kts | 129° |
| 2026-04-26 12:57 | 25.90348 | 82.19202 | 40603 ft | 528 kts | 129° |
| 2026-04-26 12:58 | 25.83804 | 82.28984 | 40606 ft | 528 kts | 129° |
| 2026-04-26 12:58 | 25.79420 | 82.35524 | 40603 ft | 528 kts | 129° |
| 2026-04-26 12:59 | 25.75034 | 82.42059 | 40591 ft | 528 kts | 129° |
| 2026-04-26 12:59 | 25.70638 | 82.48599 | 40606 ft | 529 kts | 129° |
| 2026-04-26 13:00 | 25.66234 | 82.55142 | 40607 ft | 529 kts | 129° |
| 2026-04-26 13:00 | 25.61829 | 82.61679 | 40608 ft | 529 kts | 129° |
| 2026-04-26 13:01 | 25.57445 | 82.68174 | 40605 ft | 529 kts | 129° |
| 2026-04-26 13:01 | 25.53037 | 82.74697 | 40608 ft | 529 kts | 129° |
| 2026-04-26 13:02 | 25.48613 | 82.81233 | 40608 ft | 529 kts | 129° |
| 2026-04-26 13:02 | 25.44794 | 82.88198 | 40611 ft | 532 kts | 114° |
| 2026-04-26 13:03 | 25.42069 | 82.95748 | 40611 ft | 533 kts | 111° |
| 2026-04-26 13:03 | 25.39521 | 83.03451 | 40612 ft | 533 kts | 111° |
| 2026-04-26 13:04 | 25.36988 | 83.11151 | 40610 ft | 533 kts | 111° |
| 2026-04-26 13:04 | 25.34426 | 83.18845 | 40619 ft | 533 kts | 111° |
| 2026-04-26 13:05 | 25.31845 | 83.26531 | 40622 ft | 533 kts | 111° |
| 2026-04-26 13:05 | 25.29257 | 83.34213 | 40622 ft | 533 kts | 111° |
| 2026-04-26 13:06 | 25.26666 | 83.41890 | 40622 ft | 533 kts | 111° |
| 2026-04-26 13:06 | 25.24071 | 83.49566 | 40634 ft | 533 kts | 111° |
| 2026-04-26 13:07 | 25.21470 | 83.57247 | 40631 ft | 533 kts | 111° |
| 2026-04-26 13:07 | 25.18888 | 83.64859 | 40627 ft | 533 kts | 111° |
| 2026-04-26 13:08 | 25.16283 | 83.72520 | 40630 ft | 533 kts | 111° |
| 2026-04-26 13:08 | 25.13676 | 83.80174 | 40636 ft | 533 kts | 111° |
| 2026-04-26 13:09 | 25.11064 | 83.87827 | 40636 ft | 533 kts | 111° |
| 2026-04-26 13:09 | 25.08450 | 83.95473 | 40627 ft | 531 kts | 111° |
| 2026-04-26 13:10 | 25.05845 | 84.03076 | 40629 ft | 529 kts | 111° |
| 2026-04-26 13:10 | 25.03243 | 84.10657 | 40628 ft | 528 kts | 111° |
| 2026-04-26 13:11 | 25.00631 | 84.18251 | 40628 ft | 529 kts | 111° |
| 2026-04-26 13:11 | 24.98040 | 84.25771 | 40630 ft | 529 kts | 111° |
| 2026-04-26 13:12 | 24.95425 | 84.33345 | 40632 ft | 529 kts | 111° |
| 2026-04-26 13:12 | 24.92800 | 84.40933 | 40636 ft | 530 kts | 111° |
| 2026-04-26 13:13 | 24.90172 | 84.48518 | 40629 ft | 531 kts | 112° |
| 2026-04-26 13:13 | 24.87533 | 84.56120 | 40633 ft | 532 kts | 112° |
| 2026-04-26 13:14 | 24.84889 | 84.63725 | 40643 ft | 532 kts | 112° |
| 2026-04-26 13:14 | 24.82238 | 84.71330 | 40652 ft | 532 kts | 112° |
| 2026-04-26 13:15 | 24.79584 | 84.78934 | 40658 ft | 532 kts | 112° |
| 2026-04-26 13:15 | 24.77375 | 84.85250 | 40664 ft | 532 kts | 112° |
| 2026-04-26 13:16 | 24.74083 | 84.94034 | 40665 ft | 530 kts | 120° |
| 2026-04-26 13:16 | 24.70220 | 85.00868 | 40663 ft | 528 kts | 126° |
| 2026-04-26 13:17 | 24.64038 | 85.10886 | 40657 ft | 527 kts | 127° |
| 2026-04-26 13:18 | 24.57842 | 85.20857 | 40650 ft | 526 kts | 126° |
| 2026-04-26 13:19 | 24.51679 | 85.30815 | 40667 ft | 525 kts | 126° |
| 2026-04-26 13:19 | 24.47568 | 85.37452 | 40667 ft | 525 kts | 126° |
| 2026-04-26 13:20 | 24.43450 | 85.44090 | 40691 ft | 525 kts | 126° |
| 2026-04-26 13:20 | 24.39365 | 85.50666 | 40694 ft | 525 kts | 126° |
| 2026-04-26 13:21 | 24.35252 | 85.57278 | 40694 ft | 525 kts | 127° |
| 2026-04-26 13:21 | 24.31130 | 85.63896 | 40716 ft | 525 kts | 127° |
| 2026-04-26 13:22 | 24.26998 | 85.70519 | 40709 ft | 527 kts | 127° |
| 2026-04-26 13:22 | 24.22853 | 85.77156 | 40720 ft | 528 kts | 127° |
| 2026-04-26 13:23 | 24.18706 | 85.83786 | 40732 ft | 528 kts | 127° |
| 2026-04-26 13:23 | 24.14554 | 85.90417 | 40731 ft | 528 kts | 127° |
| 2026-04-26 13:24 | 24.10400 | 85.97041 | 40727 ft | 528 kts | 127° |
| 2026-04-26 13:24 | 24.06244 | 86.03660 | 40742 ft | 528 kts | 127° |
| 2026-04-26 13:25 | 24.02083 | 86.10277 | 40748 ft | 528 kts | 127° |
| 2026-04-26 13:25 | 23.97946 | 86.16847 | 40740 ft | 529 kts | 127° |
| 2026-04-26 13:26 | 23.93762 | 86.23484 | 40747 ft | 528 kts | 127° |
| 2026-04-26 13:26 | 23.89592 | 86.30088 | 40749 ft | 528 kts | 127° |
| 2026-04-26 13:27 | 23.85423 | 86.36685 | 40741 ft | 528 kts | 127° |
| 2026-04-26 13:27 | 23.81249 | 86.43280 | 40751 ft | 528 kts | 127° |
| 2026-04-26 13:28 | 23.77278 | 86.50036 | 40742 ft | 529 kts | 123° |
| 2026-04-26 13:28 | 23.73568 | 86.56917 | 40731 ft | 530 kts | 123° |
| 2026-04-26 13:29 | 23.69828 | 86.63815 | 40738 ft | 526 kts | 124° |
| 2026-04-26 13:29 | 23.66066 | 86.70628 | 40750 ft | 523 kts | 124° |
| 2026-04-26 13:30 | 23.62293 | 86.77397 | 40735 ft | 522 kts | 124° |
| 2026-04-26 13:30 | 23.58511 | 86.84168 | 40734 ft | 523 kts | 124° |
| 2026-04-26 13:31 | 23.54727 | 86.90938 | 40730 ft | 523 kts | 124° |
| 2026-04-26 13:31 | 23.50968 | 86.97658 | 40726 ft | 522 kts | 125° |
| 2026-04-26 13:32 | 23.47188 | 87.04410 | 40735 ft | 522 kts | 125° |
| 2026-04-26 13:32 | 23.43410 | 87.11161 | 40718 ft | 522 kts | 125° |
| 2026-04-26 13:33 | 23.39629 | 87.17910 | 40720 ft | 522 kts | 125° |
| 2026-04-26 13:33 | 23.35851 | 87.24645 | 40716 ft | 521 kts | 125° |
| 2026-04-26 13:34 | 23.32711 | 87.30236 | 40718 ft | 520 kts | 125° |
| 2026-04-26 13:34 | 23.28931 | 87.36957 | 40723 ft | 522 kts | 126° |
| 2026-04-26 13:35 | 23.24507 | 87.44808 | 40714 ft | 525 kts | 126° |
| 2026-04-26 13:35 | 23.21311 | 87.50474 | 40725 ft | 525 kts | 126° |
| 2026-04-26 13:36 | 23.17512 | 87.57205 | 40712 ft | 525 kts | 126° |
| 2026-04-26 13:36 | 23.13697 | 87.63953 | 40712 ft | 525 kts | 126° |
| 2026-04-26 13:37 | 23.09876 | 87.70703 | 40716 ft | 525 kts | 126° |
| 2026-04-26 13:37 | 23.06042 | 87.77464 | 40728 ft | 526 kts | 125° |
| 2026-04-26 13:38 | 23.02205 | 87.84223 | 40726 ft | 526 kts | 126° |
| 2026-04-26 13:38 | 22.98365 | 87.90981 | 40741 ft | 526 kts | 126° |
| 2026-04-26 13:39 | 22.94542 | 87.97698 | 40735 ft | 526 kts | 126° |
| 2026-04-26 13:39 | 22.90693 | 88.04452 | 40747 ft | 526 kts | 126° |
| 2026-04-26 13:40 | 22.86840 | 88.11203 | 40749 ft | 526 kts | 125° |
| 2026-04-26 13:40 | 22.82966 | 88.17982 | 40757 ft | 529 kts | 125° |
| 2026-04-26 13:41 | 22.79088 | 88.24761 | 40764 ft | 530 kts | 125° |
| 2026-04-26 13:41 | 22.75202 | 88.31546 | 40772 ft | 530 kts | 125° |
| 2026-04-26 13:42 | 22.71307 | 88.38335 | 40769 ft | 531 kts | 125° |
| 2026-04-26 13:42 | 22.67408 | 88.45124 | 40773 ft | 531 kts | 125° |
| 2026-04-26 13:43 | 22.63299 | 88.51690 | 40774 ft | 530 kts | 129° |
| 2026-04-26 13:43 | 22.58926 | 88.58151 | 40776 ft | 532 kts | 129° |
| 2026-04-26 13:44 | 22.54571 | 88.64623 | 40775 ft | 533 kts | 129° |
| 2026-04-26 13:44 | 22.50253 | 88.71135 | 40781 ft | 533 kts | 128° |
| 2026-04-26 13:45 | 22.45948 | 88.77659 | 40786 ft | 533 kts | 128° |
| 2026-04-26 13:45 | 22.41641 | 88.84182 | 40785 ft | 533 kts | 129° |
| 2026-04-26 13:46 | 22.37322 | 88.90711 | 40788 ft | 535 kts | 129° |
| 2026-04-26 13:46 | 22.32988 | 88.97253 | 40787 ft | 535 kts | 129° |
| 2026-04-26 13:47 | 22.28666 | 89.03806 | 40789 ft | 536 kts | 127° |
| 2026-04-26 13:47 | 22.24556 | 89.10454 | 40791 ft | 536 kts | 126° |
| 2026-04-26 13:48 | 22.20467 | 89.17201 | 40790 ft | 536 kts | 126° |
| 2026-04-26 13:48 | 22.16355 | 89.23920 | 40787 ft | 536 kts | 126° |
| 2026-04-26 13:49 | 22.12238 | 89.30591 | 40791 ft | 538 kts | 126° |
| 2026-04-26 13:49 | 22.08074 | 89.37314 | 40791 ft | 539 kts | 126° |
| 2026-04-26 13:50 | 22.03906 | 89.44038 | 40798 ft | 539 kts | 126° |
| 2026-04-26 13:50 | 21.99739 | 89.50756 | 40797 ft | 539 kts | 126° |
| 2026-04-26 13:51 | 21.95569 | 89.57468 | 40796 ft | 539 kts | 127° |
| 2026-04-26 13:51 | 21.91399 | 89.64172 | 40796 ft | 539 kts | 127° |
| 2026-04-26 13:52 | 21.87251 | 89.70835 | 40795 ft | 539 kts | 127° |
| 2026-04-26 13:52 | 21.83074 | 89.77534 | 40796 ft | 539 kts | 127° |
| 2026-04-26 13:53 | 21.78896 | 89.84227 | 40791 ft | 539 kts | 127° |
| 2026-04-26 13:53 | 21.74713 | 89.90919 | 40794 ft | 539 kts | 127° |
| 2026-04-26 13:54 | 21.70524 | 89.97612 | 40799 ft | 539 kts | 127° |
| 2026-04-26 13:54 | 21.66336 | 90.04296 | 40802 ft | 540 kts | 127° |
| 2026-04-26 13:55 | 21.60736 | 90.13221 | 40798 ft | 541 kts | 127° |
| 2026-04-26 13:56 | 21.53733 | 90.24362 | 40799 ft | 541 kts | 127° |
| 2026-04-26 13:56 | 21.49518 | 90.31056 | 40802 ft | 541 kts | 127° |
| 2026-04-26 13:57 | 21.45295 | 90.37757 | 40798 ft | 541 kts | 127° |
| 2026-04-26 13:57 | 21.41067 | 90.44455 | 40797 ft | 542 kts | 128° |
| 2026-04-26 13:58 | 21.36832 | 90.51156 | 40799 ft | 543 kts | 128° |
| 2026-04-26 13:58 | 21.32614 | 90.57828 | 40799 ft | 543 kts | 128° |
| 2026-04-26 13:59 | 21.28344 | 90.64578 | 40799 ft | 543 kts | 128° |
| 2026-04-26 13:59 | 21.24130 | 90.71230 | 40806 ft | 543 kts | 128° |
| 2026-04-26 14:00 | 21.15623 | 90.84633 | 40813 ft | 545 kts | 128° |
| 2026-04-26 14:01 | 21.11353 | 90.91349 | 40813 ft | 545 kts | 128° |
| 2026-04-26 14:01 | 21.07091 | 90.98047 | 40816 ft | 544 kts | 128° |
| 2026-04-26 14:02 | 21.02819 | 91.04751 | 40813 ft | 544 kts | 128° |
| 2026-04-26 14:02 | 20.98554 | 91.11435 | 40819 ft | 544 kts | 128° |
| 2026-04-26 14:03 | 20.94312 | 91.18077 | 40814 ft | 544 kts | 128° |
| 2026-04-26 14:03 | 20.90030 | 91.24771 | 40821 ft | 545 kts | 128° |
| 2026-04-26 14:04 | 20.85752 | 91.31453 | 40821 ft | 545 kts | 128° |
| 2026-04-26 14:04 | 20.81466 | 91.38140 | 40824 ft | 545 kts | 128° |
| 2026-04-26 14:05 | 20.77181 | 91.44816 | 40819 ft | 544 kts | 128° |
| 2026-04-26 14:05 | 20.72908 | 91.51468 | 40830 ft | 542 kts | 128° |
| 2026-04-26 14:06 | 20.68667 | 91.58060 | 40830 ft | 542 kts | 128° |
| 2026-04-26 14:06 | 20.64398 | 91.64689 | 40832 ft | 541 kts | 128° |
| 2026-04-26 14:07 | 20.60130 | 91.71309 | 40837 ft | 541 kts | 128° |
| 2026-04-26 14:07 | 20.55859 | 91.77925 | 40836 ft | 541 kts | 128° |
| 2026-04-26 14:08 | 20.51583 | 91.84542 | 40838 ft | 541 kts | 128° |
| 2026-04-26 14:08 | 20.47310 | 91.91147 | 40840 ft | 541 kts | 128° |
| 2026-04-26 14:09 | 20.43066 | 91.97699 | 40843 ft | 539 kts | 128° |
| 2026-04-26 14:09 | 20.38801 | 92.04253 | 40841 ft | 537 kts | 129° |
| 2026-04-26 14:10 | 20.34502 | 92.10751 | 40844 ft | 537 kts | 129° |
| 2026-04-26 14:10 | 20.30192 | 92.17250 | 40845 ft | 537 kts | 129° |
| 2026-04-26 14:11 | 20.23732 | 92.27005 | 40844 ft | 537 kts | 129° |
| 2026-04-26 14:11 | 20.19431 | 92.33499 | 40848 ft | 537 kts | 129° |
| 2026-04-26 14:12 | 20.15150 | 92.39956 | 40856 ft | 537 kts | 129° |
| 2026-04-26 14:12 | 20.10843 | 92.46445 | 40853 ft | 537 kts | 129° |
| 2026-04-26 14:13 | 20.04386 | 92.56158 | 40851 ft | 536 kts | 129° |
| 2026-04-26 14:14 | 20.00079 | 92.62629 | 40855 ft | 536 kts | 129° |
| 2026-04-26 14:14 | 19.95773 | 92.69090 | 40852 ft | 536 kts | 129° |
| 2026-04-26 14:15 | 19.91460 | 92.75554 | 40853 ft | 536 kts | 129° |
| 2026-04-26 14:15 | 19.87141 | 92.82020 | 40854 ft | 536 kts | 129° |
| 2026-04-26 14:16 | 19.82818 | 92.88487 | 40854 ft | 536 kts | 129° |
| 2026-04-26 14:16 | 19.78521 | 92.94907 | 40853 ft | 536 kts | 129° |
| 2026-04-26 14:17 | 19.74199 | 93.01358 | 40851 ft | 535 kts | 129° |
| 2026-04-26 14:17 | 19.69883 | 93.07794 | 40854 ft | 534 kts | 129° |
| 2026-04-26 14:18 | 19.65573 | 93.14212 | 40853 ft | 534 kts | 129° |
| 2026-04-26 14:18 | 19.61257 | 93.20632 | 40852 ft | 534 kts | 129° |
| 2026-04-26 14:19 | 19.56938 | 93.27050 | 40852 ft | 534 kts | 129° |
| 2026-04-26 14:19 | 19.52617 | 93.33465 | 40853 ft | 534 kts | 129° |
| 2026-04-26 14:20 | 19.48298 | 93.39870 | 40852 ft | 534 kts | 129° |
| 2026-04-26 14:20 | 19.43974 | 93.46276 | 40853 ft | 534 kts | 129° |
| 2026-04-26 14:21 | 19.39672 | 93.52642 | 40856 ft | 533 kts | 129° |
| 2026-04-26 14:21 | 19.35363 | 93.59013 | 40856 ft | 532 kts | 129° |
| 2026-04-26 14:22 | 19.31051 | 93.65381 | 40855 ft | 532 kts | 129° |
| 2026-04-26 14:22 | 19.26736 | 93.71746 | 40857 ft | 532 kts | 129° |
| 2026-04-26 14:23 | 19.22425 | 93.78098 | 40857 ft | 532 kts | 129° |
| 2026-04-26 14:23 | 19.18106 | 93.84456 | 40860 ft | 532 kts | 129° |
| 2026-04-26 14:24 | 19.13810 | 93.90774 | 40858 ft | 532 kts | 129° |
| 2026-04-26 14:24 | 19.09479 | 93.97137 | 40864 ft | 532 kts | 129° |
| 2026-04-26 14:25 | 19.05147 | 94.03496 | 40860 ft | 532 kts | 129° |
| 2026-04-26 14:25 | 19.00824 | 94.09835 | 40862 ft | 530 kts | 129° |
| 2026-04-26 14:26 | 18.96510 | 94.16153 | 40867 ft | 530 kts | 129° |
| 2026-04-26 14:26 | 18.92191 | 94.22472 | 40867 ft | 530 kts | 129° |
| 2026-04-26 14:27 | 18.87871 | 94.28786 | 40875 ft | 530 kts | 129° |
| 2026-04-26 14:27 | 18.83586 | 94.35044 | 40875 ft | 530 kts | 129° |
| 2026-04-26 14:28 | 18.79268 | 94.41343 | 40876 ft | 529 kts | 129° |
| 2026-04-26 14:28 | 18.74946 | 94.47641 | 40886 ft | 529 kts | 129° |
| 2026-04-26 14:29 | 18.70627 | 94.53928 | 40883 ft | 529 kts | 129° |
| 2026-04-26 14:29 | 18.66302 | 94.60219 | 40887 ft | 530 kts | 129° |
| 2026-04-26 14:30 | 18.61999 | 94.66472 | 40885 ft | 530 kts | 129° |
| 2026-04-26 14:30 | 18.57666 | 94.72761 | 40881 ft | 530 kts | 129° |
| 2026-04-26 14:31 | 18.53425 | 94.79116 | 40879 ft | 530 kts | 127° |
| 2026-04-26 14:31 | 18.49256 | 94.85536 | 40881 ft | 531 kts | 127° |
| 2026-04-26 14:32 | 18.45081 | 94.91937 | 40860 ft | 530 kts | 128° |
| 2026-04-26 14:32 | 18.40882 | 94.98331 | 40862 ft | 530 kts | 128° |
| 2026-04-26 14:33 | 18.37391 | 95.03630 | 40832 ft | 530 kts | 128° |
| 2026-04-26 14:33 | 18.32510 | 95.11031 | 40840 ft | 528 kts | 128° |
| 2026-04-26 14:34 | 18.28997 | 95.16347 | 40844 ft | 527 kts | 128° |
| 2026-04-26 14:34 | 18.24673 | 95.22513 | 40820 ft | 526 kts | 130° |
| 2026-04-26 14:35 | 18.20243 | 95.28649 | 40819 ft | 526 kts | 130° |
| 2026-04-26 14:35 | 18.15837 | 95.34795 | 40812 ft | 527 kts | 130° |
| 2026-04-26 14:36 | 18.11446 | 95.40960 | 40811 ft | 527 kts | 130° |
| 2026-04-26 14:36 | 18.07058 | 95.47132 | 40815 ft | 527 kts | 130° |
| 2026-04-26 14:37 | 18.02668 | 95.53302 | 40818 ft | 527 kts | 130° |
| 2026-04-26 14:37 | 17.98306 | 95.59423 | 40816 ft | 526 kts | 129° |
| 2026-04-26 14:38 | 17.93923 | 95.65569 | 40827 ft | 525 kts | 130° |
| 2026-04-26 14:38 | 17.89540 | 95.71707 | 40832 ft | 525 kts | 130° |
| 2026-04-26 14:39 | 17.85154 | 95.77844 | 40828 ft | 525 kts | 130° |
| 2026-04-26 14:39 | 17.80765 | 95.83979 | 40837 ft | 525 kts | 130° |
| 2026-04-26 14:40 | 17.76383 | 95.90099 | 40835 ft | 525 kts | 130° |
| 2026-04-26 14:40 | 17.71994 | 95.96223 | 40840 ft | 525 kts | 130° |
| 2026-04-26 14:41 | 17.67631 | 96.02305 | 40844 ft | 525 kts | 130° |
| 2026-04-26 14:41 | 17.63242 | 96.08417 | 40835 ft | 524 kts | 130° |
| 2026-04-26 14:42 | 17.58864 | 96.14511 | 40843 ft | 521 kts | 130° |
| 2026-04-26 14:42 | 17.54503 | 96.20575 | 40843 ft | 520 kts | 130° |
| 2026-04-26 14:43 | 17.50147 | 96.26624 | 40847 ft | 520 kts | 130° |
| 2026-04-26 14:43 | 17.45814 | 96.32636 | 40846 ft | 520 kts | 130° |
| 2026-04-26 14:44 | 17.41451 | 96.38685 | 40844 ft | 520 kts | 130° |
| 2026-04-26 14:44 | 17.37085 | 96.44734 | 40847 ft | 520 kts | 130° |
| 2026-04-26 14:45 | 17.32458 | 96.50522 | 40847 ft | 515 kts | 141° |
| 2026-04-26 14:45 | 17.26645 | 96.54736 | 40846 ft | 506 kts | 155° |
| 2026-04-26 14:46 | 17.20409 | 96.58112 | 40848 ft | 505 kts | 158° |
| 2026-04-26 14:46 | 17.14150 | 96.61342 | 40857 ft | 505 kts | 158° |
| 2026-04-26 14:47 | 17.07853 | 96.64604 | 40857 ft | 505 kts | 158° |
| 2026-04-26 14:47 | 17.01567 | 96.67891 | 40863 ft | 505 kts | 158° |
| 2026-04-26 14:48 | 16.95288 | 96.71185 | 40859 ft | 505 kts | 158° |
| 2026-04-26 14:48 | 16.89008 | 96.74478 | 40851 ft | 504 kts | 158° |
| 2026-04-26 14:49 | 16.82743 | 96.77759 | 40845 ft | 503 kts | 158° |
| 2026-04-26 14:49 | 16.76524 | 96.81013 | 40858 ft | 503 kts | 158° |
| 2026-04-26 14:50 | 16.70267 | 96.84283 | 40850 ft | 503 kts | 158° |
| 2026-04-26 14:50 | 16.64011 | 96.87551 | 40861 ft | 502 kts | 158° |
| 2026-04-26 14:51 | 16.57763 | 96.90813 | 40857 ft | 502 kts | 158° |
| 2026-04-26 14:51 | 16.51525 | 96.94067 | 40864 ft | 500 kts | 158° |
| 2026-04-26 14:52 | 16.45305 | 96.97309 | 40859 ft | 500 kts | 158° |
| 2026-04-26 14:52 | 16.39130 | 97.00525 | 40868 ft | 500 kts | 158° |
| 2026-04-26 14:53 | 16.32900 | 97.03767 | 40863 ft | 500 kts | 158° |
| 2026-04-26 14:53 | 16.26677 | 97.07004 | 40865 ft | 500 kts | 158° |
| 2026-04-26 14:54 | 16.20460 | 97.10235 | 40866 ft | 499 kts | 158° |
| 2026-04-26 14:54 | 16.14265 | 97.13454 | 40869 ft | 497 kts | 158° |
| 2026-04-26 14:55 | 16.08085 | 97.16661 | 40874 ft | 496 kts | 158° |
| 2026-04-26 14:55 | 16.01905 | 97.19866 | 40867 ft | 496 kts | 158° |
| 2026-04-26 14:56 | 15.95770 | 97.23046 | 40871 ft | 496 kts | 158° |
| 2026-04-26 14:56 | 15.89591 | 97.26246 | 40873 ft | 496 kts | 158° |
| 2026-04-26 14:57 | 15.83415 | 97.29442 | 40872 ft | 496 kts | 157° |
| 2026-04-26 14:57 | 15.77243 | 97.32635 | 40879 ft | 495 kts | 157° |
| 2026-04-26 14:58 | 15.71080 | 97.35820 | 40875 ft | 495 kts | 157° |
| 2026-04-26 14:58 | 15.64918 | 97.39003 | 40875 ft | 495 kts | 157° |
| 2026-04-26 14:59 | 15.58752 | 97.42186 | 40874 ft | 495 kts | 157° |
| 2026-04-26 14:59 | 15.52632 | 97.45343 | 40874 ft | 495 kts | 157° |
| 2026-04-26 15:00 | 15.46468 | 97.48520 | 40874 ft | 494 kts | 157° |
| 2026-04-26 15:00 | 15.40316 | 97.51719 | 40877 ft | 495 kts | 156° |
| 2026-04-26 15:01 | 15.34198 | 97.54995 | 40875 ft | 495 kts | 156° |
| 2026-04-26 15:01 | 15.28087 | 97.58275 | 40875 ft | 495 kts | 156° |
| 2026-04-26 15:02 | 15.21966 | 97.61545 | 40877 ft | 495 kts | 156° |
| 2026-04-26 15:02 | 15.15837 | 97.64809 | 40872 ft | 495 kts | 156° |
| 2026-04-26 15:03 | 15.09748 | 97.68047 | 40876 ft | 495 kts | 156° |
| 2026-04-26 15:03 | 15.03622 | 97.71303 | 40876 ft | 495 kts | 156° |
| 2026-04-26 15:04 | 14.97497 | 97.74558 | 40884 ft | 495 kts | 156° |
| 2026-04-26 15:04 | 14.91371 | 97.77816 | 40883 ft | 495 kts | 156° |
| 2026-04-26 15:05 | 14.85245 | 97.81065 | 40885 ft | 495 kts | 156° |
| 2026-04-26 15:05 | 14.79117 | 97.84309 | 40877 ft | 495 kts | 156° |
| 2026-04-26 15:06 | 14.72991 | 97.87552 | 40884 ft | 494 kts | 156° |
| 2026-04-26 15:06 | 14.66874 | 97.90790 | 40882 ft | 494 kts | 156° |
| 2026-04-26 15:07 | 14.57728 | 97.95613 | 40884 ft | 494 kts | 156° |
| 2026-04-26 15:07 | 14.51603 | 97.98838 | 40884 ft | 494 kts | 156° |
| 2026-04-26 15:08 | 14.45476 | 98.02063 | 40881 ft | 494 kts | 156° |
| 2026-04-26 15:08 | 14.39347 | 98.05288 | 40894 ft | 494 kts | 155° |
| 2026-04-26 15:09 | 14.33226 | 98.08506 | 40893 ft | 493 kts | 155° |
| 2026-04-26 15:09 | 14.27112 | 98.11720 | 40892 ft | 493 kts | 155° |
| 2026-04-26 15:10 | 14.22036 | 98.14387 | 40888 ft | 493 kts | 155° |
| 2026-04-26 15:10 | 14.14894 | 98.18136 | 40891 ft | 493 kts | 155° |
| 2026-04-26 15:11 | 14.08783 | 98.21344 | 40900 ft | 493 kts | 155° |
| 2026-04-26 15:11 | 14.02681 | 98.24552 | 40893 ft | 492 kts | 155° |
| 2026-04-26 15:12 | 13.96624 | 98.27729 | 40894 ft | 491 kts | 155° |
| 2026-04-26 15:12 | 13.90545 | 98.30915 | 40895 ft | 490 kts | 155° |
| 2026-04-26 15:13 | 13.84466 | 98.34102 | 40895 ft | 491 kts | 155° |
| 2026-04-26 15:13 | 13.78384 | 98.37289 | 40900 ft | 489 kts | 155° |
| 2026-04-26 15:14 | 13.72317 | 98.40466 | 40901 ft | 489 kts | 155° |
| 2026-04-26 15:14 | 13.66250 | 98.43641 | 40902 ft | 489 kts | 155° |
| 2026-04-26 15:15 | 13.60192 | 98.46810 | 40897 ft | 488 kts | 155° |
| 2026-04-26 15:15 | 13.54182 | 98.49951 | 40907 ft | 488 kts | 155° |
| 2026-04-26 15:16 | 13.48131 | 98.53116 | 40905 ft | 488 kts | 155° |
| 2026-04-26 15:16 | 13.42089 | 98.56315 | 40906 ft | 488 kts | 155° |
| 2026-04-26 15:17 | 13.37074 | 98.58979 | 40901 ft | 488 kts | 155° |
| 2026-04-26 15:17 | 13.30025 | 98.62719 | 40901 ft | 488 kts | 154° |
| 2026-04-26 15:18 | 13.23992 | 98.65914 | 40912 ft | 488 kts | 154° |
| 2026-04-26 15:18 | 13.17958 | 98.69106 | 40904 ft | 488 kts | 154° |
| 2026-04-26 15:19 | 13.11928 | 98.72294 | 40907 ft | 488 kts | 155° |
| 2026-04-26 15:19 | 13.05938 | 98.75460 | 40904 ft | 487 kts | 155° |
| 2026-04-26 15:20 | 12.99909 | 98.78645 | 40901 ft | 487 kts | 155° |
| 2026-04-26 15:20 | 12.93876 | 98.81830 | 40911 ft | 488 kts | 154° |
| 2026-04-26 15:21 | 12.87843 | 98.85014 | 40914 ft | 488 kts | 154° |
| 2026-04-26 15:21 | 12.81807 | 98.88197 | 40909 ft | 488 kts | 154° |
| 2026-04-26 15:22 | 12.75768 | 98.91380 | 40904 ft | 488 kts | 154° |
| 2026-04-26 15:22 | 12.69733 | 98.94560 | 40916 ft | 488 kts | 154° |
| 2026-04-26 15:23 | 12.63697 | 98.97738 | 40915 ft | 488 kts | 154° |
| 2026-04-26 15:23 | 12.57660 | 99.00915 | 40913 ft | 488 kts | 154° |
| 2026-04-26 15:24 | 12.51650 | 99.04075 | 40916 ft | 489 kts | 154° |
| 2026-04-26 15:24 | 12.45592 | 99.07259 | 40907 ft | 489 kts | 154° |
| 2026-04-26 15:25 | 12.40564 | 99.09902 | 40915 ft | 489 kts | 154° |
| 2026-04-26 15:25 | 12.33496 | 99.13614 | 40917 ft | 488 kts | 154° |
| 2026-04-26 15:26 | 12.27454 | 99.16785 | 40910 ft | 488 kts | 154° |
| 2026-04-26 15:26 | 12.21406 | 99.19957 | 40911 ft | 489 kts | 154° |
| 2026-04-26 15:27 | 12.15349 | 99.23133 | 40910 ft | 489 kts | 154° |
| 2026-04-26 15:27 | 12.09299 | 99.26304 | 40914 ft | 489 kts | 154° |
| 2026-04-26 15:28 | 12.03237 | 99.29479 | 40917 ft | 489 kts | 154° |
| 2026-04-26 15:28 | 11.97222 | 99.32628 | 40913 ft | 489 kts | 154° |
| 2026-04-26 15:29 | 11.91167 | 99.35796 | 40912 ft | 489 kts | 154° |
| 2026-04-26 15:30 | 11.79044 | 99.42135 | 40914 ft | 490 kts | 154° |
| 2026-04-26 15:30 | 11.72984 | 99.45301 | 40908 ft | 490 kts | 154° |
| 2026-04-26 15:31 | 11.64910 | 99.49517 | 40910 ft | 489 kts | 154° |
| 2026-04-26 15:32 | 11.56850 | 99.53742 | 40906 ft | 489 kts | 154° |
| 2026-04-26 15:32 | 11.49781 | 99.57468 | 40904 ft | 489 kts | 154° |
| 2026-04-26 15:33 | 11.43742 | 99.60649 | 40900 ft | 489 kts | 154° |
| 2026-04-26 15:33 | 11.37733 | 99.63809 | 40899 ft | 489 kts | 154° |
| 2026-04-26 15:34 | 11.31689 | 99.66986 | 40900 ft | 489 kts | 154° |
| 2026-04-26 15:34 | 11.25638 | 99.70165 | 40894 ft | 489 kts | 154° |
| 2026-04-26 15:35 | 11.19585 | 99.73344 | 40896 ft | 489 kts | 154° |
| 2026-04-26 15:35 | 11.13536 | 99.76519 | 40893 ft | 489 kts | 154° |
| 2026-04-26 15:36 | 11.07457 | 99.79657 | 40893 ft | 490 kts | 154° |
| 2026-04-26 15:36 | 11.01357 | 99.82750 | 40893 ft | 490 kts | 154° |
| 2026-04-26 15:37 | 10.95290 | 99.85832 | 40891 ft | 489 kts | 154° |
| 2026-04-26 15:37 | 10.89208 | 99.88932 | 40891 ft | 489 kts | 154° |
| 2026-04-26 15:38 | 10.83130 | 99.92040 | 40890 ft | 489 kts | 154° |
| 2026-04-26 15:38 | 10.77044 | 99.95143 | 40899 ft | 489 kts | 154° |
| 2026-04-26 15:39 | 10.70948 | 99.98247 | 40891 ft | 490 kts | 154° |
| 2026-04-26 15:39 | 10.65871 | 100.00834 | 40893 ft | 491 kts | 154° |
| 2026-04-26 15:40 | 10.58734 | 100.04469 | 40886 ft | 491 kts | 154° |
| 2026-04-26 15:40 | 10.52630 | 100.07577 | 40888 ft | 491 kts | 154° |
| 2026-04-26 15:41 | 10.46569 | 100.10662 | 40891 ft | 491 kts | 154° |
| 2026-04-26 15:41 | 10.40456 | 100.13771 | 40897 ft | 491 kts | 154° |
| 2026-04-26 15:42 | 10.34342 | 100.16880 | 40884 ft | 491 kts | 154° |
| 2026-04-26 15:42 | 10.28225 | 100.19988 | 40883 ft | 492 kts | 154° |
| 2026-04-26 15:43 | 10.22108 | 100.23096 | 40888 ft | 491 kts | 154° |
| 2026-04-26 15:44 | 10.12986 | 100.27728 | 40888 ft | 491 kts | 154° |
| 2026-04-26 15:44 | 10.03824 | 100.32377 | 40882 ft | 490 kts | 154° |
| 2026-04-26 15:45 | 9.94655 | 100.37030 | 40886 ft | 492 kts | 154° |
| 2026-04-26 15:46 | 9.85462 | 100.41696 | 40885 ft | 492 kts | 154° |
| 2026-04-26 15:46 | 9.80365 | 100.44277 | 40895 ft | 492 kts | 154° |
| 2026-04-26 15:47 | 9.70138 | 100.49454 | 40887 ft | 492 kts | 154° |
| 2026-04-26 15:48 | 9.64057 | 100.52571 | 40906 ft | 493 kts | 154° |
| 2026-04-26 15:48 | 9.57946 | 100.55722 | 40890 ft | 492 kts | 154° |
| 2026-04-26 15:49 | 9.51842 | 100.58867 | 40898 ft | 492 kts | 154° |
| 2026-04-26 15:49 | 9.45748 | 100.62008 | 40898 ft | 491 kts | 154° |
| 2026-04-26 15:50 | 9.39653 | 100.65139 | 40899 ft | 491 kts | 154° |
| 2026-04-26 15:50 | 9.33550 | 100.68273 | 40899 ft | 492 kts | 154° |
| 2026-04-26 15:51 | 9.27451 | 100.71406 | 40885 ft | 491 kts | 154° |
| 2026-04-26 15:51 | 9.21377 | 100.74526 | 40902 ft | 489 kts | 154° |
| 2026-04-26 15:52 | 9.15357 | 100.77617 | 40886 ft | 488 kts | 154° |
| 2026-04-26 15:52 | 9.09287 | 100.80732 | 40886 ft | 488 kts | 154° |
| 2026-04-26 15:53 | 9.03235 | 100.83837 | 40884 ft | 488 kts | 154° |
| 2026-04-26 15:53 | 8.97177 | 100.86943 | 40889 ft | 488 kts | 154° |
| 2026-04-26 15:54 | 8.91158 | 100.90029 | 40886 ft | 488 kts | 154° |
| 2026-04-26 15:54 | 8.85115 | 100.93126 | 40902 ft | 486 kts | 154° |
| 2026-04-26 15:55 | 8.79082 | 100.96215 | 40899 ft | 486 kts | 154° |
| 2026-04-26 15:55 | 8.73044 | 100.99308 | 40886 ft | 486 kts | 154° |
| 2026-04-26 15:56 | 8.67009 | 101.02396 | 40902 ft | 486 kts | 154° |
| 2026-04-26 15:56 | 8.60983 | 101.05481 | 40885 ft | 486 kts | 154° |
| 2026-04-26 15:57 | 8.54943 | 101.08574 | 40890 ft | 486 kts | 154° |
| 2026-04-26 15:57 | 8.48928 | 101.11674 | 40885 ft | 484 kts | 153° |
| 2026-04-26 15:58 | 8.42969 | 101.14746 | 40887 ft | 484 kts | 154° |
| 2026-04-26 15:58 | 8.36974 | 101.17833 | 40888 ft | 483 kts | 154° |
| 2026-04-26 15:59 | 8.30977 | 101.20919 | 40885 ft | 484 kts | 154° |
| 2026-04-26 15:59 | 8.24987 | 101.23998 | 40885 ft | 483 kts | 154° |
| 2026-04-26 16:00 | 8.19004 | 101.27075 | 40889 ft | 482 kts | 154° |
| 2026-04-26 16:00 | 8.13031 | 101.30147 | 40888 ft | 480 kts | 154° |
| 2026-04-26 16:01 | 8.07073 | 101.33209 | 40887 ft | 481 kts | 154° |
| 2026-04-26 16:01 | 8.01099 | 101.36278 | 40885 ft | 482 kts | 154° |
| 2026-04-26 16:02 | 7.95149 | 101.39333 | 40882 ft | 482 kts | 154° |
| 2026-04-26 16:02 | 7.89164 | 101.42406 | 40883 ft | 482 kts | 154° |
| 2026-04-26 16:03 | 7.83183 | 101.45475 | 40884 ft | 483 kts | 154° |
| 2026-04-26 16:03 | 7.77195 | 101.48548 | 40884 ft | 483 kts | 154° |
| 2026-04-26 16:04 | 7.71197 | 101.51625 | 40885 ft | 484 kts | 154° |
| 2026-04-26 16:04 | 7.65133 | 101.54560 | 40886 ft | 483 kts | 159° |
| 2026-04-26 16:05 | 7.58873 | 101.57032 | 40882 ft | 483 kts | 160° |
| 2026-04-26 16:05 | 7.52635 | 101.59404 | 40885 ft | 481 kts | 160° |
| 2026-04-26 16:06 | 7.46352 | 101.61780 | 40879 ft | 482 kts | 160° |
| 2026-04-26 16:06 | 7.40070 | 101.64163 | 40881 ft | 482 kts | 160° |
| 2026-04-26 16:07 | 7.33804 | 101.66547 | 40882 ft | 480 kts | 160° |
| 2026-04-26 16:07 | 7.27557 | 101.68923 | 40880 ft | 480 kts | 159° |
| 2026-04-26 16:08 | 7.21340 | 101.71287 | 40883 ft | 481 kts | 159° |
| 2026-04-26 16:08 | 7.15030 | 101.73686 | 40885 ft | 482 kts | 159° |
| 2026-04-26 16:09 | 7.08804 | 101.76051 | 40882 ft | 480 kts | 159° |
| 2026-04-26 16:09 | 7.02559 | 101.78424 | 40883 ft | 479 kts | 159° |
| 2026-04-26 16:10 | 6.96316 | 101.80795 | 40882 ft | 480 kts | 159° |
| 2026-04-26 16:10 | 6.90070 | 101.83166 | 40883 ft | 479 kts | 159° |
| 2026-04-26 16:11 | 6.83839 | 101.85531 | 40880 ft | 478 kts | 159° |
| 2026-04-26 16:11 | 6.77598 | 101.87899 | 40880 ft | 479 kts | 159° |
| 2026-04-26 16:12 | 6.71362 | 101.90265 | 40880 ft | 480 kts | 159° |
| 2026-04-26 16:12 | 6.62013 | 101.93810 | 40877 ft | 481 kts | 159° |
| 2026-04-26 16:13 | 6.55743 | 101.96187 | 40877 ft | 482 kts | 159° |
| 2026-04-26 16:13 | 6.49459 | 101.98568 | 40881 ft | 483 kts | 159° |
| 2026-04-26 16:14 | 6.43170 | 102.00951 | 40879 ft | 482 kts | 159° |
| 2026-04-26 16:15 | 6.33788 | 102.04505 | 40881 ft | 482 kts | 159° |
| 2026-04-26 16:15 | 6.27510 | 102.06882 | 40886 ft | 481 kts | 159° |
| 2026-04-26 16:16 | 6.18028 | 102.10209 | 40884 ft | 482 kts | 162° |
| 2026-04-26 16:16 | 6.11626 | 102.12240 | 40883 ft | 482 kts | 162° |
| 2026-04-26 16:17 | 6.05239 | 102.14297 | 40885 ft | 482 kts | 161° |
| 2026-04-26 16:17 | 5.98858 | 102.16385 | 40885 ft | 482 kts | 161° |
| 2026-04-26 16:18 | 5.89343 | 102.19516 | 40882 ft | 481 kts | 161° |
| 2026-04-26 16:19 | 5.79800 | 102.22653 | 40888 ft | 481 kts | 161° |
| 2026-04-26 16:20 | 5.70288 | 102.25901 | 40890 ft | 481 kts | 158° |
| 2026-04-26 16:20 | 5.61007 | 102.29725 | 40894 ft | 481 kts | 157° |
| 2026-04-26 16:21 | 5.54811 | 102.32266 | 40893 ft | 481 kts | 158° |
| 2026-04-26 16:21 | 5.48644 | 102.34746 | 40896 ft | 480 kts | 158° |
| 2026-04-26 16:22 | 5.42443 | 102.37221 | 40898 ft | 480 kts | 158° |
| 2026-04-26 16:22 | 5.36237 | 102.39696 | 40898 ft | 480 kts | 158° |
| 2026-04-26 16:23 | 5.30032 | 102.42173 | 40894 ft | 479 kts | 158° |
| 2026-04-26 16:23 | 5.23849 | 102.44642 | 40897 ft | 477 kts | 158° |
| 2026-04-26 16:24 | 5.17683 | 102.47105 | 40894 ft | 477 kts | 158° |
| 2026-04-26 16:24 | 5.11494 | 102.49581 | 41041 ft | 480 kts | 158° |
| 2026-04-26 16:25 | 5.08437 | 102.50801 | 41308 ft | 479 kts | 158° |
| 2026-04-26 16:25 | 5.05349 | 102.52031 | 41595 ft | 477 kts | 158° |
| 2026-04-26 16:25 | 5.02266 | 102.53259 | 41871 ft | 476 kts | 158° |
| 2026-04-26 16:25 | 4.99190 | 102.54484 | 42131 ft | 475 kts | 158° |
| 2026-04-26 16:26 | 4.96119 | 102.55709 | 42352 ft | 475 kts | 158° |
| 2026-04-26 16:26 | 4.94045 | 102.56536 | 42400 ft | 475 kts | 157° |
| 2026-04-26 16:26 | 4.86929 | 102.59379 | 42402 ft | 473 kts | 158° |
| 2026-04-26 16:27 | 4.80798 | 102.61820 | 42396 ft | 474 kts | 157° |
| 2026-04-26 16:27 | 4.74657 | 102.64266 | 42406 ft | 475 kts | 157° |
| 2026-04-26 16:28 | 4.68510 | 102.66716 | 42399 ft | 475 kts | 157° |
| 2026-04-26 16:28 | 4.63398 | 102.68753 | 42404 ft | 475 kts | 157° |
| 2026-04-26 16:29 | 4.57240 | 102.71206 | 42403 ft | 475 kts | 157° |
| 2026-04-26 16:29 | 4.51093 | 102.73654 | 42401 ft | 475 kts | 157° |
| 2026-04-26 16:30 | 4.44936 | 102.76106 | 42400 ft | 476 kts | 157° |
| 2026-04-26 16:30 | 4.38783 | 102.78557 | 42398 ft | 476 kts | 157° |
| 2026-04-26 16:31 | 4.32623 | 102.81010 | 42395 ft | 477 kts | 157° |
| 2026-04-26 16:31 | 4.26460 | 102.83463 | 42391 ft | 477 kts | 157° |
| 2026-04-26 16:32 | 4.20294 | 102.85917 | 42387 ft | 477 kts | 157° |
| 2026-04-26 16:32 | 4.14165 | 102.88356 | 42384 ft | 477 kts | 157° |
| 2026-04-26 16:33 | 4.07998 | 102.90810 | 42389 ft | 477 kts | 157° |
| 2026-04-26 16:33 | 4.01830 | 102.93263 | 42382 ft | 477 kts | 157° |
| 2026-04-26 16:34 | 3.95668 | 102.95714 | 42382 ft | 477 kts | 157° |
| 2026-04-26 16:34 | 3.89497 | 102.98169 | 42376 ft | 477 kts | 157° |
| 2026-04-26 16:35 | 3.83327 | 103.00622 | 42379 ft | 477 kts | 157° |
| 2026-04-26 16:35 | 3.77193 | 103.03062 | 42377 ft | 477 kts | 157° |
| 2026-04-26 16:36 | 3.71029 | 103.05517 | 42387 ft | 477 kts | 157° |
| 2026-04-26 16:36 | 3.64854 | 103.07968 | 42372 ft | 478 kts | 158° |
| 2026-04-26 16:37 | 3.58666 | 103.10424 | 42373 ft | 478 kts | 158° |
| 2026-04-26 16:37 | 3.52481 | 103.12881 | 42377 ft | 478 kts | 158° |
| 2026-04-26 16:38 | 3.46291 | 103.15340 | 42370 ft | 478 kts | 158° |
| 2026-04-26 16:38 | 3.40105 | 103.17798 | 42370 ft | 478 kts | 158° |
| 2026-04-26 16:39 | 3.33961 | 103.20243 | 42369 ft | 478 kts | 157° |
| 2026-04-26 16:39 | 3.28207 | 103.23537 | 42370 ft | 476 kts | 141° |
| 2026-04-26 16:40 | 3.23410 | 103.28097 | 42372 ft | 476 kts | 133° |
| 2026-04-26 16:40 | 3.18865 | 103.32921 | 42373 ft | 476 kts | 132° |
| 2026-04-26 16:41 | 3.14345 | 103.37781 | 42373 ft | 476 kts | 132° |
| 2026-04-26 16:41 | 3.09802 | 103.42626 | 42376 ft | 477 kts | 133° |
| 2026-04-26 16:42 | 3.05263 | 103.47441 | 42079 ft | 476 kts | 133° |
| 2026-04-26 16:42 | 3.03010 | 103.49827 | 41815 ft | 477 kts | 133° |
| 2026-04-26 16:42 | 3.00727 | 103.52245 | 41552 ft | 478 kts | 133° |
| 2026-04-26 16:43 | 2.98436 | 103.54670 | 41297 ft | 479 kts | 133° |
| 2026-04-26 16:43 | 2.96150 | 103.57091 | 41037 ft | 479 kts | 133° |
| 2026-04-26 16:43 | 2.93858 | 103.59518 | 40786 ft | 480 kts | 133° |
| 2026-04-26 16:43 | 2.91564 | 103.61948 | 40535 ft | 480 kts | 133° |
| 2026-04-26 16:44 | 2.89271 | 103.64377 | 40280 ft | 480 kts | 133° |
| 2026-04-26 16:44 | 2.87022 | 103.66860 | 40031 ft | 481 kts | 130° |
| 2026-04-26 16:44 | 2.84862 | 103.69419 | 39815 ft | 482 kts | 129° |
| 2026-04-26 16:44 | 2.82741 | 103.72010 | 39572 ft | 483 kts | 128° |
| 2026-04-26 16:45 | 2.80620 | 103.74615 | 39331 ft | 483 kts | 128° |
| 2026-04-26 16:45 | 2.78485 | 103.77222 | 39096 ft | 484 kts | 129° |
| 2026-04-26 16:45 | 2.76341 | 103.79819 | 38871 ft | 484 kts | 129° |
| 2026-04-26 16:45 | 2.74185 | 103.82410 | 38635 ft | 484 kts | 129° |
| 2026-04-26 16:46 | 2.72019 | 103.85001 | 38375 ft | 486 kts | 129° |
| 2026-04-26 16:46 | 2.69848 | 103.87591 | 38120 ft | 486 kts | 129° |
| 2026-04-26 16:46 | 2.67677 | 103.90177 | 37847 ft | 485 kts | 129° |
| 2026-04-26 16:46 | 2.65508 | 103.92762 | 37576 ft | 486 kts | 129° |
| 2026-04-26 16:47 | 2.63362 | 103.95320 | 37331 ft | 487 kts | 129° |
| 2026-04-26 16:47 | 2.61183 | 103.97917 | 37086 ft | 487 kts | 129° |
| 2026-04-26 16:47 | 2.59006 | 104.00512 | 36822 ft | 488 kts | 129° |
| 2026-04-26 16:47 | 2.56809 | 104.03106 | 36563 ft | 489 kts | 131° |
| 2026-04-26 16:48 | 2.54386 | 104.05489 | 36327 ft | 489 kts | 139° |
| 2026-04-26 16:48 | 2.51637 | 104.07497 | 36076 ft | 491 kts | 148° |
| 2026-04-26 16:48 | 2.48586 | 104.09045 | 35834 ft | 493 kts | 157° |
| 2026-04-26 16:48 | 2.45309 | 104.10059 | 35593 ft | 495 kts | 167° |
| 2026-04-26 16:49 | 2.41892 | 104.10503 | 35359 ft | 496 kts | 176° |
| 2026-04-26 16:49 | 2.38428 | 104.10614 | 35121 ft | 498 kts | 178° |
| 2026-04-26 16:49 | 2.34962 | 104.10627 | 34883 ft | 499 kts | 179° |
| 2026-04-26 16:49 | 2.31477 | 104.10598 | 34652 ft | 499 kts | 179° |
| 2026-04-26 16:50 | 2.28004 | 104.10561 | 34421 ft | 500 kts | 179° |
| 2026-04-26 16:50 | 2.24520 | 104.10530 | 34194 ft | 501 kts | 179° |
| 2026-04-26 16:50 | 2.21077 | 104.10510 | 33977 ft | 501 kts | 179° |
| 2026-04-26 16:50 | 2.17594 | 104.10500 | 33745 ft | 500 kts | 179° |
| 2026-04-26 16:51 | 2.14112 | 104.10496 | 33484 ft | 501 kts | 179° |
| 2026-04-26 16:51 | 2.10624 | 104.10496 | 33221 ft | 502 kts | 179° |
| 2026-04-26 16:51 | 2.07127 | 104.10497 | 32970 ft | 503 kts | 179° |
| 2026-04-26 16:51 | 2.03620 | 104.10498 | 32719 ft | 504 kts | 179° |
| 2026-04-26 16:52 | 2.00109 | 104.10499 | 32471 ft | 505 kts | 179° |
| 2026-04-26 16:52 | 1.97774 | 104.10500 | 32308 ft | 506 kts | 178° |
| 2026-04-26 16:52 | 1.93055 | 104.10516 | 31980 ft | 508 kts | 178° |
| 2026-04-26 16:52 | 1.89518 | 104.10533 | 31733 ft | 509 kts | 178° |
| 2026-04-26 16:53 | 1.85966 | 104.10552 | 31495 ft | 510 kts | 178° |
| 2026-04-26 16:53 | 1.82414 | 104.10570 | 31255 ft | 511 kts | 178° |
| 2026-04-26 16:53 | 1.78846 | 104.10588 | 31022 ft | 512 kts | 178° |
| 2026-04-26 16:53 | 1.75288 | 104.10605 | 30788 ft | 512 kts | 178° |
| 2026-04-26 16:54 | 1.71727 | 104.10621 | 30558 ft | 511 kts | 178° |
| 2026-04-26 16:54 | 1.68176 | 104.10588 | 30329 ft | 511 kts | 182° |
| 2026-04-26 16:54 | 1.64718 | 104.09991 | 30106 ft | 513 kts | 195° |
| 2026-04-26 16:54 | 1.61448 | 104.08573 | 29875 ft | 514 kts | 210° |
| 2026-04-26 16:55 | 1.58636 | 104.06373 | 29607 ft | 516 kts | 224° |
| 2026-04-26 16:55 | 1.56440 | 104.03543 | 29367 ft | 515 kts | 237° |
| 2026-04-26 16:55 | 1.54475 | 104.00548 | 29098 ft | 515 kts | 238° |
| 2026-04-26 16:55 | 1.52625 | 103.97488 | 28830 ft | 513 kts | 238° |
| 2026-04-26 16:56 | 1.48864 | 103.91464 | 28347 ft | 509 kts | 237° |
| 2026-04-26 16:56 | 1.46951 | 103.88492 | 28088 ft | 507 kts | 236° |
| 2026-04-26 16:56 | 1.45035 | 103.85542 | 27829 ft | 504 kts | 236° |
| 2026-04-26 16:57 | 1.43118 | 103.82606 | 27590 ft | 502 kts | 236° |
| 2026-04-26 16:57 | 1.41206 | 103.79688 | 27336 ft | 501 kts | 236° |
| 2026-04-26 16:57 | 1.37421 | 103.73922 | 26871 ft | 498 kts | 236° |
| 2026-04-26 16:58 | 1.35528 | 103.71040 | 26619 ft | 496 kts | 236° |
| 2026-04-26 16:58 | 1.34247 | 103.69092 | 26463 ft | 495 kts | 236° |
| 2026-04-26 16:58 | 1.29858 | 103.62415 | 25909 ft | 492 kts | 236° |
| 2026-04-26 16:59 | 1.27983 | 103.59564 | 25664 ft | 490 kts | 236° |
| 2026-04-26 16:59 | 1.24243 | 103.53876 | 25200 ft | 488 kts | 236° |
| 2026-04-26 17:00 | 1.20528 | 103.48227 | 24751 ft | 485 kts | 236° |
| 2026-04-26 17:00 | 1.16830 | 103.42604 | 24307 ft | 482 kts | 235° |
| 2026-04-26 17:00 | 1.14991 | 103.39807 | 24086 ft | 481 kts | 235° |
| 2026-04-26 17:01 | 1.13179 | 103.37053 | 23871 ft | 480 kts | 235° |
| 2026-04-26 17:01 | 1.11346 | 103.34266 | 23672 ft | 478 kts | 236° |
| 2026-04-26 17:01 | 1.09522 | 103.31493 | 23454 ft | 476 kts | 235° |
| 2026-04-26 17:01 | 1.07707 | 103.28734 | 23191 ft | 474 kts | 235° |
| 2026-04-26 17:02 | 1.05898 | 103.25983 | 22858 ft | 472 kts | 235° |
| 2026-04-26 17:02 | 1.04110 | 103.23265 | 22232 ft | 465 kts | 235° |
| 2026-04-26 17:02 | 1.02271 | 103.20630 | 21514 ft | 459 kts | 229° |
| 2026-04-26 17:02 | 0.99949 | 103.18506 | 20781 ft | 450 kts | 212° |
| 2026-04-26 17:03 | 0.97166 | 103.17162 | 20071 ft | 441 kts | 195° |
| 2026-04-26 17:03 | 0.94174 | 103.16706 | 19386 ft | 432 kts | 177° |
| 2026-04-26 17:03 | 0.91250 | 103.17169 | 18722 ft | 422 kts | 160° |
| 2026-04-26 17:03 | 0.88709 | 103.18468 | 18102 ft | 412 kts | 142° |
| 2026-04-26 17:04 | 0.86746 | 103.20488 | 17450 ft | 403 kts | 123° |
| 2026-04-26 17:04 | 0.85592 | 103.22998 | 16854 ft | 395 kts | 104° |
| 2026-04-26 17:04 | 0.85354 | 103.25700 | 16274 ft | 390 kts | 86° |
| 2026-04-26 17:04 | 0.85843 | 103.28344 | 15675 ft | 386 kts | 73° |
| 2026-04-26 17:05 | 0.86922 | 103.30789 | 15064 ft | 384 kts | 60° |
| 2026-04-26 17:05 | 0.88549 | 103.32904 | 14432 ft | 384 kts | 49° |
| 2026-04-26 17:05 | 0.90387 | 103.34824 | 13795 ft | 382 kts | 47° |
| 2026-04-26 17:05 | 0.92232 | 103.36726 | 13092 ft | 378 kts | 47° |
| 2026-04-26 17:06 | 0.94039 | 103.38615 | 12435 ft | 374 kts | 48° |
| 2026-04-26 17:06 | 0.95733 | 103.40510 | 11880 ft | 367 kts | 54° |
| 2026-04-26 17:06 | 0.96942 | 103.42715 | 11239 ft | 361 kts | 71° |
| 2026-04-26 17:06 | 0.97342 | 103.45169 | 10649 ft | 357 kts | 90° |
| 2026-04-26 17:07 | 0.97200 | 103.47573 | 10513 ft | 337 kts | 94° |
| 2026-04-26 17:07 | 0.97007 | 103.49840 | 10423 ft | 317 kts | 94° |
| 2026-04-26 17:07 | 0.96826 | 103.51977 | 10325 ft | 300 kts | 94° |
| 2026-04-26 17:07 | 0.96658 | 103.53995 | 10215 ft | 284 kts | 94° |
| 2026-04-26 17:08 | 0.96503 | 103.55923 | 10108 ft | 273 kts | 93° |
| 2026-04-26 17:08 | 0.96541 | 103.57782 | 9981 ft | 262 kts | 83° |
| 2026-04-26 17:08 | 0.96770 | 103.59613 | 9741 ft | 273 kts | 82° |
| 2026-04-26 17:08 | 0.97043 | 103.61531 | 9593 ft | 280 kts | 81° |
| 2026-04-26 17:09 | 0.97313 | 103.63426 | 9071 ft | 280 kts | 81° |
| 2026-04-26 17:09 | 0.97498 | 103.64732 | 8745 ft | 280 kts | 81° |
| 2026-04-26 17:09 | 0.97856 | 103.67286 | 8240 ft | 279 kts | 82° |
| 2026-04-26 17:09 | 0.98125 | 103.69208 | 7888 ft | 278 kts | 82° |
| 2026-04-26 17:10 | 0.98466 | 103.71103 | 7541 ft | 277 kts | 74° |
| 2026-04-26 17:10 | 0.99273 | 103.72839 | 7193 ft | 275 kts | 59° |
| 2026-04-26 17:10 | 1.00295 | 103.74452 | 6849 ft | 274 kts | 57° |
| 2026-04-26 17:10 | 1.01334 | 103.76044 | 6516 ft | 273 kts | 57° |
| 2026-04-26 17:11 | 1.02368 | 103.77635 | 6180 ft | 272 kts | 57° |
| 2026-04-26 17:11 | 1.03379 | 103.79198 | 5845 ft | 271 kts | 57° |
| 2026-04-26 17:11 | 1.04398 | 103.80779 | 5505 ft | 270 kts | 57° |
| 2026-04-26 17:11 | 1.05410 | 103.82353 | 5184 ft | 269 kts | 57° |
| 2026-04-26 17:12 | 1.07424 | 103.85468 | 4548 ft | 263 kts | 55° |
| 2026-04-26 17:12 | 1.08805 | 103.86581 | 4337 ft | 251 kts | 26° |
| 2026-04-26 17:13 | 1.11917 | 103.87774 | 4019 ft | 224 kts | 23° |
| 2026-04-26 17:13 | 1.13295 | 103.88361 | 3825 ft | 207 kts | 24° |
| 2026-04-26 17:13 | 1.15785 | 103.89461 | 3604 ft | 186 kts | 24° |
| 2026-04-26 17:14 | 1.16949 | 103.89970 | 3398 ft | 180 kts | 24° |
| 2026-04-26 17:14 | 1.19265 | 103.91078 | 2644 ft | 184 kts | 21° |
| 2026-04-26 17:14 | 1.20434 | 103.91555 | 2460 ft | 173 kts | 23° |
| 2026-04-26 17:15 | 1.22423 | 103.92421 | 2402 ft | 140 kts | 22° |
| 2026-04-26 17:15 | 1.23295 | 103.92763 | 2291 ft | 135 kts | 22° |
| 2026-04-26 17:15 | 1.24148 | 103.93114 | 2172 ft | 129 kts | 23° |
| 2026-04-26 17:16 | 1.24945 | 103.93519 | 1993 ft | 127 kts | 31° |
| 2026-04-26 17:16 | 1.25757 | 103.93885 | 1787 ft | 130 kts | 19° |
| 2026-04-26 17:16 | 1.26589 | 103.94200 | 1668 ft | 126 kts | 22° |
| 2026-04-26 17:16 | 1.27407 | 103.94519 | 1467 ft | 126 kts | 22° |
| 2026-04-26 17:17 | 1.28197 | 103.94881 | 1238 ft | 125 kts | 24° |
| 2026-04-26 17:17 | 1.28997 | 103.95222 | 1137 ft | 127 kts | 21° |
| 2026-04-26 17:17 | 1.29823 | 103.95554 | 937 ft | 126 kts | 24° |
| 2026-04-26 17:17 | 1.30630 | 103.95902 | 808 ft | 128 kts | 24° |
| 2026-04-26 17:18 | 1.31441 | 103.96248 | 618 ft | 128 kts | 22° |
| 2026-04-26 17:18 | 1.32240 | 103.96621 | 455 ft | 127 kts | 24° |
| 2026-04-26 17:18 | 1.33050 | 103.96961 | 322 ft | 127 kts | 23° |
| 2026-04-26 17:18 | 1.33852 | 103.97310 | 213 ft | 127 kts | 23° |
| 2026-04-26 17:19 | 1.35488 | 103.97991 | 37 ft | 118 kts | 23° |
| 2026-04-26 17:19 | 1.36007 | 103.98214 | 37 ft | 46 kts | 24° |
| 2026-04-26 17:19 | 1.36277 | 103.98332 | 36 ft | 40 kts | 23° |
| 2026-04-26 17:20 | 1.36445 | 103.98399 | 37 ft | 38 kts | 21° |
| 2026-04-26 17:20 | 1.36575 | 103.98460 | 37 ft | 17 kts | 32° |
| 2026-04-26 17:20 | 1.36726 | 103.98594 | 37 ft | 17 kts | 51° |
| 2026-04-26 17:20 | 1.36803 | 103.98695 | 37 ft | 15 kts | 53° |
| 2026-04-26 17:21 | 1.36835 | 103.98784 | 37 ft | 14 kts | 90° |
| 2026-04-26 17:21 | 1.36814 | 103.98827 | 37 ft | 6 kts | 147° |
| 2026-04-26 17:21 | 1.36765 | 103.98826 | 37 ft | 9 kts | 191° |
| 2026-04-26 17:21 | 1.36698 | 103.98799 | 37 ft | 12 kts | 195° |
| 2026-04-26 17:22 | 1.36610 | 103.98804 | 37 ft | 14 kts | 172° |
| 2026-04-26 17:22 | 1.36501 | 103.98809 | 37 ft | 17 kts | 190° |
| 2026-04-26 17:22 | 1.36393 | 103.98767 | 37 ft | 15 kts | 205° |
| 2026-04-26 17:22 | 1.36333 | 103.98766 | 37 ft | 7 kts | 140° |
| 2026-04-26 17:23 | 1.36321 | 103.98785 | 37 ft | 5 kts | 120° |
| 2026-04-26 17:23 | 1.36305 | 103.98818 | 37 ft | 5 kts | 115° |
| 2026-04-26 17:23 | 1.36301 | 103.98828 | 37 ft | 3 kts | 114° |
| 2026-04-26 17:23 | 1.36298 | 103.98834 | 37 ft | 0 kts | 114° |